<?xml version="1.0" encoding="UTF-8" standalone="no" ?>
<gpx xmlns="http://www.topografix.com/GPX/1/1" xmlns:xsi="http://www.w3.org/2001/XMLSchema-instance" xsi:schemaLocation="http://www.topografix.com/GPX/1/1 http://www.topografix.com/GPX/1/1/gpx.xsd" version="1.1" creator="VisuGPX - https://www.visugpx.com">
  <metadata>
    <name>Sainte Neomaye 7,5km</name>
  </metadata>
  <wpt lat="46.3865" lon="-0.24332">
    <ele>48.4</ele>
  </wpt>
  <wpt lat="46.37841" lon="-0.25575">
    <ele>47.7</ele>
  </wpt>
  <trk>
    <name><![CDATA[Sainte Neomaye 7,5km_1]]></name>
    <trkseg>
      <trkpt lat="46.37221" lon="-0.26176">
        <ele>143</ele>
        <time>2011-09-13T14:04:22Z</time>
      </trkpt>
      <trkpt lat="46.37222" lon="-0.26174">
        <ele>144</ele>
        <time>2011-09-13T14:04:32Z</time>
      </trkpt>
      <trkpt lat="46.37216" lon="-0.26169">
        <ele>145</ele>
        <time>2011-09-13T14:04:37Z</time>
      </trkpt>
      <trkpt lat="46.37213" lon="-0.26164">
        <ele>145</ele>
        <time>2011-09-13T14:04:42Z</time>
      </trkpt>
      <trkpt lat="46.37213" lon="-0.26165">
        <ele>146</ele>
        <time>2011-09-13T14:04:47Z</time>
      </trkpt>
      <trkpt lat="46.37213" lon="-0.26163">
        <ele>145</ele>
        <time>2011-09-13T14:04:52Z</time>
      </trkpt>
      <trkpt lat="46.37213" lon="-0.26163">
        <ele>145</ele>
        <time>2011-09-13T14:05:07Z</time>
      </trkpt>
      <trkpt lat="46.37213" lon="-0.26163">
        <ele>145</ele>
        <time>2011-09-13T14:05:12Z</time>
      </trkpt>
      <trkpt lat="46.37212" lon="-0.26164">
        <ele>143</ele>
        <time>2011-09-13T14:05:17Z</time>
      </trkpt>
      <trkpt lat="46.37212" lon="-0.26163">
        <ele>143</ele>
        <time>2011-09-13T14:05:22Z</time>
      </trkpt>
      <trkpt lat="46.37213" lon="-0.26164">
        <ele>144</ele>
        <time>2011-09-13T14:05:27Z</time>
      </trkpt>
      <trkpt lat="46.37213" lon="-0.26164">
        <ele>143</ele>
        <time>2011-09-13T14:05:32Z</time>
      </trkpt>
      <trkpt lat="46.37214" lon="-0.26164">
        <ele>144</ele>
        <time>2011-09-13T14:05:37Z</time>
      </trkpt>
      <trkpt lat="46.37213" lon="-0.26163">
        <ele>143</ele>
        <time>2011-09-13T14:05:52Z</time>
      </trkpt>
      <trkpt lat="46.37213" lon="-0.26164">
        <ele>143</ele>
        <time>2011-09-13T14:05:57Z</time>
      </trkpt>
      <trkpt lat="46.37213" lon="-0.26164">
        <ele>143</ele>
        <time>2011-09-13T14:06:02Z</time>
      </trkpt>
      <trkpt lat="46.37212" lon="-0.26164">
        <ele>143</ele>
        <time>2011-09-13T14:06:07Z</time>
      </trkpt>
      <trkpt lat="46.37213" lon="-0.26164">
        <ele>143</ele>
        <time>2011-09-13T14:06:22Z</time>
      </trkpt>
      <trkpt lat="46.37214" lon="-0.26164">
        <ele>143</ele>
        <time>2011-09-13T14:07:07Z</time>
      </trkpt>
      <trkpt lat="46.37209" lon="-0.26156">
        <ele>143</ele>
        <time>2011-09-13T14:07:12Z</time>
      </trkpt>
      <trkpt lat="46.37211" lon="-0.26153">
        <ele>143</ele>
        <time>2011-09-13T14:07:17Z</time>
      </trkpt>
      <trkpt lat="46.37213" lon="-0.26146">
        <ele>143</ele>
        <time>2011-09-13T14:07:22Z</time>
      </trkpt>
      <trkpt lat="46.37216" lon="-0.26145">
        <ele>143</ele>
        <time>2011-09-13T14:07:27Z</time>
      </trkpt>
      <trkpt lat="46.3722" lon="-0.26146">
        <ele>141</ele>
        <time>2011-09-13T14:07:32Z</time>
      </trkpt>
      <trkpt lat="46.37226" lon="-0.2615">
        <ele>141</ele>
        <time>2011-09-13T14:07:37Z</time>
      </trkpt>
      <trkpt lat="46.37228" lon="-0.26157">
        <ele>140</ele>
        <time>2011-09-13T14:07:42Z</time>
      </trkpt>
      <trkpt lat="46.37234" lon="-0.26163">
        <ele>137</ele>
        <time>2011-09-13T14:07:47Z</time>
      </trkpt>
      <trkpt lat="46.37234" lon="-0.26163">
        <ele>139</ele>
        <time>2011-09-13T14:07:52Z</time>
      </trkpt>
      <trkpt lat="46.37235" lon="-0.26163">
        <ele>140</ele>
        <time>2011-09-13T14:07:57Z</time>
      </trkpt>
      <trkpt lat="46.37234" lon="-0.26166">
        <ele>140</ele>
        <time>2011-09-13T14:08:02Z</time>
      </trkpt>
      <trkpt lat="46.37235" lon="-0.26165">
        <ele>141</ele>
        <time>2011-09-13T14:08:07Z</time>
      </trkpt>
      <trkpt lat="46.37235" lon="-0.26162">
        <ele>142</ele>
        <time>2011-09-13T14:08:12Z</time>
      </trkpt>
      <trkpt lat="46.37236" lon="-0.26161">
        <ele>143</ele>
        <time>2011-09-13T14:08:17Z</time>
      </trkpt>
      <trkpt lat="46.37235" lon="-0.26161">
        <ele>143</ele>
        <time>2011-09-13T14:08:22Z</time>
      </trkpt>
      <trkpt lat="46.37236" lon="-0.26162">
        <ele>143</ele>
        <time>2011-09-13T14:09:02Z</time>
      </trkpt>
      <trkpt lat="46.37239" lon="-0.26167">
        <ele>141</ele>
        <time>2011-09-13T14:09:07Z</time>
      </trkpt>
      <trkpt lat="46.37243" lon="-0.26169">
        <ele>137</ele>
        <time>2011-09-13T14:09:12Z</time>
      </trkpt>
      <trkpt lat="46.37243" lon="-0.26176">
        <ele>136</ele>
        <time>2011-09-13T14:09:17Z</time>
      </trkpt>
      <trkpt lat="46.37246" lon="-0.26182">
        <ele>136</ele>
        <time>2011-09-13T14:09:22Z</time>
      </trkpt>
      <trkpt lat="46.37251" lon="-0.26186">
        <ele>139</ele>
        <time>2011-09-13T14:09:27Z</time>
      </trkpt>
      <trkpt lat="46.37256" lon="-0.26192">
        <ele>137</ele>
        <time>2011-09-13T14:09:32Z</time>
      </trkpt>
      <trkpt lat="46.37261" lon="-0.26195">
        <ele>138</ele>
        <time>2011-09-13T14:09:37Z</time>
      </trkpt>
      <trkpt lat="46.37265" lon="-0.262">
        <ele>137</ele>
        <time>2011-09-13T14:09:42Z</time>
      </trkpt>
      <trkpt lat="46.37267" lon="-0.26202">
        <ele>137</ele>
        <time>2011-09-13T14:09:47Z</time>
      </trkpt>
      <trkpt lat="46.37268" lon="-0.26207">
        <ele>131</ele>
        <time>2011-09-13T14:09:52Z</time>
      </trkpt>
      <trkpt lat="46.3727" lon="-0.26213">
        <ele>131</ele>
        <time>2011-09-13T14:09:57Z</time>
      </trkpt>
      <trkpt lat="46.37274" lon="-0.26217">
        <ele>131</ele>
        <time>2011-09-13T14:10:02Z</time>
      </trkpt>
      <trkpt lat="46.37278" lon="-0.26224">
        <ele>131</ele>
        <time>2011-09-13T14:10:07Z</time>
      </trkpt>
      <trkpt lat="46.37281" lon="-0.2623">
        <ele>131</ele>
        <time>2011-09-13T14:10:12Z</time>
      </trkpt>
      <trkpt lat="46.37283" lon="-0.26239">
        <ele>129</ele>
        <time>2011-09-13T14:10:17Z</time>
      </trkpt>
      <trkpt lat="46.37286" lon="-0.26246">
        <ele>129</ele>
        <time>2011-09-13T14:10:22Z</time>
      </trkpt>
      <trkpt lat="46.37288" lon="-0.26252">
        <ele>130</ele>
        <time>2011-09-13T14:10:27Z</time>
      </trkpt>
      <trkpt lat="46.37295" lon="-0.26258">
        <ele>129</ele>
        <time>2011-09-13T14:10:32Z</time>
      </trkpt>
      <trkpt lat="46.37301" lon="-0.26263">
        <ele>129</ele>
        <time>2011-09-13T14:10:37Z</time>
      </trkpt>
      <trkpt lat="46.37302" lon="-0.2627">
        <ele>128</ele>
        <time>2011-09-13T14:10:42Z</time>
      </trkpt>
      <trkpt lat="46.37305" lon="-0.26275">
        <ele>128</ele>
        <time>2011-09-13T14:10:47Z</time>
      </trkpt>
      <trkpt lat="46.37309" lon="-0.2628">
        <ele>128</ele>
        <time>2011-09-13T14:10:52Z</time>
      </trkpt>
      <trkpt lat="46.37312" lon="-0.26285">
        <ele>128</ele>
        <time>2011-09-13T14:10:57Z</time>
      </trkpt>
      <trkpt lat="46.37316" lon="-0.26289">
        <ele>127</ele>
        <time>2011-09-13T14:11:02Z</time>
      </trkpt>
      <trkpt lat="46.37322" lon="-0.26294">
        <ele>124</ele>
        <time>2011-09-13T14:11:07Z</time>
      </trkpt>
      <trkpt lat="46.37322" lon="-0.26308">
        <ele>123</ele>
        <time>2011-09-13T14:11:12Z</time>
      </trkpt>
      <trkpt lat="46.37324" lon="-0.2631">
        <ele>122</ele>
        <time>2011-09-13T14:11:17Z</time>
      </trkpt>
      <trkpt lat="46.37327" lon="-0.26314">
        <ele>121</ele>
        <time>2011-09-13T14:11:22Z</time>
      </trkpt>
      <trkpt lat="46.37328" lon="-0.26317">
        <ele>120</ele>
        <time>2011-09-13T14:11:27Z</time>
      </trkpt>
      <trkpt lat="46.37326" lon="-0.26323">
        <ele>122</ele>
        <time>2011-09-13T14:11:32Z</time>
      </trkpt>
      <trkpt lat="46.37327" lon="-0.26328">
        <ele>121</ele>
        <time>2011-09-13T14:11:37Z</time>
      </trkpt>
      <trkpt lat="46.37329" lon="-0.26336">
        <ele>121</ele>
        <time>2011-09-13T14:11:42Z</time>
      </trkpt>
      <trkpt lat="46.37332" lon="-0.26343">
        <ele>120</ele>
        <time>2011-09-13T14:11:47Z</time>
      </trkpt>
      <trkpt lat="46.37332" lon="-0.26347">
        <ele>121</ele>
        <time>2011-09-13T14:11:52Z</time>
      </trkpt>
      <trkpt lat="46.37334" lon="-0.26346">
        <ele>122</ele>
        <time>2011-09-13T14:11:57Z</time>
      </trkpt>
      <trkpt lat="46.37335" lon="-0.26346">
        <ele>123</ele>
        <time>2011-09-13T14:12:02Z</time>
      </trkpt>
      <trkpt lat="46.37334" lon="-0.26347">
        <ele>123</ele>
        <time>2011-09-13T14:12:07Z</time>
      </trkpt>
      <trkpt lat="46.37337" lon="-0.26344">
        <ele>122</ele>
        <time>2011-09-13T14:12:37Z</time>
      </trkpt>
      <trkpt lat="46.37338" lon="-0.26345">
        <ele>123</ele>
        <time>2011-09-13T14:12:42Z</time>
      </trkpt>
      <trkpt lat="46.37338" lon="-0.26346">
        <ele>123</ele>
        <time>2011-09-13T14:12:47Z</time>
      </trkpt>
      <trkpt lat="46.37338" lon="-0.26346">
        <ele>123</ele>
        <time>2011-09-13T14:12:52Z</time>
      </trkpt>
      <trkpt lat="46.37338" lon="-0.26346">
        <ele>123</ele>
        <time>2011-09-13T14:12:57Z</time>
      </trkpt>
      <trkpt lat="46.37338" lon="-0.26346">
        <ele>124</ele>
        <time>2011-09-13T14:13:02Z</time>
      </trkpt>
      <trkpt lat="46.37338" lon="-0.26347">
        <ele>124</ele>
        <time>2011-09-13T14:13:07Z</time>
      </trkpt>
      <trkpt lat="46.37338" lon="-0.26347">
        <ele>124</ele>
        <time>2011-09-13T14:13:12Z</time>
      </trkpt>
      <trkpt lat="46.37337" lon="-0.26348">
        <ele>124</ele>
        <time>2011-09-13T14:13:22Z</time>
      </trkpt>
      <trkpt lat="46.37337" lon="-0.26346">
        <ele>125</ele>
        <time>2011-09-13T14:13:27Z</time>
      </trkpt>
      <trkpt lat="46.37336" lon="-0.26346">
        <ele>125</ele>
        <time>2011-09-13T14:13:32Z</time>
      </trkpt>
      <trkpt lat="46.37337" lon="-0.26346">
        <ele>125</ele>
        <time>2011-09-13T14:13:42Z</time>
      </trkpt>
      <trkpt lat="46.37337" lon="-0.26346">
        <ele>124</ele>
        <time>2011-09-13T14:16:22Z</time>
      </trkpt>
      <trkpt lat="46.37375" lon="-0.26365">
        <ele>121</ele>
        <time>2011-09-13T14:16:47Z</time>
      </trkpt>
      <trkpt lat="46.37378" lon="-0.26367">
        <ele>121</ele>
        <time>2011-09-13T14:16:52Z</time>
      </trkpt>
      <trkpt lat="46.37376" lon="-0.26359">
        <ele>121</ele>
        <time>2011-09-13T14:16:57Z</time>
      </trkpt>
      <trkpt lat="46.37371" lon="-0.26361">
        <ele>122</ele>
        <time>2011-09-13T14:17:02Z</time>
      </trkpt>
      <trkpt lat="46.37373" lon="-0.26358">
        <ele>120</ele>
        <time>2011-09-13T14:17:07Z</time>
      </trkpt>
      <trkpt lat="46.37376" lon="-0.26351">
        <ele>118</ele>
        <time>2011-09-13T14:17:12Z</time>
      </trkpt>
      <trkpt lat="46.37377" lon="-0.26341">
        <ele>115</ele>
        <time>2011-09-13T14:17:17Z</time>
      </trkpt>
      <trkpt lat="46.37376" lon="-0.26338">
        <ele>115</ele>
        <time>2011-09-13T14:17:22Z</time>
      </trkpt>
      <trkpt lat="46.37376" lon="-0.26337">
        <ele>114</ele>
        <time>2011-09-13T14:17:27Z</time>
      </trkpt>
      <trkpt lat="46.37376" lon="-0.26337">
        <ele>114</ele>
        <time>2011-09-13T14:17:32Z</time>
      </trkpt>
      <trkpt lat="46.37377" lon="-0.26337">
        <ele>114</ele>
        <time>2011-09-13T14:17:37Z</time>
      </trkpt>
      <trkpt lat="46.37376" lon="-0.26337">
        <ele>114</ele>
        <time>2011-09-13T14:17:42Z</time>
      </trkpt>
      <trkpt lat="46.37379" lon="-0.26323">
        <ele>114</ele>
        <time>2011-09-13T14:17:47Z</time>
      </trkpt>
      <trkpt lat="46.37378" lon="-0.26319">
        <ele>113</ele>
        <time>2011-09-13T14:17:52Z</time>
      </trkpt>
      <trkpt lat="46.37381" lon="-0.26297">
        <ele>114</ele>
        <time>2011-09-13T14:17:57Z</time>
      </trkpt>
      <trkpt lat="46.37387" lon="-0.26285">
        <ele>114</ele>
        <time>2011-09-13T14:18:02Z</time>
      </trkpt>
      <trkpt lat="46.37388" lon="-0.26279">
        <ele>114</ele>
        <time>2011-09-13T14:18:07Z</time>
      </trkpt>
      <trkpt lat="46.37386" lon="-0.26275">
        <ele>113</ele>
        <time>2011-09-13T14:18:12Z</time>
      </trkpt>
      <trkpt lat="46.37387" lon="-0.2627">
        <ele>113</ele>
        <time>2011-09-13T14:18:17Z</time>
      </trkpt>
      <trkpt lat="46.37391" lon="-0.26267">
        <ele>111</ele>
        <time>2011-09-13T14:18:22Z</time>
      </trkpt>
      <trkpt lat="46.3739" lon="-0.26262">
        <ele>112</ele>
        <time>2011-09-13T14:18:27Z</time>
      </trkpt>
      <trkpt lat="46.37391" lon="-0.2626">
        <ele>112</ele>
        <time>2011-09-13T14:18:32Z</time>
      </trkpt>
      <trkpt lat="46.37392" lon="-0.26251">
        <ele>112</ele>
        <time>2011-09-13T14:18:37Z</time>
      </trkpt>
      <trkpt lat="46.37389" lon="-0.26241">
        <ele>111</ele>
        <time>2011-09-13T14:18:42Z</time>
      </trkpt>
      <trkpt lat="46.37392" lon="-0.26236">
        <ele>111</ele>
        <time>2011-09-13T14:18:47Z</time>
      </trkpt>
      <trkpt lat="46.37393" lon="-0.26233">
        <ele>112</ele>
        <time>2011-09-13T14:18:52Z</time>
      </trkpt>
      <trkpt lat="46.37393" lon="-0.26227">
        <ele>111</ele>
        <time>2011-09-13T14:18:57Z</time>
      </trkpt>
      <trkpt lat="46.37395" lon="-0.26226">
        <ele>111</ele>
        <time>2011-09-13T14:19:02Z</time>
      </trkpt>
      <trkpt lat="46.37398" lon="-0.26223">
        <ele>109</ele>
        <time>2011-09-13T14:19:07Z</time>
      </trkpt>
      <trkpt lat="46.37407" lon="-0.26213">
        <ele>109</ele>
        <time>2011-09-13T14:19:12Z</time>
      </trkpt>
      <trkpt lat="46.37407" lon="-0.26212">
        <ele>109</ele>
        <time>2011-09-13T14:19:17Z</time>
      </trkpt>
      <trkpt lat="46.37408" lon="-0.26209">
        <ele>108</ele>
        <time>2011-09-13T14:19:22Z</time>
      </trkpt>
      <trkpt lat="46.37407" lon="-0.26198">
        <ele>107</ele>
        <time>2011-09-13T14:19:27Z</time>
      </trkpt>
      <trkpt lat="46.37409" lon="-0.26186">
        <ele>108</ele>
        <time>2011-09-13T14:19:32Z</time>
      </trkpt>
      <trkpt lat="46.37408" lon="-0.26183">
        <ele>108</ele>
        <time>2011-09-13T14:19:37Z</time>
      </trkpt>
      <trkpt lat="46.37408" lon="-0.26178">
        <ele>108</ele>
        <time>2011-09-13T14:19:42Z</time>
      </trkpt>
      <trkpt lat="46.37406" lon="-0.26174">
        <ele>109</ele>
        <time>2011-09-13T14:19:47Z</time>
      </trkpt>
      <trkpt lat="46.37413" lon="-0.2616">
        <ele>109</ele>
        <time>2011-09-13T14:19:52Z</time>
      </trkpt>
      <trkpt lat="46.37412" lon="-0.26154">
        <ele>108</ele>
        <time>2011-09-13T14:19:57Z</time>
      </trkpt>
      <trkpt lat="46.37416" lon="-0.2615">
        <ele>109</ele>
        <time>2011-09-13T14:20:02Z</time>
      </trkpt>
      <trkpt lat="46.37418" lon="-0.26147">
        <ele>110</ele>
        <time>2011-09-13T14:20:07Z</time>
      </trkpt>
      <trkpt lat="46.37421" lon="-0.2614">
        <ele>110</ele>
        <time>2011-09-13T14:20:12Z</time>
      </trkpt>
      <trkpt lat="46.37421" lon="-0.26137">
        <ele>111</ele>
        <time>2011-09-13T14:20:17Z</time>
      </trkpt>
      <trkpt lat="46.37422" lon="-0.26135">
        <ele>111</ele>
        <time>2011-09-13T14:20:22Z</time>
      </trkpt>
      <trkpt lat="46.37422" lon="-0.26126">
        <ele>111</ele>
        <time>2011-09-13T14:20:32Z</time>
      </trkpt>
      <trkpt lat="46.37424" lon="-0.2612">
        <ele>112</ele>
        <time>2011-09-13T14:20:37Z</time>
      </trkpt>
      <trkpt lat="46.37424" lon="-0.26107">
        <ele>112</ele>
        <time>2011-09-13T14:20:42Z</time>
      </trkpt>
      <trkpt lat="46.37427" lon="-0.26101">
        <ele>116</ele>
        <time>2011-09-13T14:20:47Z</time>
      </trkpt>
      <trkpt lat="46.37428" lon="-0.26102">
        <ele>116</ele>
        <time>2011-09-13T14:20:52Z</time>
      </trkpt>
      <trkpt lat="46.37428" lon="-0.26101">
        <ele>116</ele>
        <time>2011-09-13T14:20:57Z</time>
      </trkpt>
      <trkpt lat="46.37429" lon="-0.2609">
        <ele>114</ele>
        <time>2011-09-13T14:21:12Z</time>
      </trkpt>
      <trkpt lat="46.37432" lon="-0.26071">
        <ele>113</ele>
        <time>2011-09-13T14:21:17Z</time>
      </trkpt>
      <trkpt lat="46.37434" lon="-0.26062">
        <ele>113</ele>
        <time>2011-09-13T14:21:22Z</time>
      </trkpt>
      <trkpt lat="46.37437" lon="-0.26059">
        <ele>114</ele>
        <time>2011-09-13T14:21:27Z</time>
      </trkpt>
      <trkpt lat="46.37439" lon="-0.26059">
        <ele>115</ele>
        <time>2011-09-13T14:21:32Z</time>
      </trkpt>
      <trkpt lat="46.3744" lon="-0.26059">
        <ele>115</ele>
        <time>2011-09-13T14:21:37Z</time>
      </trkpt>
      <trkpt lat="46.37439" lon="-0.26059">
        <ele>115</ele>
        <time>2011-09-13T14:21:52Z</time>
      </trkpt>
      <trkpt lat="46.3744" lon="-0.26035">
        <ele>112</ele>
        <time>2011-09-13T14:21:57Z</time>
      </trkpt>
      <trkpt lat="46.37444" lon="-0.26019">
        <ele>109</ele>
        <time>2011-09-13T14:22:02Z</time>
      </trkpt>
      <trkpt lat="46.37444" lon="-0.26016">
        <ele>110</ele>
        <time>2011-09-13T14:22:07Z</time>
      </trkpt>
      <trkpt lat="46.37444" lon="-0.26016">
        <ele>110</ele>
        <time>2011-09-13T14:22:12Z</time>
      </trkpt>
      <trkpt lat="46.37446" lon="-0.26009">
        <ele>110</ele>
        <time>2011-09-13T14:22:17Z</time>
      </trkpt>
      <trkpt lat="46.37448" lon="-0.26">
        <ele>109</ele>
        <time>2011-09-13T14:22:22Z</time>
      </trkpt>
      <trkpt lat="46.37447" lon="-0.26001">
        <ele>110</ele>
        <time>2011-09-13T14:22:27Z</time>
      </trkpt>
      <trkpt lat="46.37446" lon="-0.26003">
        <ele>110</ele>
        <time>2011-09-13T14:22:32Z</time>
      </trkpt>
      <trkpt lat="46.37447" lon="-0.25998">
        <ele>111</ele>
        <time>2011-09-13T14:22:37Z</time>
      </trkpt>
      <trkpt lat="46.37448" lon="-0.25993">
        <ele>110</ele>
        <time>2011-09-13T14:22:42Z</time>
      </trkpt>
      <trkpt lat="46.37448" lon="-0.25991">
        <ele>109</ele>
        <time>2011-09-13T14:22:47Z</time>
      </trkpt>
      <trkpt lat="46.37449" lon="-0.25988">
        <ele>108</ele>
        <time>2011-09-13T14:22:52Z</time>
      </trkpt>
      <trkpt lat="46.3745" lon="-0.25987">
        <ele>109</ele>
        <time>2011-09-13T14:22:57Z</time>
      </trkpt>
      <trkpt lat="46.37449" lon="-0.25985">
        <ele>109</ele>
        <time>2011-09-13T14:23:07Z</time>
      </trkpt>
      <trkpt lat="46.37452" lon="-0.25969">
        <ele>107</ele>
        <time>2011-09-13T14:23:12Z</time>
      </trkpt>
      <trkpt lat="46.37455" lon="-0.25963">
        <ele>108</ele>
        <time>2011-09-13T14:23:17Z</time>
      </trkpt>
      <trkpt lat="46.37457" lon="-0.25956">
        <ele>108</ele>
        <time>2011-09-13T14:23:22Z</time>
      </trkpt>
      <trkpt lat="46.37457" lon="-0.25954">
        <ele>109</ele>
        <time>2011-09-13T14:23:27Z</time>
      </trkpt>
      <trkpt lat="46.3746" lon="-0.25951">
        <ele>110</ele>
        <time>2011-09-13T14:23:32Z</time>
      </trkpt>
      <trkpt lat="46.37463" lon="-0.25948">
        <ele>109</ele>
        <time>2011-09-13T14:23:37Z</time>
      </trkpt>
      <trkpt lat="46.37463" lon="-0.25942">
        <ele>109</ele>
        <time>2011-09-13T14:23:42Z</time>
      </trkpt>
      <trkpt lat="46.37465" lon="-0.25926">
        <ele>110</ele>
        <time>2011-09-13T14:23:47Z</time>
      </trkpt>
      <trkpt lat="46.37468" lon="-0.25923">
        <ele>112</ele>
        <time>2011-09-13T14:23:52Z</time>
      </trkpt>
      <trkpt lat="46.37469" lon="-0.25922">
        <ele>113</ele>
        <time>2011-09-13T14:23:57Z</time>
      </trkpt>
      <trkpt lat="46.37479" lon="-0.25918">
        <ele>109</ele>
        <time>2011-09-13T14:24:02Z</time>
      </trkpt>
      <trkpt lat="46.3748" lon="-0.25913">
        <ele>110</ele>
        <time>2011-09-13T14:24:07Z</time>
      </trkpt>
      <trkpt lat="46.37481" lon="-0.25905">
        <ele>110</ele>
        <time>2011-09-13T14:24:12Z</time>
      </trkpt>
      <trkpt lat="46.37483" lon="-0.25905">
        <ele>110</ele>
        <time>2011-09-13T14:24:17Z</time>
      </trkpt>
      <trkpt lat="46.37483" lon="-0.25903">
        <ele>109</ele>
        <time>2011-09-13T14:24:22Z</time>
      </trkpt>
      <trkpt lat="46.37489" lon="-0.25889">
        <ele>107</ele>
        <time>2011-09-13T14:24:27Z</time>
      </trkpt>
      <trkpt lat="46.37498" lon="-0.25883">
        <ele>107</ele>
        <time>2011-09-13T14:24:32Z</time>
      </trkpt>
      <trkpt lat="46.37501" lon="-0.25881">
        <ele>107</ele>
        <time>2011-09-13T14:24:37Z</time>
      </trkpt>
      <trkpt lat="46.37502" lon="-0.2588">
        <ele>107</ele>
        <time>2011-09-13T14:24:42Z</time>
      </trkpt>
      <trkpt lat="46.37507" lon="-0.25873">
        <ele>108</ele>
        <time>2011-09-13T14:24:47Z</time>
      </trkpt>
      <trkpt lat="46.3751" lon="-0.2587">
        <ele>107</ele>
        <time>2011-09-13T14:24:52Z</time>
      </trkpt>
      <trkpt lat="46.37515" lon="-0.25858">
        <ele>106</ele>
        <time>2011-09-13T14:24:57Z</time>
      </trkpt>
      <trkpt lat="46.3752" lon="-0.25854">
        <ele>104</ele>
        <time>2011-09-13T14:25:02Z</time>
      </trkpt>
      <trkpt lat="46.37528" lon="-0.25849">
        <ele>103</ele>
        <time>2011-09-13T14:25:07Z</time>
      </trkpt>
      <trkpt lat="46.37535" lon="-0.25843">
        <ele>103</ele>
        <time>2011-09-13T14:25:12Z</time>
      </trkpt>
      <trkpt lat="46.3754" lon="-0.25838">
        <ele>101</ele>
        <time>2011-09-13T14:25:17Z</time>
      </trkpt>
      <trkpt lat="46.37545" lon="-0.25832">
        <ele>101</ele>
        <time>2011-09-13T14:25:22Z</time>
      </trkpt>
      <trkpt lat="46.37549" lon="-0.25826">
        <ele>102</ele>
        <time>2011-09-13T14:25:27Z</time>
      </trkpt>
      <trkpt lat="46.37553" lon="-0.25819">
        <ele>102</ele>
        <time>2011-09-13T14:25:32Z</time>
      </trkpt>
      <trkpt lat="46.37558" lon="-0.25813">
        <ele>101</ele>
        <time>2011-09-13T14:25:37Z</time>
      </trkpt>
      <trkpt lat="46.37564" lon="-0.25807">
        <ele>102</ele>
        <time>2011-09-13T14:25:42Z</time>
      </trkpt>
      <trkpt lat="46.37568" lon="-0.25804">
        <ele>100</ele>
        <time>2011-09-13T14:25:47Z</time>
      </trkpt>
      <trkpt lat="46.37572" lon="-0.25801">
        <ele>100</ele>
        <time>2011-09-13T14:25:52Z</time>
      </trkpt>
      <trkpt lat="46.37577" lon="-0.25797">
        <ele>99</ele>
        <time>2011-09-13T14:25:57Z</time>
      </trkpt>
      <trkpt lat="46.37583" lon="-0.25793">
        <ele>101</ele>
        <time>2011-09-13T14:26:02Z</time>
      </trkpt>
      <trkpt lat="46.37589" lon="-0.25789">
        <ele>103</ele>
        <time>2011-09-13T14:26:07Z</time>
      </trkpt>
      <trkpt lat="46.37591" lon="-0.25784">
        <ele>103</ele>
        <time>2011-09-13T14:26:12Z</time>
      </trkpt>
      <trkpt lat="46.37596" lon="-0.25781">
        <ele>104</ele>
        <time>2011-09-13T14:26:17Z</time>
      </trkpt>
      <trkpt lat="46.37603" lon="-0.25781">
        <ele>104</ele>
        <time>2011-09-13T14:26:22Z</time>
      </trkpt>
      <trkpt lat="46.37607" lon="-0.25778">
        <ele>104</ele>
        <time>2011-09-13T14:26:27Z</time>
      </trkpt>
      <trkpt lat="46.3761" lon="-0.25776">
        <ele>104</ele>
        <time>2011-09-13T14:26:32Z</time>
      </trkpt>
      <trkpt lat="46.37615" lon="-0.25773">
        <ele>103</ele>
        <time>2011-09-13T14:26:37Z</time>
      </trkpt>
      <trkpt lat="46.37623" lon="-0.2577">
        <ele>102</ele>
        <time>2011-09-13T14:26:42Z</time>
      </trkpt>
      <trkpt lat="46.37632" lon="-0.25766">
        <ele>100</ele>
        <time>2011-09-13T14:26:47Z</time>
      </trkpt>
      <trkpt lat="46.37636" lon="-0.25761">
        <ele>103</ele>
        <time>2011-09-13T14:26:52Z</time>
      </trkpt>
      <trkpt lat="46.37641" lon="-0.25757">
        <ele>103</ele>
        <time>2011-09-13T14:26:57Z</time>
      </trkpt>
      <trkpt lat="46.37646" lon="-0.25751">
        <ele>101</ele>
        <time>2011-09-13T14:27:02Z</time>
      </trkpt>
      <trkpt lat="46.3765" lon="-0.25747">
        <ele>101</ele>
        <time>2011-09-13T14:27:07Z</time>
      </trkpt>
      <trkpt lat="46.37655" lon="-0.25744">
        <ele>101</ele>
        <time>2011-09-13T14:27:12Z</time>
      </trkpt>
      <trkpt lat="46.3766" lon="-0.25738">
        <ele>103</ele>
        <time>2011-09-13T14:27:17Z</time>
      </trkpt>
      <trkpt lat="46.37663" lon="-0.25734">
        <ele>103</ele>
        <time>2011-09-13T14:27:22Z</time>
      </trkpt>
      <trkpt lat="46.37668" lon="-0.25732">
        <ele>103</ele>
        <time>2011-09-13T14:27:27Z</time>
      </trkpt>
      <trkpt lat="46.37673" lon="-0.25729">
        <ele>104</ele>
        <time>2011-09-13T14:27:32Z</time>
      </trkpt>
      <trkpt lat="46.37679" lon="-0.25727">
        <ele>104</ele>
        <time>2011-09-13T14:27:37Z</time>
      </trkpt>
      <trkpt lat="46.37685" lon="-0.25726">
        <ele>103</ele>
        <time>2011-09-13T14:27:42Z</time>
      </trkpt>
      <trkpt lat="46.37688" lon="-0.25726">
        <ele>104</ele>
        <time>2011-09-13T14:27:47Z</time>
      </trkpt>
      <trkpt lat="46.37694" lon="-0.25722">
        <ele>100</ele>
        <time>2011-09-13T14:27:52Z</time>
      </trkpt>
      <trkpt lat="46.377" lon="-0.25718">
        <ele>100</ele>
        <time>2011-09-13T14:27:57Z</time>
      </trkpt>
      <trkpt lat="46.37708" lon="-0.25712">
        <ele>102</ele>
        <time>2011-09-13T14:28:02Z</time>
      </trkpt>
      <trkpt lat="46.37713" lon="-0.25706">
        <ele>101</ele>
        <time>2011-09-13T14:28:07Z</time>
      </trkpt>
      <trkpt lat="46.37717" lon="-0.25703">
        <ele>99</ele>
        <time>2011-09-13T14:28:12Z</time>
      </trkpt>
      <trkpt lat="46.3772" lon="-0.257">
        <ele>99</ele>
        <time>2011-09-13T14:28:17Z</time>
      </trkpt>
      <trkpt lat="46.37724" lon="-0.25696">
        <ele>98</ele>
        <time>2011-09-13T14:28:22Z</time>
      </trkpt>
      <trkpt lat="46.37726" lon="-0.25686">
        <ele>97</ele>
        <time>2011-09-13T14:28:27Z</time>
      </trkpt>
      <trkpt lat="46.37731" lon="-0.25685">
        <ele>97</ele>
        <time>2011-09-13T14:28:32Z</time>
      </trkpt>
      <trkpt lat="46.37733" lon="-0.25681">
        <ele>97</ele>
        <time>2011-09-13T14:28:37Z</time>
      </trkpt>
      <trkpt lat="46.37733" lon="-0.25682">
        <ele>97</ele>
        <time>2011-09-13T14:28:42Z</time>
      </trkpt>
      <trkpt lat="46.37732" lon="-0.25681">
        <ele>96</ele>
        <time>2011-09-13T14:28:47Z</time>
      </trkpt>
      <trkpt lat="46.37733" lon="-0.25681">
        <ele>97</ele>
        <time>2011-09-13T14:28:52Z</time>
      </trkpt>
      <trkpt lat="46.37733" lon="-0.25681">
        <ele>97</ele>
        <time>2011-09-13T14:28:57Z</time>
      </trkpt>
      <trkpt lat="46.37733" lon="-0.2568">
        <ele>97</ele>
        <time>2011-09-13T14:29:02Z</time>
      </trkpt>
      <trkpt lat="46.37734" lon="-0.25683">
        <ele>99</ele>
        <time>2011-09-13T14:29:22Z</time>
      </trkpt>
      <trkpt lat="46.37729" lon="-0.25678">
        <ele>98</ele>
        <time>2011-09-13T14:29:27Z</time>
      </trkpt>
      <trkpt lat="46.37725" lon="-0.25672">
        <ele>99</ele>
        <time>2011-09-13T14:29:32Z</time>
      </trkpt>
      <trkpt lat="46.37721" lon="-0.25666">
        <ele>100</ele>
        <time>2011-09-13T14:29:37Z</time>
      </trkpt>
      <trkpt lat="46.37717" lon="-0.25662">
        <ele>100</ele>
        <time>2011-09-13T14:29:42Z</time>
      </trkpt>
      <trkpt lat="46.37712" lon="-0.25656">
        <ele>101</ele>
        <time>2011-09-13T14:29:47Z</time>
      </trkpt>
      <trkpt lat="46.37708" lon="-0.2565">
        <ele>102</ele>
        <time>2011-09-13T14:29:52Z</time>
      </trkpt>
      <trkpt lat="46.37703" lon="-0.25643">
        <ele>100</ele>
        <time>2011-09-13T14:29:57Z</time>
      </trkpt>
      <trkpt lat="46.37699" lon="-0.25641">
        <ele>101</ele>
        <time>2011-09-13T14:30:02Z</time>
      </trkpt>
      <trkpt lat="46.37693" lon="-0.25635">
        <ele>101</ele>
        <time>2011-09-13T14:30:07Z</time>
      </trkpt>
      <trkpt lat="46.37687" lon="-0.2563">
        <ele>103</ele>
        <time>2011-09-13T14:30:12Z</time>
      </trkpt>
      <trkpt lat="46.37683" lon="-0.25624">
        <ele>103</ele>
        <time>2011-09-13T14:30:17Z</time>
      </trkpt>
      <trkpt lat="46.37677" lon="-0.25621">
        <ele>101</ele>
        <time>2011-09-13T14:30:22Z</time>
      </trkpt>
      <trkpt lat="46.37673" lon="-0.25615">
        <ele>101</ele>
        <time>2011-09-13T14:30:27Z</time>
      </trkpt>
      <trkpt lat="46.3767" lon="-0.2561">
        <ele>102</ele>
        <time>2011-09-13T14:30:32Z</time>
      </trkpt>
      <trkpt lat="46.37667" lon="-0.25607">
        <ele>104</ele>
        <time>2011-09-13T14:30:37Z</time>
      </trkpt>
      <trkpt lat="46.37662" lon="-0.25601">
        <ele>105</ele>
        <time>2011-09-13T14:30:42Z</time>
      </trkpt>
      <trkpt lat="46.37659" lon="-0.25596">
        <ele>106</ele>
        <time>2011-09-13T14:30:47Z</time>
      </trkpt>
      <trkpt lat="46.37655" lon="-0.2559">
        <ele>106</ele>
        <time>2011-09-13T14:30:52Z</time>
      </trkpt>
      <trkpt lat="46.37649" lon="-0.25585">
        <ele>106</ele>
        <time>2011-09-13T14:30:57Z</time>
      </trkpt>
      <trkpt lat="46.37642" lon="-0.2558">
        <ele>106</ele>
        <time>2011-09-13T14:31:02Z</time>
      </trkpt>
      <trkpt lat="46.37637" lon="-0.25576">
        <ele>107</ele>
        <time>2011-09-13T14:31:07Z</time>
      </trkpt>
      <trkpt lat="46.37633" lon="-0.25576">
        <ele>107</ele>
        <time>2011-09-13T14:31:12Z</time>
      </trkpt>
      <trkpt lat="46.37628" lon="-0.25573">
        <ele>108</ele>
        <time>2011-09-13T14:31:17Z</time>
      </trkpt>
      <trkpt lat="46.37625" lon="-0.25576">
        <ele>110</ele>
        <time>2011-09-13T14:31:22Z</time>
      </trkpt>
      <trkpt lat="46.37624" lon="-0.25574">
        <ele>111</ele>
        <time>2011-09-13T14:31:27Z</time>
      </trkpt>
      <trkpt lat="46.37625" lon="-0.25573">
        <ele>112</ele>
        <time>2011-09-13T14:31:32Z</time>
      </trkpt>
      <trkpt lat="46.37629" lon="-0.25572">
        <ele>114</ele>
        <time>2011-09-13T14:31:37Z</time>
      </trkpt>
      <trkpt lat="46.37631" lon="-0.25569">
        <ele>115</ele>
        <time>2011-09-13T14:31:42Z</time>
      </trkpt>
      <trkpt lat="46.37631" lon="-0.25568">
        <ele>113</ele>
        <time>2011-09-13T14:31:47Z</time>
      </trkpt>
      <trkpt lat="46.37633" lon="-0.25567">
        <ele>114</ele>
        <time>2011-09-13T14:31:52Z</time>
      </trkpt>
      <trkpt lat="46.37634" lon="-0.25566">
        <ele>114</ele>
        <time>2011-09-13T14:31:57Z</time>
      </trkpt>
      <trkpt lat="46.37636" lon="-0.25559">
        <ele>113</ele>
        <time>2011-09-13T14:32:07Z</time>
      </trkpt>
      <trkpt lat="46.37638" lon="-0.25555">
        <ele>113</ele>
        <time>2011-09-13T14:32:12Z</time>
      </trkpt>
      <trkpt lat="46.37642" lon="-0.25549">
        <ele>113</ele>
        <time>2011-09-13T14:32:17Z</time>
      </trkpt>
      <trkpt lat="46.37645" lon="-0.25541">
        <ele>110</ele>
        <time>2011-09-13T14:32:22Z</time>
      </trkpt>
      <trkpt lat="46.37648" lon="-0.25535">
        <ele>111</ele>
        <time>2011-09-13T14:32:27Z</time>
      </trkpt>
      <trkpt lat="46.37652" lon="-0.25529">
        <ele>111</ele>
        <time>2011-09-13T14:32:32Z</time>
      </trkpt>
      <trkpt lat="46.37655" lon="-0.25524">
        <ele>110</ele>
        <time>2011-09-13T14:32:37Z</time>
      </trkpt>
      <trkpt lat="46.37658" lon="-0.25517">
        <ele>110</ele>
        <time>2011-09-13T14:32:42Z</time>
      </trkpt>
      <trkpt lat="46.37662" lon="-0.2551">
        <ele>110</ele>
        <time>2011-09-13T14:32:47Z</time>
      </trkpt>
      <trkpt lat="46.37665" lon="-0.25502">
        <ele>111</ele>
        <time>2011-09-13T14:32:52Z</time>
      </trkpt>
      <trkpt lat="46.37668" lon="-0.25498">
        <ele>111</ele>
        <time>2011-09-13T14:32:57Z</time>
      </trkpt>
      <trkpt lat="46.37672" lon="-0.25492">
        <ele>112</ele>
        <time>2011-09-13T14:33:02Z</time>
      </trkpt>
      <trkpt lat="46.37676" lon="-0.25486">
        <ele>112</ele>
        <time>2011-09-13T14:33:07Z</time>
      </trkpt>
      <trkpt lat="46.37679" lon="-0.25479">
        <ele>112</ele>
        <time>2011-09-13T14:33:12Z</time>
      </trkpt>
      <trkpt lat="46.37683" lon="-0.25474">
        <ele>112</ele>
        <time>2011-09-13T14:33:17Z</time>
      </trkpt>
      <trkpt lat="46.37688" lon="-0.25467">
        <ele>111</ele>
        <time>2011-09-13T14:33:22Z</time>
      </trkpt>
      <trkpt lat="46.37694" lon="-0.25461">
        <ele>109</ele>
        <time>2011-09-13T14:33:27Z</time>
      </trkpt>
      <trkpt lat="46.37695" lon="-0.25456">
        <ele>108</ele>
        <time>2011-09-13T14:33:32Z</time>
      </trkpt>
      <trkpt lat="46.37698" lon="-0.25454">
        <ele>109</ele>
        <time>2011-09-13T14:33:37Z</time>
      </trkpt>
      <trkpt lat="46.377" lon="-0.25448">
        <ele>109</ele>
        <time>2011-09-13T14:33:42Z</time>
      </trkpt>
      <trkpt lat="46.37706" lon="-0.25445">
        <ele>110</ele>
        <time>2011-09-13T14:33:47Z</time>
      </trkpt>
      <trkpt lat="46.3771" lon="-0.25435">
        <ele>110</ele>
        <time>2011-09-13T14:33:52Z</time>
      </trkpt>
      <trkpt lat="46.37713" lon="-0.25423">
        <ele>110</ele>
        <time>2011-09-13T14:33:57Z</time>
      </trkpt>
      <trkpt lat="46.37716" lon="-0.25416">
        <ele>111</ele>
        <time>2011-09-13T14:34:02Z</time>
      </trkpt>
      <trkpt lat="46.37719" lon="-0.2541">
        <ele>113</ele>
        <time>2011-09-13T14:34:07Z</time>
      </trkpt>
      <trkpt lat="46.37722" lon="-0.25405">
        <ele>112</ele>
        <time>2011-09-13T14:34:12Z</time>
      </trkpt>
      <trkpt lat="46.37727" lon="-0.25399">
        <ele>109</ele>
        <time>2011-09-13T14:34:17Z</time>
      </trkpt>
      <trkpt lat="46.37731" lon="-0.25395">
        <ele>107</ele>
        <time>2011-09-13T14:34:22Z</time>
      </trkpt>
      <trkpt lat="46.37734" lon="-0.25389">
        <ele>107</ele>
        <time>2011-09-13T14:34:27Z</time>
      </trkpt>
      <trkpt lat="46.37737" lon="-0.25382">
        <ele>108</ele>
        <time>2011-09-13T14:34:32Z</time>
      </trkpt>
      <trkpt lat="46.37742" lon="-0.25376">
        <ele>108</ele>
        <time>2011-09-13T14:34:37Z</time>
      </trkpt>
      <trkpt lat="46.37743" lon="-0.25369">
        <ele>109</ele>
        <time>2011-09-13T14:34:42Z</time>
      </trkpt>
      <trkpt lat="46.37746" lon="-0.2536">
        <ele>109</ele>
        <time>2011-09-13T14:34:47Z</time>
      </trkpt>
      <trkpt lat="46.37751" lon="-0.25352">
        <ele>110</ele>
        <time>2011-09-13T14:34:52Z</time>
      </trkpt>
      <trkpt lat="46.37754" lon="-0.25346">
        <ele>111</ele>
        <time>2011-09-13T14:34:57Z</time>
      </trkpt>
      <trkpt lat="46.37758" lon="-0.2534">
        <ele>111</ele>
        <time>2011-09-13T14:35:02Z</time>
      </trkpt>
      <trkpt lat="46.37759" lon="-0.25336">
        <ele>111</ele>
        <time>2011-09-13T14:35:07Z</time>
      </trkpt>
      <trkpt lat="46.37763" lon="-0.25329">
        <ele>111</ele>
        <time>2011-09-13T14:35:12Z</time>
      </trkpt>
      <trkpt lat="46.37766" lon="-0.25324">
        <ele>111</ele>
        <time>2011-09-13T14:35:17Z</time>
      </trkpt>
      <trkpt lat="46.37771" lon="-0.25317">
        <ele>111</ele>
        <time>2011-09-13T14:35:22Z</time>
      </trkpt>
      <trkpt lat="46.37774" lon="-0.25311">
        <ele>110</ele>
        <time>2011-09-13T14:35:27Z</time>
      </trkpt>
      <trkpt lat="46.37776" lon="-0.25305">
        <ele>110</ele>
        <time>2011-09-13T14:35:32Z</time>
      </trkpt>
      <trkpt lat="46.37779" lon="-0.253">
        <ele>107</ele>
        <time>2011-09-13T14:35:37Z</time>
      </trkpt>
      <trkpt lat="46.37782" lon="-0.25291">
        <ele>108</ele>
        <time>2011-09-13T14:35:42Z</time>
      </trkpt>
      <trkpt lat="46.37786" lon="-0.25286">
        <ele>109</ele>
        <time>2011-09-13T14:35:47Z</time>
      </trkpt>
      <trkpt lat="46.3779" lon="-0.25278">
        <ele>109</ele>
        <time>2011-09-13T14:35:52Z</time>
      </trkpt>
      <trkpt lat="46.37793" lon="-0.25271">
        <ele>110</ele>
        <time>2011-09-13T14:35:57Z</time>
      </trkpt>
      <trkpt lat="46.37796" lon="-0.25266">
        <ele>110</ele>
        <time>2011-09-13T14:36:02Z</time>
      </trkpt>
      <trkpt lat="46.378" lon="-0.25259">
        <ele>111</ele>
        <time>2011-09-13T14:36:07Z</time>
      </trkpt>
      <trkpt lat="46.37805" lon="-0.25251">
        <ele>109</ele>
        <time>2011-09-13T14:36:12Z</time>
      </trkpt>
      <trkpt lat="46.37808" lon="-0.25245">
        <ele>106</ele>
        <time>2011-09-13T14:36:17Z</time>
      </trkpt>
      <trkpt lat="46.37811" lon="-0.25241">
        <ele>107</ele>
        <time>2011-09-13T14:36:22Z</time>
      </trkpt>
      <trkpt lat="46.37815" lon="-0.25235">
        <ele>105</ele>
        <time>2011-09-13T14:36:27Z</time>
      </trkpt>
      <trkpt lat="46.37817" lon="-0.25229">
        <ele>104</ele>
        <time>2011-09-13T14:36:32Z</time>
      </trkpt>
      <trkpt lat="46.37821" lon="-0.25222">
        <ele>106</ele>
        <time>2011-09-13T14:36:37Z</time>
      </trkpt>
      <trkpt lat="46.37826" lon="-0.25217">
        <ele>108</ele>
        <time>2011-09-13T14:36:42Z</time>
      </trkpt>
      <trkpt lat="46.3783" lon="-0.25211">
        <ele>108</ele>
        <time>2011-09-13T14:36:47Z</time>
      </trkpt>
      <trkpt lat="46.37834" lon="-0.25204">
        <ele>108</ele>
        <time>2011-09-13T14:36:52Z</time>
      </trkpt>
      <trkpt lat="46.37839" lon="-0.25197">
        <ele>109</ele>
        <time>2011-09-13T14:36:57Z</time>
      </trkpt>
      <trkpt lat="46.37841" lon="-0.25191">
        <ele>109</ele>
        <time>2011-09-13T14:37:02Z</time>
      </trkpt>
      <trkpt lat="46.37845" lon="-0.25185">
        <ele>109</ele>
        <time>2011-09-13T14:37:07Z</time>
      </trkpt>
      <trkpt lat="46.37848" lon="-0.25177">
        <ele>110</ele>
        <time>2011-09-13T14:37:12Z</time>
      </trkpt>
      <trkpt lat="46.37851" lon="-0.2517">
        <ele>111</ele>
        <time>2011-09-13T14:37:17Z</time>
      </trkpt>
      <trkpt lat="46.37854" lon="-0.25166">
        <ele>110</ele>
        <time>2011-09-13T14:37:22Z</time>
      </trkpt>
      <trkpt lat="46.37858" lon="-0.2516">
        <ele>109</ele>
        <time>2011-09-13T14:37:27Z</time>
      </trkpt>
      <trkpt lat="46.37861" lon="-0.25154">
        <ele>110</ele>
        <time>2011-09-13T14:37:32Z</time>
      </trkpt>
      <trkpt lat="46.37864" lon="-0.25147">
        <ele>111</ele>
        <time>2011-09-13T14:37:37Z</time>
      </trkpt>
      <trkpt lat="46.37867" lon="-0.2514">
        <ele>112</ele>
        <time>2011-09-13T14:37:42Z</time>
      </trkpt>
      <trkpt lat="46.3787" lon="-0.25135">
        <ele>112</ele>
        <time>2011-09-13T14:37:47Z</time>
      </trkpt>
      <trkpt lat="46.37874" lon="-0.2513">
        <ele>109</ele>
        <time>2011-09-13T14:37:52Z</time>
      </trkpt>
      <trkpt lat="46.37878" lon="-0.25123">
        <ele>110</ele>
        <time>2011-09-13T14:37:57Z</time>
      </trkpt>
      <trkpt lat="46.37882" lon="-0.25117">
        <ele>109</ele>
        <time>2011-09-13T14:38:02Z</time>
      </trkpt>
      <trkpt lat="46.37886" lon="-0.2511">
        <ele>109</ele>
        <time>2011-09-13T14:38:07Z</time>
      </trkpt>
      <trkpt lat="46.3789" lon="-0.25104">
        <ele>108</ele>
        <time>2011-09-13T14:38:12Z</time>
      </trkpt>
      <trkpt lat="46.37893" lon="-0.25099">
        <ele>107</ele>
        <time>2011-09-13T14:38:17Z</time>
      </trkpt>
      <trkpt lat="46.37897" lon="-0.2509">
        <ele>108</ele>
        <time>2011-09-13T14:38:22Z</time>
      </trkpt>
      <trkpt lat="46.37899" lon="-0.25084">
        <ele>107</ele>
        <time>2011-09-13T14:38:27Z</time>
      </trkpt>
      <trkpt lat="46.37905" lon="-0.25078">
        <ele>107</ele>
        <time>2011-09-13T14:38:32Z</time>
      </trkpt>
      <trkpt lat="46.37908" lon="-0.25072">
        <ele>106</ele>
        <time>2011-09-13T14:38:37Z</time>
      </trkpt>
      <trkpt lat="46.37911" lon="-0.25065">
        <ele>107</ele>
        <time>2011-09-13T14:38:42Z</time>
      </trkpt>
      <trkpt lat="46.37914" lon="-0.25058">
        <ele>110</ele>
        <time>2011-09-13T14:38:47Z</time>
      </trkpt>
      <trkpt lat="46.37919" lon="-0.25049">
        <ele>112</ele>
        <time>2011-09-13T14:38:52Z</time>
      </trkpt>
      <trkpt lat="46.37922" lon="-0.25043">
        <ele>113</ele>
        <time>2011-09-13T14:38:57Z</time>
      </trkpt>
      <trkpt lat="46.37926" lon="-0.25036">
        <ele>113</ele>
        <time>2011-09-13T14:39:02Z</time>
      </trkpt>
      <trkpt lat="46.3793" lon="-0.25029">
        <ele>113</ele>
        <time>2011-09-13T14:39:07Z</time>
      </trkpt>
      <trkpt lat="46.37935" lon="-0.25024">
        <ele>112</ele>
        <time>2011-09-13T14:39:12Z</time>
      </trkpt>
      <trkpt lat="46.37937" lon="-0.2502">
        <ele>112</ele>
        <time>2011-09-13T14:39:17Z</time>
      </trkpt>
      <trkpt lat="46.37941" lon="-0.25013">
        <ele>111</ele>
        <time>2011-09-13T14:39:22Z</time>
      </trkpt>
      <trkpt lat="46.37943" lon="-0.25009">
        <ele>111</ele>
        <time>2011-09-13T14:39:27Z</time>
      </trkpt>
      <trkpt lat="46.37946" lon="-0.25001">
        <ele>113</ele>
        <time>2011-09-13T14:39:32Z</time>
      </trkpt>
      <trkpt lat="46.3795" lon="-0.24994">
        <ele>113</ele>
        <time>2011-09-13T14:39:37Z</time>
      </trkpt>
      <trkpt lat="46.37953" lon="-0.24986">
        <ele>113</ele>
        <time>2011-09-13T14:39:42Z</time>
      </trkpt>
      <trkpt lat="46.37957" lon="-0.24977">
        <ele>114</ele>
        <time>2011-09-13T14:39:47Z</time>
      </trkpt>
      <trkpt lat="46.37962" lon="-0.24971">
        <ele>115</ele>
        <time>2011-09-13T14:39:52Z</time>
      </trkpt>
      <trkpt lat="46.37966" lon="-0.24966">
        <ele>114</ele>
        <time>2011-09-13T14:39:57Z</time>
      </trkpt>
      <trkpt lat="46.37967" lon="-0.2496">
        <ele>113</ele>
        <time>2011-09-13T14:40:02Z</time>
      </trkpt>
      <trkpt lat="46.37971" lon="-0.24955">
        <ele>114</ele>
        <time>2011-09-13T14:40:07Z</time>
      </trkpt>
      <trkpt lat="46.37974" lon="-0.24949">
        <ele>114</ele>
        <time>2011-09-13T14:40:12Z</time>
      </trkpt>
      <trkpt lat="46.37977" lon="-0.24945">
        <ele>112</ele>
        <time>2011-09-13T14:40:17Z</time>
      </trkpt>
      <trkpt lat="46.37981" lon="-0.24939">
        <ele>112</ele>
        <time>2011-09-13T14:40:22Z</time>
      </trkpt>
      <trkpt lat="46.37986" lon="-0.24934">
        <ele>111</ele>
        <time>2011-09-13T14:40:27Z</time>
      </trkpt>
      <trkpt lat="46.37989" lon="-0.24929">
        <ele>108</ele>
        <time>2011-09-13T14:40:32Z</time>
      </trkpt>
      <trkpt lat="46.37992" lon="-0.24923">
        <ele>108</ele>
        <time>2011-09-13T14:40:37Z</time>
      </trkpt>
      <trkpt lat="46.37995" lon="-0.24916">
        <ele>108</ele>
        <time>2011-09-13T14:40:42Z</time>
      </trkpt>
      <trkpt lat="46.37999" lon="-0.2491">
        <ele>107</ele>
        <time>2011-09-13T14:40:47Z</time>
      </trkpt>
      <trkpt lat="46.38003" lon="-0.24905">
        <ele>107</ele>
        <time>2011-09-13T14:40:52Z</time>
      </trkpt>
      <trkpt lat="46.38006" lon="-0.24898">
        <ele>106</ele>
        <time>2011-09-13T14:40:57Z</time>
      </trkpt>
      <trkpt lat="46.38008" lon="-0.24894">
        <ele>107</ele>
        <time>2011-09-13T14:41:02Z</time>
      </trkpt>
      <trkpt lat="46.38008" lon="-0.24893">
        <ele>107</ele>
        <time>2011-09-13T14:41:07Z</time>
      </trkpt>
      <trkpt lat="46.38008" lon="-0.24894">
        <ele>107</ele>
        <time>2011-09-13T14:41:12Z</time>
      </trkpt>
      <trkpt lat="46.3801" lon="-0.24893">
        <ele>106</ele>
        <time>2011-09-13T14:41:52Z</time>
      </trkpt>
      <trkpt lat="46.38015" lon="-0.24887">
        <ele>105</ele>
        <time>2011-09-13T14:41:57Z</time>
      </trkpt>
      <trkpt lat="46.38018" lon="-0.24883">
        <ele>105</ele>
        <time>2011-09-13T14:42:02Z</time>
      </trkpt>
      <trkpt lat="46.38021" lon="-0.2488">
        <ele>106</ele>
        <time>2011-09-13T14:42:07Z</time>
      </trkpt>
      <trkpt lat="46.38024" lon="-0.24872">
        <ele>107</ele>
        <time>2011-09-13T14:42:12Z</time>
      </trkpt>
      <trkpt lat="46.38026" lon="-0.24866">
        <ele>109</ele>
        <time>2011-09-13T14:42:17Z</time>
      </trkpt>
      <trkpt lat="46.38033" lon="-0.24862">
        <ele>111</ele>
        <time>2011-09-13T14:42:22Z</time>
      </trkpt>
      <trkpt lat="46.38037" lon="-0.24861">
        <ele>113</ele>
        <time>2011-09-13T14:42:27Z</time>
      </trkpt>
      <trkpt lat="46.3804" lon="-0.24862">
        <ele>112</ele>
        <time>2011-09-13T14:42:32Z</time>
      </trkpt>
      <trkpt lat="46.38045" lon="-0.2486">
        <ele>112</ele>
        <time>2011-09-13T14:42:37Z</time>
      </trkpt>
      <trkpt lat="46.3805" lon="-0.24861">
        <ele>112</ele>
        <time>2011-09-13T14:42:42Z</time>
      </trkpt>
      <trkpt lat="46.38054" lon="-0.24859">
        <ele>113</ele>
        <time>2011-09-13T14:42:47Z</time>
      </trkpt>
      <trkpt lat="46.38059" lon="-0.24859">
        <ele>113</ele>
        <time>2011-09-13T14:42:52Z</time>
      </trkpt>
      <trkpt lat="46.38063" lon="-0.24857">
        <ele>113</ele>
        <time>2011-09-13T14:42:57Z</time>
      </trkpt>
      <trkpt lat="46.3807" lon="-0.24853">
        <ele>114</ele>
        <time>2011-09-13T14:43:02Z</time>
      </trkpt>
      <trkpt lat="46.38074" lon="-0.24851">
        <ele>114</ele>
        <time>2011-09-13T14:43:07Z</time>
      </trkpt>
      <trkpt lat="46.38074" lon="-0.24851">
        <ele>115</ele>
        <time>2011-09-13T14:43:12Z</time>
      </trkpt>
      <trkpt lat="46.38081" lon="-0.24852">
        <ele>115</ele>
        <time>2011-09-13T14:43:17Z</time>
      </trkpt>
      <trkpt lat="46.38085" lon="-0.24848">
        <ele>115</ele>
        <time>2011-09-13T14:43:22Z</time>
      </trkpt>
      <trkpt lat="46.38088" lon="-0.24846">
        <ele>115</ele>
        <time>2011-09-13T14:43:27Z</time>
      </trkpt>
      <trkpt lat="46.38095" lon="-0.24839">
        <ele>116</ele>
        <time>2011-09-13T14:43:32Z</time>
      </trkpt>
      <trkpt lat="46.38098" lon="-0.2484">
        <ele>116</ele>
        <time>2011-09-13T14:43:37Z</time>
      </trkpt>
      <trkpt lat="46.381" lon="-0.2484">
        <ele>117</ele>
        <time>2011-09-13T14:43:42Z</time>
      </trkpt>
      <trkpt lat="46.38102" lon="-0.24838">
        <ele>116</ele>
        <time>2011-09-13T14:43:47Z</time>
      </trkpt>
      <trkpt lat="46.38114" lon="-0.24837">
        <ele>118</ele>
        <time>2011-09-13T14:43:52Z</time>
      </trkpt>
      <trkpt lat="46.38124" lon="-0.24835">
        <ele>117</ele>
        <time>2011-09-13T14:43:57Z</time>
      </trkpt>
      <trkpt lat="46.38131" lon="-0.24834">
        <ele>116</ele>
        <time>2011-09-13T14:44:02Z</time>
      </trkpt>
      <trkpt lat="46.38134" lon="-0.24833">
        <ele>115</ele>
        <time>2011-09-13T14:44:07Z</time>
      </trkpt>
      <trkpt lat="46.38141" lon="-0.24834">
        <ele>115</ele>
        <time>2011-09-13T14:44:12Z</time>
      </trkpt>
      <trkpt lat="46.38148" lon="-0.24832">
        <ele>114</ele>
        <time>2011-09-13T14:44:17Z</time>
      </trkpt>
      <trkpt lat="46.3815" lon="-0.24833">
        <ele>114</ele>
        <time>2011-09-13T14:44:22Z</time>
      </trkpt>
      <trkpt lat="46.38151" lon="-0.24832">
        <ele>115</ele>
        <time>2011-09-13T14:44:27Z</time>
      </trkpt>
      <trkpt lat="46.38151" lon="-0.24833">
        <ele>114</ele>
        <time>2011-09-13T14:44:32Z</time>
      </trkpt>
      <trkpt lat="46.38152" lon="-0.24834">
        <ele>114</ele>
        <time>2011-09-13T14:44:37Z</time>
      </trkpt>
      <trkpt lat="46.38157" lon="-0.24834">
        <ele>114</ele>
        <time>2011-09-13T14:44:42Z</time>
      </trkpt>
      <trkpt lat="46.38158" lon="-0.24834">
        <ele>115</ele>
        <time>2011-09-13T14:44:47Z</time>
      </trkpt>
      <trkpt lat="46.38159" lon="-0.24834">
        <ele>114</ele>
        <time>2011-09-13T14:44:52Z</time>
      </trkpt>
      <trkpt lat="46.38161" lon="-0.24837">
        <ele>113</ele>
        <time>2011-09-13T14:44:57Z</time>
      </trkpt>
      <trkpt lat="46.38165" lon="-0.2484">
        <ele>113</ele>
        <time>2011-09-13T14:45:02Z</time>
      </trkpt>
      <trkpt lat="46.38171" lon="-0.24842">
        <ele>114</ele>
        <time>2011-09-13T14:45:07Z</time>
      </trkpt>
      <trkpt lat="46.38175" lon="-0.24843">
        <ele>113</ele>
        <time>2011-09-13T14:45:12Z</time>
      </trkpt>
      <trkpt lat="46.38174" lon="-0.24843">
        <ele>112</ele>
        <time>2011-09-13T14:45:17Z</time>
      </trkpt>
      <trkpt lat="46.38175" lon="-0.24843">
        <ele>112</ele>
        <time>2011-09-13T14:45:22Z</time>
      </trkpt>
      <trkpt lat="46.38175" lon="-0.24843">
        <ele>111</ele>
        <time>2011-09-13T14:45:27Z</time>
      </trkpt>
      <trkpt lat="46.3818" lon="-0.24852">
        <ele>111</ele>
        <time>2011-09-13T14:45:42Z</time>
      </trkpt>
      <trkpt lat="46.38182" lon="-0.24854">
        <ele>110</ele>
        <time>2011-09-13T14:45:47Z</time>
      </trkpt>
      <trkpt lat="46.3818" lon="-0.24857">
        <ele>109</ele>
        <time>2011-09-13T14:45:52Z</time>
      </trkpt>
      <trkpt lat="46.38181" lon="-0.24857">
        <ele>109</ele>
        <time>2011-09-13T14:45:57Z</time>
      </trkpt>
      <trkpt lat="46.38181" lon="-0.24857">
        <ele>109</ele>
        <time>2011-09-13T14:46:12Z</time>
      </trkpt>
      <trkpt lat="46.38198" lon="-0.24847">
        <ele>110</ele>
        <time>2011-09-13T14:46:17Z</time>
      </trkpt>
      <trkpt lat="46.38202" lon="-0.24843">
        <ele>109</ele>
        <time>2011-09-13T14:46:22Z</time>
      </trkpt>
      <trkpt lat="46.38208" lon="-0.2484">
        <ele>107</ele>
        <time>2011-09-13T14:46:27Z</time>
      </trkpt>
      <trkpt lat="46.38213" lon="-0.24837">
        <ele>106</ele>
        <time>2011-09-13T14:46:32Z</time>
      </trkpt>
      <trkpt lat="46.38218" lon="-0.24833">
        <ele>105</ele>
        <time>2011-09-13T14:46:37Z</time>
      </trkpt>
      <trkpt lat="46.38223" lon="-0.24829">
        <ele>100</ele>
        <time>2011-09-13T14:46:42Z</time>
      </trkpt>
      <trkpt lat="46.38228" lon="-0.24822">
        <ele>98</ele>
        <time>2011-09-13T14:46:47Z</time>
      </trkpt>
      <trkpt lat="46.38236" lon="-0.24817">
        <ele>95</ele>
        <time>2011-09-13T14:46:52Z</time>
      </trkpt>
      <trkpt lat="46.38241" lon="-0.24816">
        <ele>95</ele>
        <time>2011-09-13T14:46:57Z</time>
      </trkpt>
      <trkpt lat="46.38249" lon="-0.24816">
        <ele>98</ele>
        <time>2011-09-13T14:47:02Z</time>
      </trkpt>
      <trkpt lat="46.38253" lon="-0.24814">
        <ele>100</ele>
        <time>2011-09-13T14:47:07Z</time>
      </trkpt>
      <trkpt lat="46.38255" lon="-0.24808">
        <ele>97</ele>
        <time>2011-09-13T14:47:12Z</time>
      </trkpt>
      <trkpt lat="46.38255" lon="-0.248">
        <ele>98</ele>
        <time>2011-09-13T14:47:17Z</time>
      </trkpt>
      <trkpt lat="46.38259" lon="-0.24794">
        <ele>100</ele>
        <time>2011-09-13T14:47:22Z</time>
      </trkpt>
      <trkpt lat="46.38264" lon="-0.24792">
        <ele>102</ele>
        <time>2011-09-13T14:47:27Z</time>
      </trkpt>
      <trkpt lat="46.38268" lon="-0.2479">
        <ele>100</ele>
        <time>2011-09-13T14:47:32Z</time>
      </trkpt>
      <trkpt lat="46.38272" lon="-0.24787">
        <ele>99</ele>
        <time>2011-09-13T14:47:37Z</time>
      </trkpt>
      <trkpt lat="46.38276" lon="-0.24785">
        <ele>99</ele>
        <time>2011-09-13T14:47:42Z</time>
      </trkpt>
      <trkpt lat="46.3828" lon="-0.2478">
        <ele>100</ele>
        <time>2011-09-13T14:47:47Z</time>
      </trkpt>
      <trkpt lat="46.38286" lon="-0.24777">
        <ele>99</ele>
        <time>2011-09-13T14:47:52Z</time>
      </trkpt>
      <trkpt lat="46.3829" lon="-0.24778">
        <ele>94</ele>
        <time>2011-09-13T14:47:57Z</time>
      </trkpt>
      <trkpt lat="46.38296" lon="-0.24773">
        <ele>96</ele>
        <time>2011-09-13T14:48:02Z</time>
      </trkpt>
      <trkpt lat="46.38301" lon="-0.24769">
        <ele>96</ele>
        <time>2011-09-13T14:48:07Z</time>
      </trkpt>
      <trkpt lat="46.38304" lon="-0.24764">
        <ele>96</ele>
        <time>2011-09-13T14:48:12Z</time>
      </trkpt>
      <trkpt lat="46.38311" lon="-0.24762">
        <ele>98</ele>
        <time>2011-09-13T14:48:17Z</time>
      </trkpt>
      <trkpt lat="46.38317" lon="-0.2476">
        <ele>99</ele>
        <time>2011-09-13T14:48:22Z</time>
      </trkpt>
      <trkpt lat="46.38324" lon="-0.24759">
        <ele>99</ele>
        <time>2011-09-13T14:48:27Z</time>
      </trkpt>
      <trkpt lat="46.38327" lon="-0.24754">
        <ele>101</ele>
        <time>2011-09-13T14:48:32Z</time>
      </trkpt>
      <trkpt lat="46.38333" lon="-0.24754">
        <ele>101</ele>
        <time>2011-09-13T14:48:37Z</time>
      </trkpt>
      <trkpt lat="46.38335" lon="-0.24748">
        <ele>101</ele>
        <time>2011-09-13T14:48:42Z</time>
      </trkpt>
      <trkpt lat="46.38334" lon="-0.24738">
        <ele>101</ele>
        <time>2011-09-13T14:48:47Z</time>
      </trkpt>
      <trkpt lat="46.38338" lon="-0.24739">
        <ele>102</ele>
        <time>2011-09-13T14:48:52Z</time>
      </trkpt>
      <trkpt lat="46.38345" lon="-0.24739">
        <ele>103</ele>
        <time>2011-09-13T14:48:57Z</time>
      </trkpt>
      <trkpt lat="46.3835" lon="-0.24735">
        <ele>102</ele>
        <time>2011-09-13T14:49:02Z</time>
      </trkpt>
      <trkpt lat="46.38354" lon="-0.24732">
        <ele>102</ele>
        <time>2011-09-13T14:49:07Z</time>
      </trkpt>
      <trkpt lat="46.38357" lon="-0.24728">
        <ele>100</ele>
        <time>2011-09-13T14:49:12Z</time>
      </trkpt>
      <trkpt lat="46.38368" lon="-0.24729">
        <ele>101</ele>
        <time>2011-09-13T14:49:17Z</time>
      </trkpt>
      <trkpt lat="46.38374" lon="-0.24726">
        <ele>103</ele>
        <time>2011-09-13T14:49:22Z</time>
      </trkpt>
      <trkpt lat="46.38379" lon="-0.2472">
        <ele>103</ele>
        <time>2011-09-13T14:49:27Z</time>
      </trkpt>
      <trkpt lat="46.38379" lon="-0.24715">
        <ele>105</ele>
        <time>2011-09-13T14:49:32Z</time>
      </trkpt>
      <trkpt lat="46.38386" lon="-0.24711">
        <ele>106</ele>
        <time>2011-09-13T14:49:37Z</time>
      </trkpt>
      <trkpt lat="46.38392" lon="-0.24705">
        <ele>107</ele>
        <time>2011-09-13T14:49:42Z</time>
      </trkpt>
      <trkpt lat="46.38396" lon="-0.24697">
        <ele>104</ele>
        <time>2011-09-13T14:49:47Z</time>
      </trkpt>
      <trkpt lat="46.384" lon="-0.24693">
        <ele>103</ele>
        <time>2011-09-13T14:49:52Z</time>
      </trkpt>
      <trkpt lat="46.38405" lon="-0.24689">
        <ele>100</ele>
        <time>2011-09-13T14:49:57Z</time>
      </trkpt>
      <trkpt lat="46.38409" lon="-0.24685">
        <ele>98</ele>
        <time>2011-09-13T14:50:02Z</time>
      </trkpt>
      <trkpt lat="46.38411" lon="-0.24679">
        <ele>97</ele>
        <time>2011-09-13T14:50:07Z</time>
      </trkpt>
      <trkpt lat="46.38414" lon="-0.24671">
        <ele>97</ele>
        <time>2011-09-13T14:50:12Z</time>
      </trkpt>
      <trkpt lat="46.38419" lon="-0.24666">
        <ele>98</ele>
        <time>2011-09-13T14:50:17Z</time>
      </trkpt>
      <trkpt lat="46.38421" lon="-0.24662">
        <ele>98</ele>
        <time>2011-09-13T14:50:22Z</time>
      </trkpt>
      <trkpt lat="46.38427" lon="-0.24657">
        <ele>99</ele>
        <time>2011-09-13T14:50:27Z</time>
      </trkpt>
      <trkpt lat="46.3843" lon="-0.24651">
        <ele>99</ele>
        <time>2011-09-13T14:50:32Z</time>
      </trkpt>
      <trkpt lat="46.38434" lon="-0.24646">
        <ele>100</ele>
        <time>2011-09-13T14:50:37Z</time>
      </trkpt>
      <trkpt lat="46.3844" lon="-0.24641">
        <ele>98</ele>
        <time>2011-09-13T14:50:42Z</time>
      </trkpt>
      <trkpt lat="46.38443" lon="-0.24636">
        <ele>97</ele>
        <time>2011-09-13T14:50:47Z</time>
      </trkpt>
      <trkpt lat="46.38451" lon="-0.24637">
        <ele>96</ele>
        <time>2011-09-13T14:50:52Z</time>
      </trkpt>
      <trkpt lat="46.38455" lon="-0.24634">
        <ele>95</ele>
        <time>2011-09-13T14:50:57Z</time>
      </trkpt>
      <trkpt lat="46.3846" lon="-0.24631">
        <ele>96</ele>
        <time>2011-09-13T14:51:02Z</time>
      </trkpt>
      <trkpt lat="46.38465" lon="-0.24629">
        <ele>95</ele>
        <time>2011-09-13T14:51:07Z</time>
      </trkpt>
      <trkpt lat="46.38469" lon="-0.24626">
        <ele>95</ele>
        <time>2011-09-13T14:51:12Z</time>
      </trkpt>
      <trkpt lat="46.38473" lon="-0.24623">
        <ele>95</ele>
        <time>2011-09-13T14:51:17Z</time>
      </trkpt>
      <trkpt lat="46.38475" lon="-0.24623">
        <ele>93</ele>
        <time>2011-09-13T14:51:22Z</time>
      </trkpt>
      <trkpt lat="46.38479" lon="-0.24619">
        <ele>92</ele>
        <time>2011-09-13T14:51:27Z</time>
      </trkpt>
      <trkpt lat="46.38483" lon="-0.24614">
        <ele>94</ele>
        <time>2011-09-13T14:51:32Z</time>
      </trkpt>
      <trkpt lat="46.38488" lon="-0.24611">
        <ele>93</ele>
        <time>2011-09-13T14:51:37Z</time>
      </trkpt>
      <trkpt lat="46.38493" lon="-0.24607">
        <ele>94</ele>
        <time>2011-09-13T14:51:42Z</time>
      </trkpt>
      <trkpt lat="46.38498" lon="-0.24604">
        <ele>94</ele>
        <time>2011-09-13T14:51:47Z</time>
      </trkpt>
      <trkpt lat="46.38501" lon="-0.24599">
        <ele>95</ele>
        <time>2011-09-13T14:51:52Z</time>
      </trkpt>
      <trkpt lat="46.38505" lon="-0.24594">
        <ele>97</ele>
        <time>2011-09-13T14:51:57Z</time>
      </trkpt>
      <trkpt lat="46.38507" lon="-0.24586">
        <ele>97</ele>
        <time>2011-09-13T14:52:02Z</time>
      </trkpt>
      <trkpt lat="46.38511" lon="-0.24585">
        <ele>96</ele>
        <time>2011-09-13T14:52:07Z</time>
      </trkpt>
      <trkpt lat="46.38514" lon="-0.2458">
        <ele>96</ele>
        <time>2011-09-13T14:52:12Z</time>
      </trkpt>
      <trkpt lat="46.38519" lon="-0.24577">
        <ele>97</ele>
        <time>2011-09-13T14:52:17Z</time>
      </trkpt>
      <trkpt lat="46.38524" lon="-0.2457">
        <ele>98</ele>
        <time>2011-09-13T14:52:22Z</time>
      </trkpt>
      <trkpt lat="46.38526" lon="-0.24563">
        <ele>98</ele>
        <time>2011-09-13T14:52:27Z</time>
      </trkpt>
      <trkpt lat="46.38531" lon="-0.24558">
        <ele>96</ele>
        <time>2011-09-13T14:52:32Z</time>
      </trkpt>
      <trkpt lat="46.38535" lon="-0.24552">
        <ele>96</ele>
        <time>2011-09-13T14:52:37Z</time>
      </trkpt>
      <trkpt lat="46.38537" lon="-0.24546">
        <ele>96</ele>
        <time>2011-09-13T14:52:42Z</time>
      </trkpt>
      <trkpt lat="46.38539" lon="-0.24538">
        <ele>98</ele>
        <time>2011-09-13T14:52:47Z</time>
      </trkpt>
      <trkpt lat="46.38543" lon="-0.24532">
        <ele>98</ele>
        <time>2011-09-13T14:52:52Z</time>
      </trkpt>
      <trkpt lat="46.38547" lon="-0.24528">
        <ele>98</ele>
        <time>2011-09-13T14:52:57Z</time>
      </trkpt>
      <trkpt lat="46.38553" lon="-0.24522">
        <ele>98</ele>
        <time>2011-09-13T14:53:02Z</time>
      </trkpt>
      <trkpt lat="46.38553" lon="-0.24513">
        <ele>97</ele>
        <time>2011-09-13T14:53:07Z</time>
      </trkpt>
      <trkpt lat="46.38557" lon="-0.24505">
        <ele>98</ele>
        <time>2011-09-13T14:53:12Z</time>
      </trkpt>
      <trkpt lat="46.38559" lon="-0.245">
        <ele>96</ele>
        <time>2011-09-13T14:53:17Z</time>
      </trkpt>
      <trkpt lat="46.38562" lon="-0.24495">
        <ele>94</ele>
        <time>2011-09-13T14:53:22Z</time>
      </trkpt>
      <trkpt lat="46.38563" lon="-0.24487">
        <ele>93</ele>
        <time>2011-09-13T14:53:27Z</time>
      </trkpt>
      <trkpt lat="46.38566" lon="-0.24481">
        <ele>92</ele>
        <time>2011-09-13T14:53:32Z</time>
      </trkpt>
      <trkpt lat="46.38569" lon="-0.24476">
        <ele>94</ele>
        <time>2011-09-13T14:53:37Z</time>
      </trkpt>
      <trkpt lat="46.38573" lon="-0.24471">
        <ele>93</ele>
        <time>2011-09-13T14:53:42Z</time>
      </trkpt>
      <trkpt lat="46.38575" lon="-0.24466">
        <ele>93</ele>
        <time>2011-09-13T14:53:47Z</time>
      </trkpt>
      <trkpt lat="46.3858" lon="-0.24459">
        <ele>93</ele>
        <time>2011-09-13T14:53:52Z</time>
      </trkpt>
      <trkpt lat="46.38581" lon="-0.24449">
        <ele>93</ele>
        <time>2011-09-13T14:53:57Z</time>
      </trkpt>
      <trkpt lat="46.38584" lon="-0.24442">
        <ele>93</ele>
        <time>2011-09-13T14:54:02Z</time>
      </trkpt>
      <trkpt lat="46.38586" lon="-0.24436">
        <ele>94</ele>
        <time>2011-09-13T14:54:07Z</time>
      </trkpt>
      <trkpt lat="46.38592" lon="-0.24428">
        <ele>96</ele>
        <time>2011-09-13T14:54:12Z</time>
      </trkpt>
      <trkpt lat="46.38593" lon="-0.2442">
        <ele>95</ele>
        <time>2011-09-13T14:54:17Z</time>
      </trkpt>
      <trkpt lat="46.38595" lon="-0.24412">
        <ele>97</ele>
        <time>2011-09-13T14:54:22Z</time>
      </trkpt>
      <trkpt lat="46.38596" lon="-0.24405">
        <ele>97</ele>
        <time>2011-09-13T14:54:27Z</time>
      </trkpt>
      <trkpt lat="46.38598" lon="-0.24398">
        <ele>98</ele>
        <time>2011-09-13T14:54:32Z</time>
      </trkpt>
      <trkpt lat="46.386" lon="-0.24391">
        <ele>97</ele>
        <time>2011-09-13T14:54:37Z</time>
      </trkpt>
      <trkpt lat="46.38602" lon="-0.24389">
        <ele>98</ele>
        <time>2011-09-13T14:54:42Z</time>
      </trkpt>
      <trkpt lat="46.38605" lon="-0.24382">
        <ele>98</ele>
        <time>2011-09-13T14:54:47Z</time>
      </trkpt>
      <trkpt lat="46.38606" lon="-0.24372">
        <ele>97</ele>
        <time>2011-09-13T14:54:52Z</time>
      </trkpt>
      <trkpt lat="46.38608" lon="-0.24364">
        <ele>96</ele>
        <time>2011-09-13T14:54:57Z</time>
      </trkpt>
      <trkpt lat="46.38611" lon="-0.24357">
        <ele>97</ele>
        <time>2011-09-13T14:55:02Z</time>
      </trkpt>
      <trkpt lat="46.38612" lon="-0.2435">
        <ele>99</ele>
        <time>2011-09-13T14:55:07Z</time>
      </trkpt>
      <trkpt lat="46.38612" lon="-0.24343">
        <ele>100</ele>
        <time>2011-09-13T14:55:12Z</time>
      </trkpt>
      <trkpt lat="46.38613" lon="-0.24337">
        <ele>100</ele>
        <time>2011-09-13T14:55:17Z</time>
      </trkpt>
      <trkpt lat="46.38615" lon="-0.24332">
        <ele>101</ele>
        <time>2011-09-13T14:55:22Z</time>
      </trkpt>
      <trkpt lat="46.38617" lon="-0.24328">
        <ele>102</ele>
        <time>2011-09-13T14:55:27Z</time>
      </trkpt>
      <trkpt lat="46.3862" lon="-0.24322">
        <ele>104</ele>
        <time>2011-09-13T14:55:32Z</time>
      </trkpt>
      <trkpt lat="46.3862" lon="-0.24319">
        <ele>104</ele>
        <time>2011-09-13T14:55:37Z</time>
      </trkpt>
      <trkpt lat="46.38624" lon="-0.24313">
        <ele>104</ele>
        <time>2011-09-13T14:55:47Z</time>
      </trkpt>
      <trkpt lat="46.38626" lon="-0.24307">
        <ele>105</ele>
        <time>2011-09-13T14:55:52Z</time>
      </trkpt>
      <trkpt lat="46.38626" lon="-0.24305">
        <ele>104</ele>
        <time>2011-09-13T14:55:57Z</time>
      </trkpt>
      <trkpt lat="46.38627" lon="-0.24305">
        <ele>104</ele>
        <time>2011-09-13T14:56:02Z</time>
      </trkpt>
      <trkpt lat="46.38627" lon="-0.24306">
        <ele>103</ele>
        <time>2011-09-13T14:56:12Z</time>
      </trkpt>
      <trkpt lat="46.38627" lon="-0.24307">
        <ele>103</ele>
        <time>2011-09-13T14:56:17Z</time>
      </trkpt>
      <trkpt lat="46.38628" lon="-0.24306">
        <ele>103</ele>
        <time>2011-09-13T14:56:22Z</time>
      </trkpt>
      <trkpt lat="46.38629" lon="-0.2431">
        <ele>100</ele>
        <time>2011-09-13T14:56:27Z</time>
      </trkpt>
      <trkpt lat="46.38633" lon="-0.24313">
        <ele>99</ele>
        <time>2011-09-13T14:56:32Z</time>
      </trkpt>
      <trkpt lat="46.38639" lon="-0.2432">
        <ele>99</ele>
        <time>2011-09-13T14:56:37Z</time>
      </trkpt>
      <trkpt lat="46.38642" lon="-0.24325">
        <ele>98</ele>
        <time>2011-09-13T14:56:42Z</time>
      </trkpt>
      <trkpt lat="46.38646" lon="-0.2433">
        <ele>98</ele>
        <time>2011-09-13T14:56:47Z</time>
      </trkpt>
      <trkpt lat="46.38647" lon="-0.24331">
        <ele>97</ele>
        <time>2011-09-13T14:56:52Z</time>
      </trkpt>
      <trkpt lat="46.38648" lon="-0.24331">
        <ele>96</ele>
        <time>2011-09-13T14:56:57Z</time>
      </trkpt>
      <trkpt lat="46.38649" lon="-0.24332">
        <ele>97</ele>
        <time>2011-09-13T14:57:02Z</time>
      </trkpt>
      <trkpt lat="46.38651" lon="-0.24332">
        <ele>97</ele>
        <time>2011-09-13T14:57:12Z</time>
      </trkpt>
      <trkpt lat="46.3865" lon="-0.24332">
        <ele>97</ele>
        <time>2011-09-13T14:57:17Z</time>
      </trkpt>
      <trkpt lat="46.38649" lon="-0.24331">
        <ele>97</ele>
        <time>2011-09-13T14:57:47Z</time>
      </trkpt>
      <trkpt lat="46.38649" lon="-0.24331">
        <ele>96</ele>
        <time>2011-09-13T14:57:57Z</time>
      </trkpt>
      <trkpt lat="46.38649" lon="-0.24331">
        <ele>96</ele>
        <time>2011-09-13T14:58:02Z</time>
      </trkpt>
      <trkpt lat="46.38652" lon="-0.24329">
        <ele>96</ele>
        <time>2011-09-13T14:58:07Z</time>
      </trkpt>
      <trkpt lat="46.38654" lon="-0.24334">
        <ele>96</ele>
        <time>2011-09-13T14:58:12Z</time>
      </trkpt>
      <trkpt lat="46.38654" lon="-0.24336">
        <ele>96</ele>
        <time>2011-09-13T14:58:17Z</time>
      </trkpt>
      <trkpt lat="46.38657" lon="-0.24339">
        <ele>95</ele>
        <time>2011-09-13T14:58:22Z</time>
      </trkpt>
      <trkpt lat="46.38658" lon="-0.24339">
        <ele>96</ele>
        <time>2011-09-13T14:58:27Z</time>
      </trkpt>
      <trkpt lat="46.38659" lon="-0.24341">
        <ele>95</ele>
        <time>2011-09-13T14:58:32Z</time>
      </trkpt>
      <trkpt lat="46.38659" lon="-0.24339">
        <ele>94</ele>
        <time>2011-09-13T14:58:37Z</time>
      </trkpt>
      <trkpt lat="46.38661" lon="-0.24342">
        <ele>95</ele>
        <time>2011-09-13T14:58:42Z</time>
      </trkpt>
      <trkpt lat="46.38665" lon="-0.24345">
        <ele>95</ele>
        <time>2011-09-13T14:58:47Z</time>
      </trkpt>
      <trkpt lat="46.38668" lon="-0.2435">
        <ele>97</ele>
        <time>2011-09-13T14:58:52Z</time>
      </trkpt>
      <trkpt lat="46.38672" lon="-0.24356">
        <ele>96</ele>
        <time>2011-09-13T14:58:57Z</time>
      </trkpt>
      <trkpt lat="46.38677" lon="-0.2436">
        <ele>97</ele>
        <time>2011-09-13T14:59:02Z</time>
      </trkpt>
      <trkpt lat="46.38681" lon="-0.24366">
        <ele>98</ele>
        <time>2011-09-13T14:59:07Z</time>
      </trkpt>
      <trkpt lat="46.38684" lon="-0.24369">
        <ele>98</ele>
        <time>2011-09-13T14:59:12Z</time>
      </trkpt>
      <trkpt lat="46.38688" lon="-0.24372">
        <ele>100</ele>
        <time>2011-09-13T14:59:17Z</time>
      </trkpt>
      <trkpt lat="46.38688" lon="-0.24372">
        <ele>102</ele>
        <time>2011-09-13T14:59:22Z</time>
      </trkpt>
      <trkpt lat="46.38689" lon="-0.24371">
        <ele>101</ele>
        <time>2011-09-13T14:59:27Z</time>
      </trkpt>
      <trkpt lat="46.38689" lon="-0.24371">
        <ele>101</ele>
        <time>2011-09-13T14:59:32Z</time>
      </trkpt>
      <trkpt lat="46.38688" lon="-0.24373">
        <ele>100</ele>
        <time>2011-09-13T14:59:37Z</time>
      </trkpt>
      <trkpt lat="46.38689" lon="-0.24377">
        <ele>100</ele>
        <time>2011-09-13T14:59:42Z</time>
      </trkpt>
      <trkpt lat="46.38688" lon="-0.24378">
        <ele>100</ele>
        <time>2011-09-13T14:59:47Z</time>
      </trkpt>
      <trkpt lat="46.38689" lon="-0.24383">
        <ele>100</ele>
        <time>2011-09-13T14:59:52Z</time>
      </trkpt>
      <trkpt lat="46.3869" lon="-0.24386">
        <ele>101</ele>
        <time>2011-09-13T14:59:57Z</time>
      </trkpt>
      <trkpt lat="46.38688" lon="-0.24386">
        <ele>102</ele>
        <time>2011-09-13T15:00:02Z</time>
      </trkpt>
      <trkpt lat="46.38683" lon="-0.24393">
        <ele>102</ele>
        <time>2011-09-13T15:00:07Z</time>
      </trkpt>
      <trkpt lat="46.38681" lon="-0.24403">
        <ele>102</ele>
        <time>2011-09-13T15:00:12Z</time>
      </trkpt>
      <trkpt lat="46.38681" lon="-0.24411">
        <ele>104</ele>
        <time>2011-09-13T15:00:17Z</time>
      </trkpt>
      <trkpt lat="46.38682" lon="-0.24417">
        <ele>104</ele>
        <time>2011-09-13T15:00:22Z</time>
      </trkpt>
      <trkpt lat="46.38687" lon="-0.24422">
        <ele>104</ele>
        <time>2011-09-13T15:00:27Z</time>
      </trkpt>
      <trkpt lat="46.38688" lon="-0.24423">
        <ele>104</ele>
        <time>2011-09-13T15:00:32Z</time>
      </trkpt>
      <trkpt lat="46.38689" lon="-0.24422">
        <ele>103</ele>
        <time>2011-09-13T15:00:37Z</time>
      </trkpt>
      <trkpt lat="46.3869" lon="-0.24422">
        <ele>103</ele>
        <time>2011-09-13T15:00:42Z</time>
      </trkpt>
      <trkpt lat="46.3869" lon="-0.24424">
        <ele>103</ele>
        <time>2011-09-13T15:00:47Z</time>
      </trkpt>
      <trkpt lat="46.3869" lon="-0.24424">
        <ele>103</ele>
        <time>2011-09-13T15:00:52Z</time>
      </trkpt>
      <trkpt lat="46.38691" lon="-0.24424">
        <ele>104</ele>
        <time>2011-09-13T15:01:12Z</time>
      </trkpt>
      <trkpt lat="46.38699" lon="-0.24426">
        <ele>103</ele>
        <time>2011-09-13T15:01:27Z</time>
      </trkpt>
      <trkpt lat="46.38704" lon="-0.24426">
        <ele>100</ele>
        <time>2011-09-13T15:01:32Z</time>
      </trkpt>
      <trkpt lat="46.38707" lon="-0.24427">
        <ele>101</ele>
        <time>2011-09-13T15:01:37Z</time>
      </trkpt>
      <trkpt lat="46.38712" lon="-0.24429">
        <ele>102</ele>
        <time>2011-09-13T15:01:42Z</time>
      </trkpt>
      <trkpt lat="46.38717" lon="-0.2443">
        <ele>103</ele>
        <time>2011-09-13T15:01:47Z</time>
      </trkpt>
      <trkpt lat="46.3872" lon="-0.2443">
        <ele>102</ele>
        <time>2011-09-13T15:01:52Z</time>
      </trkpt>
      <trkpt lat="46.38723" lon="-0.24432">
        <ele>102</ele>
        <time>2011-09-13T15:01:57Z</time>
      </trkpt>
      <trkpt lat="46.38727" lon="-0.24438">
        <ele>105</ele>
        <time>2011-09-13T15:02:02Z</time>
      </trkpt>
      <trkpt lat="46.38728" lon="-0.24444">
        <ele>105</ele>
        <time>2011-09-13T15:02:07Z</time>
      </trkpt>
      <trkpt lat="46.38728" lon="-0.24448">
        <ele>106</ele>
        <time>2011-09-13T15:02:12Z</time>
      </trkpt>
      <trkpt lat="46.38731" lon="-0.24448">
        <ele>107</ele>
        <time>2011-09-13T15:02:17Z</time>
      </trkpt>
      <trkpt lat="46.38732" lon="-0.24448">
        <ele>108</ele>
        <time>2011-09-13T15:02:22Z</time>
      </trkpt>
      <trkpt lat="46.38732" lon="-0.24449">
        <ele>108</ele>
        <time>2011-09-13T15:02:27Z</time>
      </trkpt>
      <trkpt lat="46.38734" lon="-0.2445">
        <ele>109</ele>
        <time>2011-09-13T15:02:32Z</time>
      </trkpt>
      <trkpt lat="46.38734" lon="-0.2445">
        <ele>108</ele>
        <time>2011-09-13T15:02:37Z</time>
      </trkpt>
      <trkpt lat="46.38738" lon="-0.24453">
        <ele>108</ele>
        <time>2011-09-13T15:02:42Z</time>
      </trkpt>
      <trkpt lat="46.38752" lon="-0.24461">
        <ele>111</ele>
        <time>2011-09-13T15:02:47Z</time>
      </trkpt>
      <trkpt lat="46.38756" lon="-0.24466">
        <ele>111</ele>
        <time>2011-09-13T15:02:52Z</time>
      </trkpt>
      <trkpt lat="46.3876" lon="-0.24468">
        <ele>110</ele>
        <time>2011-09-13T15:02:57Z</time>
      </trkpt>
      <trkpt lat="46.38762" lon="-0.2447">
        <ele>112</ele>
        <time>2011-09-13T15:03:02Z</time>
      </trkpt>
      <trkpt lat="46.38761" lon="-0.24471">
        <ele>112</ele>
        <time>2011-09-13T15:03:07Z</time>
      </trkpt>
      <trkpt lat="46.38767" lon="-0.2447">
        <ele>114</ele>
        <time>2011-09-13T15:03:12Z</time>
      </trkpt>
      <trkpt lat="46.38772" lon="-0.24474">
        <ele>115</ele>
        <time>2011-09-13T15:03:17Z</time>
      </trkpt>
      <trkpt lat="46.38781" lon="-0.24474">
        <ele>118</ele>
        <time>2011-09-13T15:03:22Z</time>
      </trkpt>
      <trkpt lat="46.38788" lon="-0.24477">
        <ele>121</ele>
        <time>2011-09-13T15:03:27Z</time>
      </trkpt>
      <trkpt lat="46.38786" lon="-0.24477">
        <ele>120</ele>
        <time>2011-09-13T15:03:32Z</time>
      </trkpt>
      <trkpt lat="46.38786" lon="-0.24479">
        <ele>118</ele>
        <time>2011-09-13T15:03:37Z</time>
      </trkpt>
      <trkpt lat="46.38787" lon="-0.24479">
        <ele>119</ele>
        <time>2011-09-13T15:04:47Z</time>
      </trkpt>
      <trkpt lat="46.38803" lon="-0.24475">
        <ele>124</ele>
        <time>2011-09-13T15:04:57Z</time>
      </trkpt>
      <trkpt lat="46.3881" lon="-0.24469">
        <ele>126</ele>
        <time>2011-09-13T15:05:02Z</time>
      </trkpt>
      <trkpt lat="46.38811" lon="-0.24467">
        <ele>128</ele>
        <time>2011-09-13T15:05:07Z</time>
      </trkpt>
      <trkpt lat="46.38811" lon="-0.24459">
        <ele>123</ele>
        <time>2011-09-13T15:05:12Z</time>
      </trkpt>
      <trkpt lat="46.38811" lon="-0.24455">
        <ele>121</ele>
        <time>2011-09-13T15:05:17Z</time>
      </trkpt>
      <trkpt lat="46.38808" lon="-0.2445">
        <ele>121</ele>
        <time>2011-09-13T15:05:22Z</time>
      </trkpt>
      <trkpt lat="46.38805" lon="-0.24447">
        <ele>122</ele>
        <time>2011-09-13T15:05:27Z</time>
      </trkpt>
      <trkpt lat="46.38802" lon="-0.24442">
        <ele>122</ele>
        <time>2011-09-13T15:05:32Z</time>
      </trkpt>
      <trkpt lat="46.38799" lon="-0.24435">
        <ele>120</ele>
        <time>2011-09-13T15:05:37Z</time>
      </trkpt>
      <trkpt lat="46.38797" lon="-0.24432">
        <ele>119</ele>
        <time>2011-09-13T15:05:42Z</time>
      </trkpt>
      <trkpt lat="46.38798" lon="-0.2443">
        <ele>118</ele>
        <time>2011-09-13T15:05:47Z</time>
      </trkpt>
      <trkpt lat="46.38797" lon="-0.24428">
        <ele>119</ele>
        <time>2011-09-13T15:05:52Z</time>
      </trkpt>
      <trkpt lat="46.38796" lon="-0.2442">
        <ele>117</ele>
        <time>2011-09-13T15:05:57Z</time>
      </trkpt>
      <trkpt lat="46.3879" lon="-0.24406">
        <ele>113</ele>
        <time>2011-09-13T15:06:02Z</time>
      </trkpt>
      <trkpt lat="46.38786" lon="-0.24401">
        <ele>114</ele>
        <time>2011-09-13T15:06:07Z</time>
      </trkpt>
      <trkpt lat="46.38783" lon="-0.2439">
        <ele>114</ele>
        <time>2011-09-13T15:06:12Z</time>
      </trkpt>
      <trkpt lat="46.38779" lon="-0.24381">
        <ele>114</ele>
        <time>2011-09-13T15:06:17Z</time>
      </trkpt>
      <trkpt lat="46.38777" lon="-0.24374">
        <ele>116</ele>
        <time>2011-09-13T15:06:22Z</time>
      </trkpt>
      <trkpt lat="46.38783" lon="-0.24372">
        <ele>119</ele>
        <time>2011-09-13T15:06:27Z</time>
      </trkpt>
      <trkpt lat="46.38783" lon="-0.24373">
        <ele>118</ele>
        <time>2011-09-13T15:06:32Z</time>
      </trkpt>
      <trkpt lat="46.38782" lon="-0.24372">
        <ele>119</ele>
        <time>2011-09-13T15:06:37Z</time>
      </trkpt>
      <trkpt lat="46.38782" lon="-0.24371">
        <ele>119</ele>
        <time>2011-09-13T15:06:42Z</time>
      </trkpt>
      <trkpt lat="46.38786" lon="-0.24367">
        <ele>121</ele>
        <time>2011-09-13T15:07:02Z</time>
      </trkpt>
      <trkpt lat="46.38789" lon="-0.24359">
        <ele>121</ele>
        <time>2011-09-13T15:07:07Z</time>
      </trkpt>
      <trkpt lat="46.38795" lon="-0.24349">
        <ele>119</ele>
        <time>2011-09-13T15:07:12Z</time>
      </trkpt>
      <trkpt lat="46.38801" lon="-0.24344">
        <ele>121</ele>
        <time>2011-09-13T15:07:17Z</time>
      </trkpt>
      <trkpt lat="46.388" lon="-0.24342">
        <ele>121</ele>
        <time>2011-09-13T15:07:22Z</time>
      </trkpt>
      <trkpt lat="46.38803" lon="-0.24332">
        <ele>121</ele>
        <time>2011-09-13T15:07:27Z</time>
      </trkpt>
      <trkpt lat="46.38804" lon="-0.24329">
        <ele>121</ele>
        <time>2011-09-13T15:07:32Z</time>
      </trkpt>
      <trkpt lat="46.38808" lon="-0.24325">
        <ele>121</ele>
        <time>2011-09-13T15:07:37Z</time>
      </trkpt>
      <trkpt lat="46.3881" lon="-0.2432">
        <ele>123</ele>
        <time>2011-09-13T15:07:42Z</time>
      </trkpt>
      <trkpt lat="46.38811" lon="-0.24314">
        <ele>123</ele>
        <time>2011-09-13T15:07:47Z</time>
      </trkpt>
      <trkpt lat="46.38815" lon="-0.24308">
        <ele>124</ele>
        <time>2011-09-13T15:07:52Z</time>
      </trkpt>
      <trkpt lat="46.38818" lon="-0.24304">
        <ele>124</ele>
        <time>2011-09-13T15:07:57Z</time>
      </trkpt>
      <trkpt lat="46.38821" lon="-0.243">
        <ele>124</ele>
        <time>2011-09-13T15:08:02Z</time>
      </trkpt>
      <trkpt lat="46.38825" lon="-0.24295">
        <ele>125</ele>
        <time>2011-09-13T15:08:07Z</time>
      </trkpt>
      <trkpt lat="46.3883" lon="-0.24289">
        <ele>126</ele>
        <time>2011-09-13T15:08:12Z</time>
      </trkpt>
      <trkpt lat="46.38835" lon="-0.24284">
        <ele>128</ele>
        <time>2011-09-13T15:08:17Z</time>
      </trkpt>
      <trkpt lat="46.38839" lon="-0.2428">
        <ele>128</ele>
        <time>2011-09-13T15:08:22Z</time>
      </trkpt>
      <trkpt lat="46.38845" lon="-0.24278">
        <ele>129</ele>
        <time>2011-09-13T15:08:27Z</time>
      </trkpt>
      <trkpt lat="46.3885" lon="-0.24278">
        <ele>130</ele>
        <time>2011-09-13T15:08:32Z</time>
      </trkpt>
      <trkpt lat="46.38852" lon="-0.24278">
        <ele>129</ele>
        <time>2011-09-13T15:08:37Z</time>
      </trkpt>
      <trkpt lat="46.38849" lon="-0.24276">
        <ele>129</ele>
        <time>2011-09-13T15:08:42Z</time>
      </trkpt>
      <trkpt lat="46.38851" lon="-0.24276">
        <ele>129</ele>
        <time>2011-09-13T15:08:47Z</time>
      </trkpt>
      <trkpt lat="46.38853" lon="-0.24277">
        <ele>130</ele>
        <time>2011-09-13T15:08:52Z</time>
      </trkpt>
      <trkpt lat="46.38859" lon="-0.24281">
        <ele>128</ele>
        <time>2011-09-13T15:08:57Z</time>
      </trkpt>
      <trkpt lat="46.3886" lon="-0.24284">
        <ele>130</ele>
        <time>2011-09-13T15:09:02Z</time>
      </trkpt>
      <trkpt lat="46.3886" lon="-0.24284">
        <ele>130</ele>
        <time>2011-09-13T15:09:07Z</time>
      </trkpt>
      <trkpt lat="46.38859" lon="-0.24283">
        <ele>130</ele>
        <time>2011-09-13T15:09:12Z</time>
      </trkpt>
      <trkpt lat="46.38863" lon="-0.24286">
        <ele>131</ele>
        <time>2011-09-13T15:09:17Z</time>
      </trkpt>
      <trkpt lat="46.38867" lon="-0.24285">
        <ele>132</ele>
        <time>2011-09-13T15:09:22Z</time>
      </trkpt>
      <trkpt lat="46.38864" lon="-0.24282">
        <ele>132</ele>
        <time>2011-09-13T15:09:27Z</time>
      </trkpt>
      <trkpt lat="46.38861" lon="-0.24278">
        <ele>132</ele>
        <time>2011-09-13T15:09:32Z</time>
      </trkpt>
      <trkpt lat="46.38861" lon="-0.24278">
        <ele>132</ele>
        <time>2011-09-13T15:09:37Z</time>
      </trkpt>
      <trkpt lat="46.38862" lon="-0.24278">
        <ele>132</ele>
        <time>2011-09-13T15:09:57Z</time>
      </trkpt>
      <trkpt lat="46.38865" lon="-0.24268">
        <ele>131</ele>
        <time>2011-09-13T15:10:02Z</time>
      </trkpt>
      <trkpt lat="46.38867" lon="-0.24261">
        <ele>130</ele>
        <time>2011-09-13T15:10:07Z</time>
      </trkpt>
      <trkpt lat="46.38867" lon="-0.24257">
        <ele>130</ele>
        <time>2011-09-13T15:10:12Z</time>
      </trkpt>
      <trkpt lat="46.38867" lon="-0.2425">
        <ele>129</ele>
        <time>2011-09-13T15:10:17Z</time>
      </trkpt>
      <trkpt lat="46.38872" lon="-0.24248">
        <ele>127</ele>
        <time>2011-09-13T15:10:22Z</time>
      </trkpt>
      <trkpt lat="46.38874" lon="-0.24243">
        <ele>129</ele>
        <time>2011-09-13T15:10:27Z</time>
      </trkpt>
      <trkpt lat="46.38876" lon="-0.24237">
        <ele>127</ele>
        <time>2011-09-13T15:10:32Z</time>
      </trkpt>
      <trkpt lat="46.38873" lon="-0.2423">
        <ele>126</ele>
        <time>2011-09-13T15:10:37Z</time>
      </trkpt>
      <trkpt lat="46.38871" lon="-0.24224">
        <ele>126</ele>
        <time>2011-09-13T15:10:42Z</time>
      </trkpt>
      <trkpt lat="46.38871" lon="-0.24221">
        <ele>127</ele>
        <time>2011-09-13T15:10:47Z</time>
      </trkpt>
      <trkpt lat="46.38872" lon="-0.2422">
        <ele>127</ele>
        <time>2011-09-13T15:10:52Z</time>
      </trkpt>
      <trkpt lat="46.38872" lon="-0.2422">
        <ele>127</ele>
        <time>2011-09-13T15:10:57Z</time>
      </trkpt>
      <trkpt lat="46.38874" lon="-0.24219">
        <ele>127</ele>
        <time>2011-09-13T15:11:02Z</time>
      </trkpt>
      <trkpt lat="46.38875" lon="-0.24218">
        <ele>127</ele>
        <time>2011-09-13T15:11:07Z</time>
      </trkpt>
      <trkpt lat="46.38878" lon="-0.24216">
        <ele>127</ele>
        <time>2011-09-13T15:11:12Z</time>
      </trkpt>
      <trkpt lat="46.38882" lon="-0.24213">
        <ele>127</ele>
        <time>2011-09-13T15:11:17Z</time>
      </trkpt>
      <trkpt lat="46.38884" lon="-0.24206">
        <ele>127</ele>
        <time>2011-09-13T15:11:22Z</time>
      </trkpt>
      <trkpt lat="46.38887" lon="-0.24202">
        <ele>129</ele>
        <time>2011-09-13T15:11:27Z</time>
      </trkpt>
      <trkpt lat="46.38892" lon="-0.24201">
        <ele>129</ele>
        <time>2011-09-13T15:11:32Z</time>
      </trkpt>
      <trkpt lat="46.38894" lon="-0.24197">
        <ele>129</ele>
        <time>2011-09-13T15:11:37Z</time>
      </trkpt>
      <trkpt lat="46.38897" lon="-0.2419">
        <ele>130</ele>
        <time>2011-09-13T15:11:42Z</time>
      </trkpt>
      <trkpt lat="46.38897" lon="-0.24186">
        <ele>131</ele>
        <time>2011-09-13T15:11:47Z</time>
      </trkpt>
      <trkpt lat="46.38897" lon="-0.24185">
        <ele>131</ele>
        <time>2011-09-13T15:11:52Z</time>
      </trkpt>
      <trkpt lat="46.389" lon="-0.24183">
        <ele>131</ele>
        <time>2011-09-13T15:11:57Z</time>
      </trkpt>
      <trkpt lat="46.38897" lon="-0.24186">
        <ele>132</ele>
        <time>2011-09-13T15:12:02Z</time>
      </trkpt>
      <trkpt lat="46.38896" lon="-0.24189">
        <ele>135</ele>
        <time>2011-09-13T15:12:07Z</time>
      </trkpt>
      <trkpt lat="46.38894" lon="-0.24192">
        <ele>136</ele>
        <time>2011-09-13T15:12:12Z</time>
      </trkpt>
      <trkpt lat="46.38893" lon="-0.24197">
        <ele>135</ele>
        <time>2011-09-13T15:12:17Z</time>
      </trkpt>
      <trkpt lat="46.38893" lon="-0.24203">
        <ele>134</ele>
        <time>2011-09-13T15:12:22Z</time>
      </trkpt>
      <trkpt lat="46.38897" lon="-0.24202">
        <ele>135</ele>
        <time>2011-09-13T15:12:27Z</time>
      </trkpt>
      <trkpt lat="46.38901" lon="-0.242">
        <ele>136</ele>
        <time>2011-09-13T15:12:32Z</time>
      </trkpt>
      <trkpt lat="46.38904" lon="-0.24197">
        <ele>137</ele>
        <time>2011-09-13T15:12:37Z</time>
      </trkpt>
      <trkpt lat="46.38905" lon="-0.24199">
        <ele>138</ele>
        <time>2011-09-13T15:12:42Z</time>
      </trkpt>
      <trkpt lat="46.38902" lon="-0.24204">
        <ele>139</ele>
        <time>2011-09-13T15:12:47Z</time>
      </trkpt>
      <trkpt lat="46.38904" lon="-0.24208">
        <ele>139</ele>
        <time>2011-09-13T15:12:52Z</time>
      </trkpt>
      <trkpt lat="46.38907" lon="-0.24208">
        <ele>139</ele>
        <time>2011-09-13T15:12:57Z</time>
      </trkpt>
      <trkpt lat="46.3891" lon="-0.24206">
        <ele>140</ele>
        <time>2011-09-13T15:13:02Z</time>
      </trkpt>
      <trkpt lat="46.38914" lon="-0.24209">
        <ele>151</ele>
        <time>2011-09-13T15:13:07Z</time>
      </trkpt>
      <trkpt lat="46.38916" lon="-0.24211">
        <ele>150</ele>
        <time>2011-09-13T15:13:12Z</time>
      </trkpt>
      <trkpt lat="46.38915" lon="-0.24213">
        <ele>150</ele>
        <time>2011-09-13T15:13:17Z</time>
      </trkpt>
      <trkpt lat="46.38911" lon="-0.24215">
        <ele>150</ele>
        <time>2011-09-13T15:13:22Z</time>
      </trkpt>
      <trkpt lat="46.3891" lon="-0.2422">
        <ele>146</ele>
        <time>2011-09-13T15:13:27Z</time>
      </trkpt>
      <trkpt lat="46.38908" lon="-0.24224">
        <ele>148</ele>
        <time>2011-09-13T15:13:32Z</time>
      </trkpt>
      <trkpt lat="46.38908" lon="-0.24226">
        <ele>147</ele>
        <time>2011-09-13T15:13:42Z</time>
      </trkpt>
      <trkpt lat="46.38906" lon="-0.24231">
        <ele>146</ele>
        <time>2011-09-13T15:13:47Z</time>
      </trkpt>
      <trkpt lat="46.38901" lon="-0.24235">
        <ele>146</ele>
        <time>2011-09-13T15:13:52Z</time>
      </trkpt>
      <trkpt lat="46.38897" lon="-0.2424">
        <ele>147</ele>
        <time>2011-09-13T15:13:57Z</time>
      </trkpt>
      <trkpt lat="46.38895" lon="-0.24246">
        <ele>147</ele>
        <time>2011-09-13T15:14:02Z</time>
      </trkpt>
      <trkpt lat="46.38892" lon="-0.24251">
        <ele>149</ele>
        <time>2011-09-13T15:14:07Z</time>
      </trkpt>
      <trkpt lat="46.3889" lon="-0.24259">
        <ele>148</ele>
        <time>2011-09-13T15:14:12Z</time>
      </trkpt>
      <trkpt lat="46.38887" lon="-0.24266">
        <ele>148</ele>
        <time>2011-09-13T15:14:17Z</time>
      </trkpt>
      <trkpt lat="46.38884" lon="-0.2427">
        <ele>148</ele>
        <time>2011-09-13T15:14:22Z</time>
      </trkpt>
      <trkpt lat="46.38882" lon="-0.24278">
        <ele>148</ele>
        <time>2011-09-13T15:14:27Z</time>
      </trkpt>
      <trkpt lat="46.38879" lon="-0.24285">
        <ele>149</ele>
        <time>2011-09-13T15:14:32Z</time>
      </trkpt>
      <trkpt lat="46.38878" lon="-0.24293">
        <ele>149</ele>
        <time>2011-09-13T15:14:37Z</time>
      </trkpt>
      <trkpt lat="46.38874" lon="-0.243">
        <ele>150</ele>
        <time>2011-09-13T15:14:42Z</time>
      </trkpt>
      <trkpt lat="46.38872" lon="-0.24305">
        <ele>150</ele>
        <time>2011-09-13T15:14:47Z</time>
      </trkpt>
      <trkpt lat="46.3887" lon="-0.24312">
        <ele>149</ele>
        <time>2011-09-13T15:14:52Z</time>
      </trkpt>
      <trkpt lat="46.38869" lon="-0.24319">
        <ele>148</ele>
        <time>2011-09-13T15:14:57Z</time>
      </trkpt>
      <trkpt lat="46.38867" lon="-0.24325">
        <ele>147</ele>
        <time>2011-09-13T15:15:02Z</time>
      </trkpt>
      <trkpt lat="46.38865" lon="-0.24328">
        <ele>146</ele>
        <time>2011-09-13T15:15:07Z</time>
      </trkpt>
      <trkpt lat="46.38863" lon="-0.24327">
        <ele>145</ele>
        <time>2011-09-13T15:15:12Z</time>
      </trkpt>
      <trkpt lat="46.38863" lon="-0.24327">
        <ele>145</ele>
        <time>2011-09-13T15:15:22Z</time>
      </trkpt>
      <trkpt lat="46.38863" lon="-0.24327">
        <ele>145</ele>
        <time>2011-09-13T15:15:42Z</time>
      </trkpt>
      <trkpt lat="46.38863" lon="-0.24328">
        <ele>145</ele>
        <time>2011-09-13T15:15:57Z</time>
      </trkpt>
      <trkpt lat="46.38863" lon="-0.24328">
        <ele>145</ele>
        <time>2011-09-13T15:16:12Z</time>
      </trkpt>
      <trkpt lat="46.38864" lon="-0.24329">
        <ele>147</ele>
        <time>2011-09-13T15:16:17Z</time>
      </trkpt>
      <trkpt lat="46.38864" lon="-0.24329">
        <ele>145</ele>
        <time>2011-09-13T15:16:22Z</time>
      </trkpt>
      <trkpt lat="46.38865" lon="-0.24328">
        <ele>146</ele>
        <time>2011-09-13T15:16:27Z</time>
      </trkpt>
      <trkpt lat="46.38865" lon="-0.2433">
        <ele>147</ele>
        <time>2011-09-13T15:16:32Z</time>
      </trkpt>
      <trkpt lat="46.38865" lon="-0.2433">
        <ele>145</ele>
        <time>2011-09-13T15:16:42Z</time>
      </trkpt>
      <trkpt lat="46.3887" lon="-0.24329">
        <ele>147</ele>
        <time>2011-09-13T15:17:22Z</time>
      </trkpt>
      <trkpt lat="46.38872" lon="-0.24323">
        <ele>146</ele>
        <time>2011-09-13T15:17:27Z</time>
      </trkpt>
      <trkpt lat="46.38874" lon="-0.24315">
        <ele>147</ele>
        <time>2011-09-13T15:17:32Z</time>
      </trkpt>
      <trkpt lat="46.38877" lon="-0.24306">
        <ele>149</ele>
        <time>2011-09-13T15:17:37Z</time>
      </trkpt>
      <trkpt lat="46.3888" lon="-0.24297">
        <ele>149</ele>
        <time>2011-09-13T15:17:42Z</time>
      </trkpt>
      <trkpt lat="46.38883" lon="-0.24288">
        <ele>150</ele>
        <time>2011-09-13T15:17:47Z</time>
      </trkpt>
      <trkpt lat="46.38886" lon="-0.24278">
        <ele>151</ele>
        <time>2011-09-13T15:17:52Z</time>
      </trkpt>
      <trkpt lat="46.38887" lon="-0.2427">
        <ele>149</ele>
        <time>2011-09-13T15:17:57Z</time>
      </trkpt>
      <trkpt lat="46.38891" lon="-0.24262">
        <ele>150</ele>
        <time>2011-09-13T15:18:02Z</time>
      </trkpt>
      <trkpt lat="46.38892" lon="-0.24254">
        <ele>150</ele>
        <time>2011-09-13T15:18:07Z</time>
      </trkpt>
      <trkpt lat="46.38893" lon="-0.24251">
        <ele>150</ele>
        <time>2011-09-13T15:18:12Z</time>
      </trkpt>
      <trkpt lat="46.38897" lon="-0.24245">
        <ele>150</ele>
        <time>2011-09-13T15:18:17Z</time>
      </trkpt>
      <trkpt lat="46.38901" lon="-0.24238">
        <ele>149</ele>
        <time>2011-09-13T15:18:22Z</time>
      </trkpt>
      <trkpt lat="46.38905" lon="-0.24231">
        <ele>150</ele>
        <time>2011-09-13T15:18:27Z</time>
      </trkpt>
      <trkpt lat="46.38909" lon="-0.24226">
        <ele>152</ele>
        <time>2011-09-13T15:18:32Z</time>
      </trkpt>
      <trkpt lat="46.3891" lon="-0.24221">
        <ele>153</ele>
        <time>2011-09-13T15:18:37Z</time>
      </trkpt>
      <trkpt lat="46.38914" lon="-0.24217">
        <ele>154</ele>
        <time>2011-09-13T15:18:42Z</time>
      </trkpt>
      <trkpt lat="46.38918" lon="-0.24212">
        <ele>154</ele>
        <time>2011-09-13T15:18:47Z</time>
      </trkpt>
      <trkpt lat="46.38918" lon="-0.24208">
        <ele>153</ele>
        <time>2011-09-13T15:18:52Z</time>
      </trkpt>
      <trkpt lat="46.38913" lon="-0.24207">
        <ele>151</ele>
        <time>2011-09-13T15:18:57Z</time>
      </trkpt>
      <trkpt lat="46.38908" lon="-0.24206">
        <ele>150</ele>
        <time>2011-09-13T15:19:02Z</time>
      </trkpt>
      <trkpt lat="46.38907" lon="-0.24206">
        <ele>149</ele>
        <time>2011-09-13T15:19:07Z</time>
      </trkpt>
      <trkpt lat="46.38906" lon="-0.24206">
        <ele>147</ele>
        <time>2011-09-13T15:19:12Z</time>
      </trkpt>
      <trkpt lat="46.38905" lon="-0.24206">
        <ele>144</ele>
        <time>2011-09-13T15:19:17Z</time>
      </trkpt>
      <trkpt lat="46.38906" lon="-0.24206">
        <ele>145</ele>
        <time>2011-09-13T15:19:22Z</time>
      </trkpt>
      <trkpt lat="46.38908" lon="-0.24202">
        <ele>144</ele>
        <time>2011-09-13T15:19:27Z</time>
      </trkpt>
      <trkpt lat="46.38904" lon="-0.24196">
        <ele>142</ele>
        <time>2011-09-13T15:19:32Z</time>
      </trkpt>
      <trkpt lat="46.389" lon="-0.24198">
        <ele>142</ele>
        <time>2011-09-13T15:19:37Z</time>
      </trkpt>
      <trkpt lat="46.38896" lon="-0.24202">
        <ele>141</ele>
        <time>2011-09-13T15:19:42Z</time>
      </trkpt>
      <trkpt lat="46.38894" lon="-0.24202">
        <ele>139</ele>
        <time>2011-09-13T15:19:47Z</time>
      </trkpt>
      <trkpt lat="46.38894" lon="-0.24198">
        <ele>140</ele>
        <time>2011-09-13T15:19:52Z</time>
      </trkpt>
      <trkpt lat="46.38897" lon="-0.24194">
        <ele>138</ele>
        <time>2011-09-13T15:19:57Z</time>
      </trkpt>
      <trkpt lat="46.38899" lon="-0.24191">
        <ele>136</ele>
        <time>2011-09-13T15:20:02Z</time>
      </trkpt>
      <trkpt lat="46.38899" lon="-0.2419">
        <ele>136</ele>
        <time>2011-09-13T15:20:07Z</time>
      </trkpt>
      <trkpt lat="46.38899" lon="-0.2419">
        <ele>137</ele>
        <time>2011-09-13T15:20:12Z</time>
      </trkpt>
      <trkpt lat="46.38898" lon="-0.24189">
        <ele>137</ele>
        <time>2011-09-13T15:20:17Z</time>
      </trkpt>
      <trkpt lat="46.38898" lon="-0.24186">
        <ele>137</ele>
        <time>2011-09-13T15:20:22Z</time>
      </trkpt>
      <trkpt lat="46.38899" lon="-0.24185">
        <ele>137</ele>
        <time>2011-09-13T15:20:27Z</time>
      </trkpt>
      <trkpt lat="46.38897" lon="-0.24183">
        <ele>138</ele>
        <time>2011-09-13T15:20:32Z</time>
      </trkpt>
      <trkpt lat="46.38894" lon="-0.24185">
        <ele>138</ele>
        <time>2011-09-13T15:20:37Z</time>
      </trkpt>
      <trkpt lat="46.38893" lon="-0.24186">
        <ele>138</ele>
        <time>2011-09-13T15:20:42Z</time>
      </trkpt>
      <trkpt lat="46.38889" lon="-0.24189">
        <ele>139</ele>
        <time>2011-09-13T15:20:47Z</time>
      </trkpt>
      <trkpt lat="46.38884" lon="-0.24193">
        <ele>139</ele>
        <time>2011-09-13T15:20:52Z</time>
      </trkpt>
      <trkpt lat="46.38881" lon="-0.24199">
        <ele>136</ele>
        <time>2011-09-13T15:20:57Z</time>
      </trkpt>
      <trkpt lat="46.38877" lon="-0.24204">
        <ele>134</ele>
        <time>2011-09-13T15:21:02Z</time>
      </trkpt>
      <trkpt lat="46.38874" lon="-0.2421">
        <ele>129</ele>
        <time>2011-09-13T15:21:07Z</time>
      </trkpt>
      <trkpt lat="46.38871" lon="-0.24217">
        <ele>128</ele>
        <time>2011-09-13T15:21:12Z</time>
      </trkpt>
      <trkpt lat="46.3887" lon="-0.24224">
        <ele>128</ele>
        <time>2011-09-13T15:21:17Z</time>
      </trkpt>
      <trkpt lat="46.38872" lon="-0.24229">
        <ele>128</ele>
        <time>2011-09-13T15:21:22Z</time>
      </trkpt>
      <trkpt lat="46.38875" lon="-0.24238">
        <ele>130</ele>
        <time>2011-09-13T15:21:27Z</time>
      </trkpt>
      <trkpt lat="46.38872" lon="-0.24244">
        <ele>128</ele>
        <time>2011-09-13T15:21:32Z</time>
      </trkpt>
      <trkpt lat="46.38869" lon="-0.24249">
        <ele>129</ele>
        <time>2011-09-13T15:21:37Z</time>
      </trkpt>
      <trkpt lat="46.38865" lon="-0.24253">
        <ele>130</ele>
        <time>2011-09-13T15:21:42Z</time>
      </trkpt>
      <trkpt lat="46.3886" lon="-0.24255">
        <ele>129</ele>
        <time>2011-09-13T15:21:47Z</time>
      </trkpt>
      <trkpt lat="46.38854" lon="-0.24259">
        <ele>130</ele>
        <time>2011-09-13T15:21:52Z</time>
      </trkpt>
      <trkpt lat="46.38848" lon="-0.24261">
        <ele>132</ele>
        <time>2011-09-13T15:21:57Z</time>
      </trkpt>
      <trkpt lat="46.38843" lon="-0.24262">
        <ele>131</ele>
        <time>2011-09-13T15:22:02Z</time>
      </trkpt>
      <trkpt lat="46.3884" lon="-0.24264">
        <ele>131</ele>
        <time>2011-09-13T15:22:07Z</time>
      </trkpt>
      <trkpt lat="46.38839" lon="-0.24262">
        <ele>132</ele>
        <time>2011-09-13T15:22:12Z</time>
      </trkpt>
      <trkpt lat="46.38837" lon="-0.2426">
        <ele>132</ele>
        <time>2011-09-13T15:22:17Z</time>
      </trkpt>
      <trkpt lat="46.38837" lon="-0.24262">
        <ele>132</ele>
        <time>2011-09-13T15:22:22Z</time>
      </trkpt>
      <trkpt lat="46.38837" lon="-0.24263">
        <ele>132</ele>
        <time>2011-09-13T15:22:27Z</time>
      </trkpt>
      <trkpt lat="46.38837" lon="-0.24266">
        <ele>132</ele>
        <time>2011-09-13T15:22:32Z</time>
      </trkpt>
      <trkpt lat="46.38835" lon="-0.24269">
        <ele>132</ele>
        <time>2011-09-13T15:22:37Z</time>
      </trkpt>
      <trkpt lat="46.38833" lon="-0.24272">
        <ele>132</ele>
        <time>2011-09-13T15:22:42Z</time>
      </trkpt>
      <trkpt lat="46.38833" lon="-0.24274">
        <ele>134</ele>
        <time>2011-09-13T15:22:47Z</time>
      </trkpt>
      <trkpt lat="46.38833" lon="-0.24273">
        <ele>134</ele>
        <time>2011-09-13T15:22:52Z</time>
      </trkpt>
      <trkpt lat="46.38832" lon="-0.24274">
        <ele>132</ele>
        <time>2011-09-13T15:22:57Z</time>
      </trkpt>
      <trkpt lat="46.38833" lon="-0.24276">
        <ele>135</ele>
        <time>2011-09-13T15:23:02Z</time>
      </trkpt>
      <trkpt lat="46.38831" lon="-0.24276">
        <ele>137</ele>
        <time>2011-09-13T15:23:07Z</time>
      </trkpt>
      <trkpt lat="46.38831" lon="-0.24278">
        <ele>137</ele>
        <time>2011-09-13T15:23:12Z</time>
      </trkpt>
      <trkpt lat="46.3883" lon="-0.24278">
        <ele>137</ele>
        <time>2011-09-13T15:23:17Z</time>
      </trkpt>
      <trkpt lat="46.38828" lon="-0.2428">
        <ele>137</ele>
        <time>2011-09-13T15:23:22Z</time>
      </trkpt>
      <trkpt lat="46.38821" lon="-0.24284">
        <ele>134</ele>
        <time>2011-09-13T15:23:27Z</time>
      </trkpt>
      <trkpt lat="46.38818" lon="-0.24288">
        <ele>133</ele>
        <time>2011-09-13T15:23:32Z</time>
      </trkpt>
      <trkpt lat="46.38816" lon="-0.24294">
        <ele>134</ele>
        <time>2011-09-13T15:23:37Z</time>
      </trkpt>
      <trkpt lat="46.38813" lon="-0.24297">
        <ele>133</ele>
        <time>2011-09-13T15:23:42Z</time>
      </trkpt>
      <trkpt lat="46.38812" lon="-0.24302">
        <ele>131</ele>
        <time>2011-09-13T15:23:47Z</time>
      </trkpt>
      <trkpt lat="46.38809" lon="-0.24305">
        <ele>130</ele>
        <time>2011-09-13T15:23:52Z</time>
      </trkpt>
      <trkpt lat="46.38805" lon="-0.24308">
        <ele>129</ele>
        <time>2011-09-13T15:23:57Z</time>
      </trkpt>
      <trkpt lat="46.38802" lon="-0.24313">
        <ele>130</ele>
        <time>2011-09-13T15:24:02Z</time>
      </trkpt>
      <trkpt lat="46.38801" lon="-0.24315">
        <ele>129</ele>
        <time>2011-09-13T15:24:07Z</time>
      </trkpt>
      <trkpt lat="46.38799" lon="-0.24322">
        <ele>130</ele>
        <time>2011-09-13T15:24:12Z</time>
      </trkpt>
      <trkpt lat="46.38796" lon="-0.24329">
        <ele>130</ele>
        <time>2011-09-13T15:24:17Z</time>
      </trkpt>
      <trkpt lat="46.38795" lon="-0.24332">
        <ele>132</ele>
        <time>2011-09-13T15:24:22Z</time>
      </trkpt>
      <trkpt lat="46.38793" lon="-0.2434">
        <ele>132</ele>
        <time>2011-09-13T15:24:27Z</time>
      </trkpt>
      <trkpt lat="46.38789" lon="-0.24348">
        <ele>132</ele>
        <time>2011-09-13T15:24:32Z</time>
      </trkpt>
      <trkpt lat="46.38787" lon="-0.24352">
        <ele>132</ele>
        <time>2011-09-13T15:24:37Z</time>
      </trkpt>
      <trkpt lat="46.38784" lon="-0.24354">
        <ele>131</ele>
        <time>2011-09-13T15:24:42Z</time>
      </trkpt>
      <trkpt lat="46.38786" lon="-0.24358">
        <ele>130</ele>
        <time>2011-09-13T15:24:47Z</time>
      </trkpt>
      <trkpt lat="46.38784" lon="-0.24364">
        <ele>130</ele>
        <time>2011-09-13T15:24:52Z</time>
      </trkpt>
      <trkpt lat="46.38781" lon="-0.24368">
        <ele>129</ele>
        <time>2011-09-13T15:24:57Z</time>
      </trkpt>
      <trkpt lat="46.38782" lon="-0.24375">
        <ele>128</ele>
        <time>2011-09-13T15:25:02Z</time>
      </trkpt>
      <trkpt lat="46.38782" lon="-0.2438">
        <ele>126</ele>
        <time>2011-09-13T15:25:07Z</time>
      </trkpt>
      <trkpt lat="46.38783" lon="-0.24379">
        <ele>126</ele>
        <time>2011-09-13T15:25:12Z</time>
      </trkpt>
      <trkpt lat="46.38782" lon="-0.24379">
        <ele>126</ele>
        <time>2011-09-13T15:25:17Z</time>
      </trkpt>
      <trkpt lat="46.38783" lon="-0.24379">
        <ele>126</ele>
        <time>2011-09-13T15:25:22Z</time>
      </trkpt>
      <trkpt lat="46.38782" lon="-0.24379">
        <ele>126</ele>
        <time>2011-09-13T15:25:27Z</time>
      </trkpt>
      <trkpt lat="46.38783" lon="-0.2438">
        <ele>124</ele>
        <time>2011-09-13T15:26:07Z</time>
      </trkpt>
      <trkpt lat="46.38783" lon="-0.24379">
        <ele>124</ele>
        <time>2011-09-13T15:26:12Z</time>
      </trkpt>
      <trkpt lat="46.38783" lon="-0.24379">
        <ele>123</ele>
        <time>2011-09-13T15:26:17Z</time>
      </trkpt>
      <trkpt lat="46.38784" lon="-0.24378">
        <ele>123</ele>
        <time>2011-09-13T15:26:22Z</time>
      </trkpt>
      <trkpt lat="46.38782" lon="-0.24379">
        <ele>124</ele>
        <time>2011-09-13T15:26:27Z</time>
      </trkpt>
      <trkpt lat="46.38782" lon="-0.24384">
        <ele>121</ele>
        <time>2011-09-13T15:26:32Z</time>
      </trkpt>
      <trkpt lat="46.38783" lon="-0.2439">
        <ele>121</ele>
        <time>2011-09-13T15:26:37Z</time>
      </trkpt>
      <trkpt lat="46.38785" lon="-0.24393">
        <ele>120</ele>
        <time>2011-09-13T15:26:42Z</time>
      </trkpt>
      <trkpt lat="46.38786" lon="-0.24397">
        <ele>121</ele>
        <time>2011-09-13T15:26:47Z</time>
      </trkpt>
      <trkpt lat="46.38786" lon="-0.24402">
        <ele>121</ele>
        <time>2011-09-13T15:26:52Z</time>
      </trkpt>
      <trkpt lat="46.38789" lon="-0.24406">
        <ele>121</ele>
        <time>2011-09-13T15:26:57Z</time>
      </trkpt>
      <trkpt lat="46.38794" lon="-0.24413">
        <ele>121</ele>
        <time>2011-09-13T15:27:02Z</time>
      </trkpt>
      <trkpt lat="46.38797" lon="-0.24423">
        <ele>122</ele>
        <time>2011-09-13T15:27:07Z</time>
      </trkpt>
      <trkpt lat="46.38798" lon="-0.24429">
        <ele>122</ele>
        <time>2011-09-13T15:27:12Z</time>
      </trkpt>
      <trkpt lat="46.38799" lon="-0.24434">
        <ele>121</ele>
        <time>2011-09-13T15:27:17Z</time>
      </trkpt>
      <trkpt lat="46.38803" lon="-0.24439">
        <ele>121</ele>
        <time>2011-09-13T15:27:22Z</time>
      </trkpt>
      <trkpt lat="46.38802" lon="-0.24443">
        <ele>121</ele>
        <time>2011-09-13T15:27:27Z</time>
      </trkpt>
      <trkpt lat="46.38805" lon="-0.24447">
        <ele>122</ele>
        <time>2011-09-13T15:27:32Z</time>
      </trkpt>
      <trkpt lat="46.38804" lon="-0.2445">
        <ele>122</ele>
        <time>2011-09-13T15:27:37Z</time>
      </trkpt>
      <trkpt lat="46.38805" lon="-0.24454">
        <ele>123</ele>
        <time>2011-09-13T15:27:42Z</time>
      </trkpt>
      <trkpt lat="46.38806" lon="-0.24456">
        <ele>124</ele>
        <time>2011-09-13T15:27:47Z</time>
      </trkpt>
      <trkpt lat="46.38809" lon="-0.24462">
        <ele>125</ele>
        <time>2011-09-13T15:27:57Z</time>
      </trkpt>
      <trkpt lat="46.3881" lon="-0.24466">
        <ele>127</ele>
        <time>2011-09-13T15:28:02Z</time>
      </trkpt>
      <trkpt lat="46.38812" lon="-0.2447">
        <ele>129</ele>
        <time>2011-09-13T15:28:07Z</time>
      </trkpt>
      <trkpt lat="46.38817" lon="-0.24478">
        <ele>128</ele>
        <time>2011-09-13T15:28:12Z</time>
      </trkpt>
      <trkpt lat="46.38818" lon="-0.2448">
        <ele>129</ele>
        <time>2011-09-13T15:28:17Z</time>
      </trkpt>
      <trkpt lat="46.38822" lon="-0.24478">
        <ele>129</ele>
        <time>2011-09-13T15:28:22Z</time>
      </trkpt>
      <trkpt lat="46.3883" lon="-0.2448">
        <ele>130</ele>
        <time>2011-09-13T15:28:27Z</time>
      </trkpt>
      <trkpt lat="46.38831" lon="-0.24481">
        <ele>130</ele>
        <time>2011-09-13T15:28:32Z</time>
      </trkpt>
      <trkpt lat="46.38831" lon="-0.24483">
        <ele>131</ele>
        <time>2011-09-13T15:28:37Z</time>
      </trkpt>
      <trkpt lat="46.38833" lon="-0.24485">
        <ele>134</ele>
        <time>2011-09-13T15:28:42Z</time>
      </trkpt>
      <trkpt lat="46.38841" lon="-0.24493">
        <ele>135</ele>
        <time>2011-09-13T15:28:47Z</time>
      </trkpt>
      <trkpt lat="46.38842" lon="-0.24494">
        <ele>136</ele>
        <time>2011-09-13T15:28:52Z</time>
      </trkpt>
      <trkpt lat="46.38843" lon="-0.24494">
        <ele>136</ele>
        <time>2011-09-13T15:28:57Z</time>
      </trkpt>
      <trkpt lat="46.38843" lon="-0.24494">
        <ele>137</ele>
        <time>2011-09-13T15:29:02Z</time>
      </trkpt>
      <trkpt lat="46.38845" lon="-0.24494">
        <ele>140</ele>
        <time>2011-09-13T15:29:07Z</time>
      </trkpt>
      <trkpt lat="46.38845" lon="-0.24496">
        <ele>142</ele>
        <time>2011-09-13T15:29:12Z</time>
      </trkpt>
      <trkpt lat="46.38847" lon="-0.24497">
        <ele>143</ele>
        <time>2011-09-13T15:29:17Z</time>
      </trkpt>
      <trkpt lat="46.38848" lon="-0.24497">
        <ele>143</ele>
        <time>2011-09-13T15:29:22Z</time>
      </trkpt>
      <trkpt lat="46.38848" lon="-0.24497">
        <ele>143</ele>
        <time>2011-09-13T15:29:42Z</time>
      </trkpt>
      <trkpt lat="46.38853" lon="-0.24498">
        <ele>143</ele>
        <time>2011-09-13T15:29:57Z</time>
      </trkpt>
      <trkpt lat="46.38863" lon="-0.245">
        <ele>146</ele>
        <time>2011-09-13T15:30:02Z</time>
      </trkpt>
      <trkpt lat="46.38868" lon="-0.24504">
        <ele>146</ele>
        <time>2011-09-13T15:30:07Z</time>
      </trkpt>
      <trkpt lat="46.38869" lon="-0.24504">
        <ele>147</ele>
        <time>2011-09-13T15:30:12Z</time>
      </trkpt>
      <trkpt lat="46.38872" lon="-0.24502">
        <ele>147</ele>
        <time>2011-09-13T15:30:17Z</time>
      </trkpt>
      <trkpt lat="46.38873" lon="-0.24502">
        <ele>148</ele>
        <time>2011-09-13T15:30:22Z</time>
      </trkpt>
      <trkpt lat="46.38882" lon="-0.24505">
        <ele>150</ele>
        <time>2011-09-13T15:30:37Z</time>
      </trkpt>
      <trkpt lat="46.38886" lon="-0.24507">
        <ele>151</ele>
        <time>2011-09-13T15:30:42Z</time>
      </trkpt>
      <trkpt lat="46.38894" lon="-0.24509">
        <ele>151</ele>
        <time>2011-09-13T15:30:47Z</time>
      </trkpt>
      <trkpt lat="46.38895" lon="-0.24509">
        <ele>151</ele>
        <time>2011-09-13T15:30:52Z</time>
      </trkpt>
      <trkpt lat="46.38896" lon="-0.2451">
        <ele>152</ele>
        <time>2011-09-13T15:30:57Z</time>
      </trkpt>
      <trkpt lat="46.38896" lon="-0.24509">
        <ele>152</ele>
        <time>2011-09-13T15:31:17Z</time>
      </trkpt>
      <trkpt lat="46.38895" lon="-0.24509">
        <ele>152</ele>
        <time>2011-09-13T15:31:22Z</time>
      </trkpt>
      <trkpt lat="46.38896" lon="-0.24509">
        <ele>152</ele>
        <time>2011-09-13T15:31:27Z</time>
      </trkpt>
      <trkpt lat="46.38895" lon="-0.24509">
        <ele>152</ele>
        <time>2011-09-13T15:31:37Z</time>
      </trkpt>
      <trkpt lat="46.38893" lon="-0.24512">
        <ele>151</ele>
        <time>2011-09-13T15:31:42Z</time>
      </trkpt>
      <trkpt lat="46.38892" lon="-0.24511">
        <ele>149</ele>
        <time>2011-09-13T15:31:47Z</time>
      </trkpt>
      <trkpt lat="46.38891" lon="-0.24512">
        <ele>149</ele>
        <time>2011-09-13T15:31:52Z</time>
      </trkpt>
      <trkpt lat="46.3889" lon="-0.24512">
        <ele>148</ele>
        <time>2011-09-13T15:31:57Z</time>
      </trkpt>
      <trkpt lat="46.38887" lon="-0.2451">
        <ele>147</ele>
        <time>2011-09-13T15:32:07Z</time>
      </trkpt>
      <trkpt lat="46.38888" lon="-0.24511">
        <ele>146</ele>
        <time>2011-09-13T15:32:12Z</time>
      </trkpt>
      <trkpt lat="46.38885" lon="-0.24508">
        <ele>147</ele>
        <time>2011-09-13T15:32:17Z</time>
      </trkpt>
      <trkpt lat="46.38881" lon="-0.24501">
        <ele>147</ele>
        <time>2011-09-13T15:32:22Z</time>
      </trkpt>
      <trkpt lat="46.38877" lon="-0.245">
        <ele>145</ele>
        <time>2011-09-13T15:32:27Z</time>
      </trkpt>
      <trkpt lat="46.38876" lon="-0.24499">
        <ele>145</ele>
        <time>2011-09-13T15:32:32Z</time>
      </trkpt>
      <trkpt lat="46.38875" lon="-0.24498">
        <ele>146</ele>
        <time>2011-09-13T15:32:37Z</time>
      </trkpt>
      <trkpt lat="46.38871" lon="-0.24498">
        <ele>144</ele>
        <time>2011-09-13T15:32:42Z</time>
      </trkpt>
      <trkpt lat="46.3887" lon="-0.24497">
        <ele>145</ele>
        <time>2011-09-13T15:32:47Z</time>
      </trkpt>
      <trkpt lat="46.38869" lon="-0.24496">
        <ele>145</ele>
        <time>2011-09-13T15:32:52Z</time>
      </trkpt>
      <trkpt lat="46.38866" lon="-0.24497">
        <ele>143</ele>
        <time>2011-09-13T15:32:57Z</time>
      </trkpt>
      <trkpt lat="46.38859" lon="-0.24492">
        <ele>145</ele>
        <time>2011-09-13T15:33:02Z</time>
      </trkpt>
      <trkpt lat="46.38852" lon="-0.24491">
        <ele>145</ele>
        <time>2011-09-13T15:33:07Z</time>
      </trkpt>
      <trkpt lat="46.38842" lon="-0.24491">
        <ele>146</ele>
        <time>2011-09-13T15:33:12Z</time>
      </trkpt>
      <trkpt lat="46.38841" lon="-0.24491">
        <ele>145</ele>
        <time>2011-09-13T15:33:17Z</time>
      </trkpt>
      <trkpt lat="46.38837" lon="-0.24487">
        <ele>146</ele>
        <time>2011-09-13T15:33:22Z</time>
      </trkpt>
      <trkpt lat="46.38831" lon="-0.24486">
        <ele>145</ele>
        <time>2011-09-13T15:33:27Z</time>
      </trkpt>
      <trkpt lat="46.38829" lon="-0.24484">
        <ele>144</ele>
        <time>2011-09-13T15:33:32Z</time>
      </trkpt>
      <trkpt lat="46.38828" lon="-0.24482">
        <ele>143</ele>
        <time>2011-09-13T15:33:37Z</time>
      </trkpt>
      <trkpt lat="46.38827" lon="-0.24481">
        <ele>143</ele>
        <time>2011-09-13T15:33:42Z</time>
      </trkpt>
      <trkpt lat="46.38823" lon="-0.24478">
        <ele>143</ele>
        <time>2011-09-13T15:33:47Z</time>
      </trkpt>
      <trkpt lat="46.38812" lon="-0.24477">
        <ele>143</ele>
        <time>2011-09-13T15:33:52Z</time>
      </trkpt>
      <trkpt lat="46.38804" lon="-0.24476">
        <ele>143</ele>
        <time>2011-09-13T15:33:57Z</time>
      </trkpt>
      <trkpt lat="46.388" lon="-0.24475">
        <ele>143</ele>
        <time>2011-09-13T15:34:02Z</time>
      </trkpt>
      <trkpt lat="46.38801" lon="-0.24477">
        <ele>143</ele>
        <time>2011-09-13T15:34:07Z</time>
      </trkpt>
      <trkpt lat="46.38801" lon="-0.24478">
        <ele>144</ele>
        <time>2011-09-13T15:34:12Z</time>
      </trkpt>
      <trkpt lat="46.38801" lon="-0.24479">
        <ele>144</ele>
        <time>2011-09-13T15:34:17Z</time>
      </trkpt>
      <trkpt lat="46.38801" lon="-0.24479">
        <ele>145</ele>
        <time>2011-09-13T15:34:22Z</time>
      </trkpt>
      <trkpt lat="46.38802" lon="-0.2448">
        <ele>145</ele>
        <time>2011-09-13T15:34:27Z</time>
      </trkpt>
      <trkpt lat="46.38799" lon="-0.24478">
        <ele>145</ele>
        <time>2011-09-13T15:34:32Z</time>
      </trkpt>
      <trkpt lat="46.38797" lon="-0.24476">
        <ele>145</ele>
        <time>2011-09-13T15:34:37Z</time>
      </trkpt>
      <trkpt lat="46.38795" lon="-0.24477">
        <ele>142</ele>
        <time>2011-09-13T15:34:42Z</time>
      </trkpt>
      <trkpt lat="46.38791" lon="-0.24476">
        <ele>141</ele>
        <time>2011-09-13T15:34:47Z</time>
      </trkpt>
      <trkpt lat="46.38788" lon="-0.24477">
        <ele>140</ele>
        <time>2011-09-13T15:34:52Z</time>
      </trkpt>
      <trkpt lat="46.38786" lon="-0.24478">
        <ele>140</ele>
        <time>2011-09-13T15:34:57Z</time>
      </trkpt>
      <trkpt lat="46.3878" lon="-0.24479">
        <ele>140</ele>
        <time>2011-09-13T15:35:02Z</time>
      </trkpt>
      <trkpt lat="46.38776" lon="-0.24478">
        <ele>140</ele>
        <time>2011-09-13T15:35:07Z</time>
      </trkpt>
      <trkpt lat="46.38772" lon="-0.24481">
        <ele>139</ele>
        <time>2011-09-13T15:35:12Z</time>
      </trkpt>
      <trkpt lat="46.38768" lon="-0.24474">
        <ele>133</ele>
        <time>2011-09-13T15:35:17Z</time>
      </trkpt>
      <trkpt lat="46.38768" lon="-0.2447">
        <ele>130</ele>
        <time>2011-09-13T15:35:22Z</time>
      </trkpt>
      <trkpt lat="46.38764" lon="-0.24464">
        <ele>126</ele>
        <time>2011-09-13T15:35:27Z</time>
      </trkpt>
      <trkpt lat="46.38762" lon="-0.24464">
        <ele>125</ele>
        <time>2011-09-13T15:35:32Z</time>
      </trkpt>
      <trkpt lat="46.3876" lon="-0.24464">
        <ele>124</ele>
        <time>2011-09-13T15:35:37Z</time>
      </trkpt>
      <trkpt lat="46.38753" lon="-0.24462">
        <ele>122</ele>
        <time>2011-09-13T15:35:42Z</time>
      </trkpt>
      <trkpt lat="46.38746" lon="-0.24459">
        <ele>121</ele>
        <time>2011-09-13T15:35:47Z</time>
      </trkpt>
      <trkpt lat="46.38746" lon="-0.24458">
        <ele>121</ele>
        <time>2011-09-13T15:35:52Z</time>
      </trkpt>
      <trkpt lat="46.38746" lon="-0.24456">
        <ele>121</ele>
        <time>2011-09-13T15:35:57Z</time>
      </trkpt>
      <trkpt lat="46.38743" lon="-0.24453">
        <ele>121</ele>
        <time>2011-09-13T15:36:02Z</time>
      </trkpt>
      <trkpt lat="46.38735" lon="-0.24447">
        <ele>117</ele>
        <time>2011-09-13T15:36:07Z</time>
      </trkpt>
      <trkpt lat="46.38732" lon="-0.24444">
        <ele>117</ele>
        <time>2011-09-13T15:36:12Z</time>
      </trkpt>
      <trkpt lat="46.38733" lon="-0.24445">
        <ele>117</ele>
        <time>2011-09-13T15:36:17Z</time>
      </trkpt>
      <trkpt lat="46.38732" lon="-0.24444">
        <ele>116</ele>
        <time>2011-09-13T15:36:22Z</time>
      </trkpt>
      <trkpt lat="46.38727" lon="-0.24439">
        <ele>115</ele>
        <time>2011-09-13T15:36:32Z</time>
      </trkpt>
      <trkpt lat="46.38721" lon="-0.24433">
        <ele>114</ele>
        <time>2011-09-13T15:36:37Z</time>
      </trkpt>
      <trkpt lat="46.38715" lon="-0.24433">
        <ele>112</ele>
        <time>2011-09-13T15:36:42Z</time>
      </trkpt>
      <trkpt lat="46.38707" lon="-0.2443">
        <ele>112</ele>
        <time>2011-09-13T15:36:47Z</time>
      </trkpt>
      <trkpt lat="46.38705" lon="-0.24431">
        <ele>112</ele>
        <time>2011-09-13T15:36:52Z</time>
      </trkpt>
      <trkpt lat="46.38705" lon="-0.24431">
        <ele>112</ele>
        <time>2011-09-13T15:36:57Z</time>
      </trkpt>
      <trkpt lat="46.38704" lon="-0.24431">
        <ele>111</ele>
        <time>2011-09-13T15:37:02Z</time>
      </trkpt>
      <trkpt lat="46.38705" lon="-0.24431">
        <ele>110</ele>
        <time>2011-09-13T15:37:07Z</time>
      </trkpt>
      <trkpt lat="46.38707" lon="-0.24428">
        <ele>110</ele>
        <time>2011-09-13T15:37:12Z</time>
      </trkpt>
      <trkpt lat="46.38707" lon="-0.24429">
        <ele>109</ele>
        <time>2011-09-13T15:37:17Z</time>
      </trkpt>
      <trkpt lat="46.38707" lon="-0.24429">
        <ele>109</ele>
        <time>2011-09-13T15:37:22Z</time>
      </trkpt>
      <trkpt lat="46.38707" lon="-0.24427">
        <ele>109</ele>
        <time>2011-09-13T15:37:32Z</time>
      </trkpt>
      <trkpt lat="46.38705" lon="-0.24427">
        <ele>108</ele>
        <time>2011-09-13T15:37:37Z</time>
      </trkpt>
      <trkpt lat="46.38705" lon="-0.24425">
        <ele>108</ele>
        <time>2011-09-13T15:37:42Z</time>
      </trkpt>
      <trkpt lat="46.38705" lon="-0.24426">
        <ele>108</ele>
        <time>2011-09-13T15:37:47Z</time>
      </trkpt>
      <trkpt lat="46.38705" lon="-0.24426">
        <ele>108</ele>
        <time>2011-09-13T15:37:52Z</time>
      </trkpt>
      <trkpt lat="46.387" lon="-0.24428">
        <ele>107</ele>
        <time>2011-09-13T15:37:57Z</time>
      </trkpt>
      <trkpt lat="46.38698" lon="-0.24434">
        <ele>105</ele>
        <time>2011-09-13T15:38:02Z</time>
      </trkpt>
      <trkpt lat="46.38698" lon="-0.24441">
        <ele>104</ele>
        <time>2011-09-13T15:38:07Z</time>
      </trkpt>
      <trkpt lat="46.38694" lon="-0.2445">
        <ele>103</ele>
        <time>2011-09-13T15:38:12Z</time>
      </trkpt>
      <trkpt lat="46.38689" lon="-0.24455">
        <ele>101</ele>
        <time>2011-09-13T15:38:17Z</time>
      </trkpt>
      <trkpt lat="46.38685" lon="-0.2446">
        <ele>102</ele>
        <time>2011-09-13T15:38:22Z</time>
      </trkpt>
      <trkpt lat="46.3868" lon="-0.24461">
        <ele>101</ele>
        <time>2011-09-13T15:38:27Z</time>
      </trkpt>
      <trkpt lat="46.38677" lon="-0.2446">
        <ele>100</ele>
        <time>2011-09-13T15:38:32Z</time>
      </trkpt>
      <trkpt lat="46.38672" lon="-0.24461">
        <ele>101</ele>
        <time>2011-09-13T15:38:37Z</time>
      </trkpt>
      <trkpt lat="46.38664" lon="-0.24463">
        <ele>101</ele>
        <time>2011-09-13T15:38:42Z</time>
      </trkpt>
      <trkpt lat="46.38659" lon="-0.24464">
        <ele>101</ele>
        <time>2011-09-13T15:38:47Z</time>
      </trkpt>
      <trkpt lat="46.38653" lon="-0.24469">
        <ele>102</ele>
        <time>2011-09-13T15:38:52Z</time>
      </trkpt>
      <trkpt lat="46.38649" lon="-0.24474">
        <ele>105</ele>
        <time>2011-09-13T15:38:57Z</time>
      </trkpt>
      <trkpt lat="46.38648" lon="-0.2448">
        <ele>105</ele>
        <time>2011-09-13T15:39:02Z</time>
      </trkpt>
      <trkpt lat="46.38646" lon="-0.24487">
        <ele>106</ele>
        <time>2011-09-13T15:39:07Z</time>
      </trkpt>
      <trkpt lat="46.38646" lon="-0.24491">
        <ele>105</ele>
        <time>2011-09-13T15:39:12Z</time>
      </trkpt>
      <trkpt lat="46.38647" lon="-0.24492">
        <ele>105</ele>
        <time>2011-09-13T15:39:17Z</time>
      </trkpt>
      <trkpt lat="46.38646" lon="-0.24492">
        <ele>104</ele>
        <time>2011-09-13T15:39:22Z</time>
      </trkpt>
      <trkpt lat="46.38646" lon="-0.24493">
        <ele>105</ele>
        <time>2011-09-13T15:39:32Z</time>
      </trkpt>
      <trkpt lat="46.38645" lon="-0.24494">
        <ele>105</ele>
        <time>2011-09-13T15:39:37Z</time>
      </trkpt>
      <trkpt lat="46.38645" lon="-0.24499">
        <ele>105</ele>
        <time>2011-09-13T15:39:42Z</time>
      </trkpt>
      <trkpt lat="46.38644" lon="-0.24504">
        <ele>106</ele>
        <time>2011-09-13T15:39:47Z</time>
      </trkpt>
      <trkpt lat="46.38642" lon="-0.24509">
        <ele>104</ele>
        <time>2011-09-13T15:39:52Z</time>
      </trkpt>
      <trkpt lat="46.38637" lon="-0.24514">
        <ele>102</ele>
        <time>2011-09-13T15:39:57Z</time>
      </trkpt>
      <trkpt lat="46.38634" lon="-0.24519">
        <ele>103</ele>
        <time>2011-09-13T15:40:02Z</time>
      </trkpt>
      <trkpt lat="46.3863" lon="-0.24526">
        <ele>103</ele>
        <time>2011-09-13T15:40:07Z</time>
      </trkpt>
      <trkpt lat="46.38627" lon="-0.24532">
        <ele>102</ele>
        <time>2011-09-13T15:40:12Z</time>
      </trkpt>
      <trkpt lat="46.38623" lon="-0.24539">
        <ele>102</ele>
        <time>2011-09-13T15:40:17Z</time>
      </trkpt>
      <trkpt lat="46.38618" lon="-0.24545">
        <ele>102</ele>
        <time>2011-09-13T15:40:22Z</time>
      </trkpt>
      <trkpt lat="46.38615" lon="-0.24549">
        <ele>102</ele>
        <time>2011-09-13T15:40:27Z</time>
      </trkpt>
      <trkpt lat="46.38612" lon="-0.24555">
        <ele>101</ele>
        <time>2011-09-13T15:40:32Z</time>
      </trkpt>
      <trkpt lat="46.38611" lon="-0.24563">
        <ele>100</ele>
        <time>2011-09-13T15:40:37Z</time>
      </trkpt>
      <trkpt lat="46.38607" lon="-0.24569">
        <ele>100</ele>
        <time>2011-09-13T15:40:42Z</time>
      </trkpt>
      <trkpt lat="46.38603" lon="-0.24576">
        <ele>100</ele>
        <time>2011-09-13T15:40:47Z</time>
      </trkpt>
      <trkpt lat="46.38598" lon="-0.24584">
        <ele>100</ele>
        <time>2011-09-13T15:40:52Z</time>
      </trkpt>
      <trkpt lat="46.38595" lon="-0.2459">
        <ele>100</ele>
        <time>2011-09-13T15:40:57Z</time>
      </trkpt>
      <trkpt lat="46.3859" lon="-0.24595">
        <ele>101</ele>
        <time>2011-09-13T15:41:02Z</time>
      </trkpt>
      <trkpt lat="46.38585" lon="-0.24601">
        <ele>102</ele>
        <time>2011-09-13T15:41:07Z</time>
      </trkpt>
      <trkpt lat="46.38582" lon="-0.24609">
        <ele>102</ele>
        <time>2011-09-13T15:41:12Z</time>
      </trkpt>
      <trkpt lat="46.38577" lon="-0.24613">
        <ele>104</ele>
        <time>2011-09-13T15:41:17Z</time>
      </trkpt>
      <trkpt lat="46.38573" lon="-0.24621">
        <ele>104</ele>
        <time>2011-09-13T15:41:22Z</time>
      </trkpt>
      <trkpt lat="46.3857" lon="-0.24623">
        <ele>104</ele>
        <time>2011-09-13T15:41:27Z</time>
      </trkpt>
      <trkpt lat="46.38563" lon="-0.24629">
        <ele>105</ele>
        <time>2011-09-13T15:41:32Z</time>
      </trkpt>
      <trkpt lat="46.3856" lon="-0.24631">
        <ele>105</ele>
        <time>2011-09-13T15:41:37Z</time>
      </trkpt>
      <trkpt lat="46.38554" lon="-0.24637">
        <ele>105</ele>
        <time>2011-09-13T15:41:42Z</time>
      </trkpt>
      <trkpt lat="46.3855" lon="-0.24638">
        <ele>107</ele>
        <time>2011-09-13T15:41:47Z</time>
      </trkpt>
      <trkpt lat="46.38549" lon="-0.24639">
        <ele>107</ele>
        <time>2011-09-13T15:41:52Z</time>
      </trkpt>
      <trkpt lat="46.38545" lon="-0.2465">
        <ele>106</ele>
        <time>2011-09-13T15:41:57Z</time>
      </trkpt>
      <trkpt lat="46.38543" lon="-0.24654">
        <ele>107</ele>
        <time>2011-09-13T15:42:02Z</time>
      </trkpt>
      <trkpt lat="46.38539" lon="-0.24656">
        <ele>109</ele>
        <time>2011-09-13T15:42:07Z</time>
      </trkpt>
      <trkpt lat="46.38534" lon="-0.24662">
        <ele>109</ele>
        <time>2011-09-13T15:42:12Z</time>
      </trkpt>
      <trkpt lat="46.38532" lon="-0.24666">
        <ele>107</ele>
        <time>2011-09-13T15:42:17Z</time>
      </trkpt>
      <trkpt lat="46.38529" lon="-0.24673">
        <ele>105</ele>
        <time>2011-09-13T15:42:22Z</time>
      </trkpt>
      <trkpt lat="46.38523" lon="-0.24677">
        <ele>107</ele>
        <time>2011-09-13T15:42:27Z</time>
      </trkpt>
      <trkpt lat="46.38519" lon="-0.24683">
        <ele>107</ele>
        <time>2011-09-13T15:42:32Z</time>
      </trkpt>
      <trkpt lat="46.38514" lon="-0.24684">
        <ele>106</ele>
        <time>2011-09-13T15:42:37Z</time>
      </trkpt>
      <trkpt lat="46.3851" lon="-0.24688">
        <ele>105</ele>
        <time>2011-09-13T15:42:42Z</time>
      </trkpt>
      <trkpt lat="46.38507" lon="-0.2469">
        <ele>106</ele>
        <time>2011-09-13T15:42:47Z</time>
      </trkpt>
      <trkpt lat="46.38502" lon="-0.24696">
        <ele>106</ele>
        <time>2011-09-13T15:42:52Z</time>
      </trkpt>
      <trkpt lat="46.385" lon="-0.24704">
        <ele>106</ele>
        <time>2011-09-13T15:42:57Z</time>
      </trkpt>
      <trkpt lat="46.38496" lon="-0.24709">
        <ele>107</ele>
        <time>2011-09-13T15:43:02Z</time>
      </trkpt>
      <trkpt lat="46.38492" lon="-0.2471">
        <ele>106</ele>
        <time>2011-09-13T15:43:07Z</time>
      </trkpt>
      <trkpt lat="46.38487" lon="-0.24716">
        <ele>106</ele>
        <time>2011-09-13T15:43:12Z</time>
      </trkpt>
      <trkpt lat="46.38485" lon="-0.24724">
        <ele>106</ele>
        <time>2011-09-13T15:43:17Z</time>
      </trkpt>
      <trkpt lat="46.38481" lon="-0.2473">
        <ele>106</ele>
        <time>2011-09-13T15:43:22Z</time>
      </trkpt>
      <trkpt lat="46.38478" lon="-0.24735">
        <ele>105</ele>
        <time>2011-09-13T15:43:27Z</time>
      </trkpt>
      <trkpt lat="46.38474" lon="-0.2474">
        <ele>106</ele>
        <time>2011-09-13T15:43:32Z</time>
      </trkpt>
      <trkpt lat="46.38467" lon="-0.24742">
        <ele>104</ele>
        <time>2011-09-13T15:43:37Z</time>
      </trkpt>
      <trkpt lat="46.38463" lon="-0.24745">
        <ele>106</ele>
        <time>2011-09-13T15:43:42Z</time>
      </trkpt>
      <trkpt lat="46.38456" lon="-0.24746">
        <ele>106</ele>
        <time>2011-09-13T15:43:47Z</time>
      </trkpt>
      <trkpt lat="46.38454" lon="-0.2475">
        <ele>106</ele>
        <time>2011-09-13T15:43:52Z</time>
      </trkpt>
      <trkpt lat="46.38451" lon="-0.24753">
        <ele>105</ele>
        <time>2011-09-13T15:43:57Z</time>
      </trkpt>
      <trkpt lat="46.38449" lon="-0.24758">
        <ele>107</ele>
        <time>2011-09-13T15:44:02Z</time>
      </trkpt>
      <trkpt lat="46.3844" lon="-0.2476">
        <ele>111</ele>
        <time>2011-09-13T15:44:07Z</time>
      </trkpt>
      <trkpt lat="46.38437" lon="-0.24767">
        <ele>111</ele>
        <time>2011-09-13T15:44:12Z</time>
      </trkpt>
      <trkpt lat="46.38433" lon="-0.24771">
        <ele>111</ele>
        <time>2011-09-13T15:44:17Z</time>
      </trkpt>
      <trkpt lat="46.38428" lon="-0.24776">
        <ele>111</ele>
        <time>2011-09-13T15:44:22Z</time>
      </trkpt>
      <trkpt lat="46.38426" lon="-0.24783">
        <ele>109</ele>
        <time>2011-09-13T15:44:27Z</time>
      </trkpt>
      <trkpt lat="46.38421" lon="-0.24786">
        <ele>109</ele>
        <time>2011-09-13T15:44:32Z</time>
      </trkpt>
      <trkpt lat="46.38417" lon="-0.2479">
        <ele>109</ele>
        <time>2011-09-13T15:44:37Z</time>
      </trkpt>
      <trkpt lat="46.38413" lon="-0.24793">
        <ele>109</ele>
        <time>2011-09-13T15:44:42Z</time>
      </trkpt>
      <trkpt lat="46.38409" lon="-0.248">
        <ele>108</ele>
        <time>2011-09-13T15:44:47Z</time>
      </trkpt>
      <trkpt lat="46.38404" lon="-0.24805">
        <ele>106</ele>
        <time>2011-09-13T15:44:52Z</time>
      </trkpt>
      <trkpt lat="46.38399" lon="-0.24809">
        <ele>105</ele>
        <time>2011-09-13T15:44:57Z</time>
      </trkpt>
      <trkpt lat="46.38393" lon="-0.24812">
        <ele>104</ele>
        <time>2011-09-13T15:45:02Z</time>
      </trkpt>
      <trkpt lat="46.3839" lon="-0.24817">
        <ele>103</ele>
        <time>2011-09-13T15:45:07Z</time>
      </trkpt>
      <trkpt lat="46.38385" lon="-0.24822">
        <ele>103</ele>
        <time>2011-09-13T15:45:12Z</time>
      </trkpt>
      <trkpt lat="46.38381" lon="-0.24823">
        <ele>103</ele>
        <time>2011-09-13T15:45:17Z</time>
      </trkpt>
      <trkpt lat="46.38373" lon="-0.24826">
        <ele>103</ele>
        <time>2011-09-13T15:45:22Z</time>
      </trkpt>
      <trkpt lat="46.38371" lon="-0.24837">
        <ele>101</ele>
        <time>2011-09-13T15:45:27Z</time>
      </trkpt>
      <trkpt lat="46.38368" lon="-0.24841">
        <ele>97</ele>
        <time>2011-09-13T15:45:32Z</time>
      </trkpt>
      <trkpt lat="46.38362" lon="-0.24843">
        <ele>97</ele>
        <time>2011-09-13T15:45:37Z</time>
      </trkpt>
      <trkpt lat="46.38359" lon="-0.24847">
        <ele>98</ele>
        <time>2011-09-13T15:45:42Z</time>
      </trkpt>
      <trkpt lat="46.38352" lon="-0.24853">
        <ele>99</ele>
        <time>2011-09-13T15:45:47Z</time>
      </trkpt>
      <trkpt lat="46.38349" lon="-0.24855">
        <ele>100</ele>
        <time>2011-09-13T15:45:52Z</time>
      </trkpt>
      <trkpt lat="46.38346" lon="-0.24859">
        <ele>99</ele>
        <time>2011-09-13T15:45:57Z</time>
      </trkpt>
      <trkpt lat="46.3834" lon="-0.24864">
        <ele>98</ele>
        <time>2011-09-13T15:46:02Z</time>
      </trkpt>
      <trkpt lat="46.38334" lon="-0.24866">
        <ele>98</ele>
        <time>2011-09-13T15:46:07Z</time>
      </trkpt>
      <trkpt lat="46.38331" lon="-0.24871">
        <ele>99</ele>
        <time>2011-09-13T15:46:12Z</time>
      </trkpt>
      <trkpt lat="46.38328" lon="-0.24877">
        <ele>98</ele>
        <time>2011-09-13T15:46:17Z</time>
      </trkpt>
      <trkpt lat="46.38326" lon="-0.24883">
        <ele>100</ele>
        <time>2011-09-13T15:46:22Z</time>
      </trkpt>
      <trkpt lat="46.38321" lon="-0.24887">
        <ele>100</ele>
        <time>2011-09-13T15:46:27Z</time>
      </trkpt>
      <trkpt lat="46.38318" lon="-0.24891">
        <ele>102</ele>
        <time>2011-09-13T15:46:32Z</time>
      </trkpt>
      <trkpt lat="46.38315" lon="-0.24896">
        <ele>102</ele>
        <time>2011-09-13T15:46:37Z</time>
      </trkpt>
      <trkpt lat="46.38312" lon="-0.24904">
        <ele>105</ele>
        <time>2011-09-13T15:46:42Z</time>
      </trkpt>
      <trkpt lat="46.3831" lon="-0.24909">
        <ele>104</ele>
        <time>2011-09-13T15:46:47Z</time>
      </trkpt>
      <trkpt lat="46.38306" lon="-0.24915">
        <ele>105</ele>
        <time>2011-09-13T15:46:52Z</time>
      </trkpt>
      <trkpt lat="46.38304" lon="-0.24923">
        <ele>105</ele>
        <time>2011-09-13T15:46:57Z</time>
      </trkpt>
      <trkpt lat="46.38303" lon="-0.24928">
        <ele>105</ele>
        <time>2011-09-13T15:47:02Z</time>
      </trkpt>
      <trkpt lat="46.383" lon="-0.24932">
        <ele>105</ele>
        <time>2011-09-13T15:47:07Z</time>
      </trkpt>
      <trkpt lat="46.38296" lon="-0.24938">
        <ele>105</ele>
        <time>2011-09-13T15:47:12Z</time>
      </trkpt>
      <trkpt lat="46.38292" lon="-0.24943">
        <ele>104</ele>
        <time>2011-09-13T15:47:17Z</time>
      </trkpt>
      <trkpt lat="46.38288" lon="-0.24949">
        <ele>103</ele>
        <time>2011-09-13T15:47:22Z</time>
      </trkpt>
      <trkpt lat="46.38284" lon="-0.24953">
        <ele>101</ele>
        <time>2011-09-13T15:47:27Z</time>
      </trkpt>
      <trkpt lat="46.3828" lon="-0.24961">
        <ele>103</ele>
        <time>2011-09-13T15:47:32Z</time>
      </trkpt>
      <trkpt lat="46.38278" lon="-0.24968">
        <ele>105</ele>
        <time>2011-09-13T15:47:37Z</time>
      </trkpt>
      <trkpt lat="46.38276" lon="-0.24973">
        <ele>105</ele>
        <time>2011-09-13T15:47:42Z</time>
      </trkpt>
      <trkpt lat="46.38274" lon="-0.2498">
        <ele>105</ele>
        <time>2011-09-13T15:47:47Z</time>
      </trkpt>
      <trkpt lat="46.38272" lon="-0.24987">
        <ele>108</ele>
        <time>2011-09-13T15:47:52Z</time>
      </trkpt>
      <trkpt lat="46.38269" lon="-0.24992">
        <ele>109</ele>
        <time>2011-09-13T15:47:57Z</time>
      </trkpt>
      <trkpt lat="46.38266" lon="-0.24997">
        <ele>111</ele>
        <time>2011-09-13T15:48:02Z</time>
      </trkpt>
      <trkpt lat="46.38262" lon="-0.25">
        <ele>112</ele>
        <time>2011-09-13T15:48:07Z</time>
      </trkpt>
      <trkpt lat="46.38256" lon="-0.25003">
        <ele>110</ele>
        <time>2011-09-13T15:48:12Z</time>
      </trkpt>
      <trkpt lat="46.38251" lon="-0.25005">
        <ele>108</ele>
        <time>2011-09-13T15:48:17Z</time>
      </trkpt>
      <trkpt lat="46.38249" lon="-0.25008">
        <ele>107</ele>
        <time>2011-09-13T15:48:22Z</time>
      </trkpt>
      <trkpt lat="46.38244" lon="-0.25012">
        <ele>108</ele>
        <time>2011-09-13T15:48:27Z</time>
      </trkpt>
      <trkpt lat="46.38236" lon="-0.25014">
        <ele>106</ele>
        <time>2011-09-13T15:48:32Z</time>
      </trkpt>
      <trkpt lat="46.38229" lon="-0.25016">
        <ele>105</ele>
        <time>2011-09-13T15:48:37Z</time>
      </trkpt>
      <trkpt lat="46.38222" lon="-0.25018">
        <ele>103</ele>
        <time>2011-09-13T15:48:42Z</time>
      </trkpt>
      <trkpt lat="46.38217" lon="-0.25016">
        <ele>103</ele>
        <time>2011-09-13T15:48:47Z</time>
      </trkpt>
      <trkpt lat="46.38212" lon="-0.25016">
        <ele>104</ele>
        <time>2011-09-13T15:48:52Z</time>
      </trkpt>
      <trkpt lat="46.38207" lon="-0.25021">
        <ele>101</ele>
        <time>2011-09-13T15:48:57Z</time>
      </trkpt>
      <trkpt lat="46.38201" lon="-0.25024">
        <ele>100</ele>
        <time>2011-09-13T15:49:02Z</time>
      </trkpt>
      <trkpt lat="46.38197" lon="-0.25028">
        <ele>97</ele>
        <time>2011-09-13T15:49:07Z</time>
      </trkpt>
      <trkpt lat="46.38189" lon="-0.25029">
        <ele>95</ele>
        <time>2011-09-13T15:49:12Z</time>
      </trkpt>
      <trkpt lat="46.38186" lon="-0.25036">
        <ele>94</ele>
        <time>2011-09-13T15:49:17Z</time>
      </trkpt>
      <trkpt lat="46.38183" lon="-0.25042">
        <ele>97</ele>
        <time>2011-09-13T15:49:22Z</time>
      </trkpt>
      <trkpt lat="46.38178" lon="-0.25044">
        <ele>99</ele>
        <time>2011-09-13T15:49:27Z</time>
      </trkpt>
      <trkpt lat="46.38172" lon="-0.25047">
        <ele>99</ele>
        <time>2011-09-13T15:49:32Z</time>
      </trkpt>
      <trkpt lat="46.38167" lon="-0.25052">
        <ele>101</ele>
        <time>2011-09-13T15:49:37Z</time>
      </trkpt>
      <trkpt lat="46.38163" lon="-0.25058">
        <ele>104</ele>
        <time>2011-09-13T15:49:42Z</time>
      </trkpt>
      <trkpt lat="46.3816" lon="-0.25064">
        <ele>104</ele>
        <time>2011-09-13T15:49:47Z</time>
      </trkpt>
      <trkpt lat="46.38155" lon="-0.25068">
        <ele>106</ele>
        <time>2011-09-13T15:49:52Z</time>
      </trkpt>
      <trkpt lat="46.38153" lon="-0.25071">
        <ele>105</ele>
        <time>2011-09-13T15:49:57Z</time>
      </trkpt>
      <trkpt lat="46.38154" lon="-0.25075">
        <ele>105</ele>
        <time>2011-09-13T15:50:02Z</time>
      </trkpt>
      <trkpt lat="46.3815" lon="-0.25081">
        <ele>105</ele>
        <time>2011-09-13T15:50:07Z</time>
      </trkpt>
      <trkpt lat="46.38148" lon="-0.25089">
        <ele>102</ele>
        <time>2011-09-13T15:50:12Z</time>
      </trkpt>
      <trkpt lat="46.38147" lon="-0.25094">
        <ele>99</ele>
        <time>2011-09-13T15:50:17Z</time>
      </trkpt>
      <trkpt lat="46.38144" lon="-0.25098">
        <ele>100</ele>
        <time>2011-09-13T15:50:22Z</time>
      </trkpt>
      <trkpt lat="46.3814" lon="-0.25105">
        <ele>102</ele>
        <time>2011-09-13T15:50:27Z</time>
      </trkpt>
      <trkpt lat="46.38137" lon="-0.25112">
        <ele>103</ele>
        <time>2011-09-13T15:50:32Z</time>
      </trkpt>
      <trkpt lat="46.38133" lon="-0.25121">
        <ele>104</ele>
        <time>2011-09-13T15:50:37Z</time>
      </trkpt>
      <trkpt lat="46.38127" lon="-0.25127">
        <ele>106</ele>
        <time>2011-09-13T15:50:42Z</time>
      </trkpt>
      <trkpt lat="46.38122" lon="-0.25133">
        <ele>107</ele>
        <time>2011-09-13T15:50:47Z</time>
      </trkpt>
      <trkpt lat="46.38117" lon="-0.25141">
        <ele>107</ele>
        <time>2011-09-13T15:50:52Z</time>
      </trkpt>
      <trkpt lat="46.38112" lon="-0.25147">
        <ele>108</ele>
        <time>2011-09-13T15:50:57Z</time>
      </trkpt>
      <trkpt lat="46.38107" lon="-0.25152">
        <ele>108</ele>
        <time>2011-09-13T15:51:02Z</time>
      </trkpt>
      <trkpt lat="46.38105" lon="-0.25158">
        <ele>108</ele>
        <time>2011-09-13T15:51:07Z</time>
      </trkpt>
      <trkpt lat="46.381" lon="-0.25165">
        <ele>106</ele>
        <time>2011-09-13T15:51:12Z</time>
      </trkpt>
      <trkpt lat="46.38097" lon="-0.25172">
        <ele>105</ele>
        <time>2011-09-13T15:51:17Z</time>
      </trkpt>
      <trkpt lat="46.38092" lon="-0.25178">
        <ele>110</ele>
        <time>2011-09-13T15:51:22Z</time>
      </trkpt>
      <trkpt lat="46.38088" lon="-0.25182">
        <ele>112</ele>
        <time>2011-09-13T15:51:27Z</time>
      </trkpt>
      <trkpt lat="46.38087" lon="-0.25193">
        <ele>110</ele>
        <time>2011-09-13T15:51:32Z</time>
      </trkpt>
      <trkpt lat="46.38088" lon="-0.25196">
        <ele>111</ele>
        <time>2011-09-13T15:51:37Z</time>
      </trkpt>
      <trkpt lat="46.38087" lon="-0.25204">
        <ele>110</ele>
        <time>2011-09-13T15:51:42Z</time>
      </trkpt>
      <trkpt lat="46.38085" lon="-0.25211">
        <ele>109</ele>
        <time>2011-09-13T15:51:47Z</time>
      </trkpt>
      <trkpt lat="46.38084" lon="-0.2522">
        <ele>110</ele>
        <time>2011-09-13T15:51:52Z</time>
      </trkpt>
      <trkpt lat="46.38084" lon="-0.25227">
        <ele>108</ele>
        <time>2011-09-13T15:51:57Z</time>
      </trkpt>
      <trkpt lat="46.38082" lon="-0.25234">
        <ele>109</ele>
        <time>2011-09-13T15:52:02Z</time>
      </trkpt>
      <trkpt lat="46.38081" lon="-0.25243">
        <ele>108</ele>
        <time>2011-09-13T15:52:07Z</time>
      </trkpt>
      <trkpt lat="46.38082" lon="-0.25252">
        <ele>106</ele>
        <time>2011-09-13T15:52:12Z</time>
      </trkpt>
      <trkpt lat="46.38081" lon="-0.25263">
        <ele>104</ele>
        <time>2011-09-13T15:52:17Z</time>
      </trkpt>
      <trkpt lat="46.38079" lon="-0.25273">
        <ele>104</ele>
        <time>2011-09-13T15:52:22Z</time>
      </trkpt>
      <trkpt lat="46.38077" lon="-0.25279">
        <ele>104</ele>
        <time>2011-09-13T15:52:27Z</time>
      </trkpt>
      <trkpt lat="46.38075" lon="-0.25285">
        <ele>104</ele>
        <time>2011-09-13T15:52:32Z</time>
      </trkpt>
      <trkpt lat="46.38073" lon="-0.25292">
        <ele>103</ele>
        <time>2011-09-13T15:52:37Z</time>
      </trkpt>
      <trkpt lat="46.38071" lon="-0.25296">
        <ele>103</ele>
        <time>2011-09-13T15:52:42Z</time>
      </trkpt>
      <trkpt lat="46.38066" lon="-0.25303">
        <ele>104</ele>
        <time>2011-09-13T15:52:47Z</time>
      </trkpt>
      <trkpt lat="46.38064" lon="-0.25309">
        <ele>104</ele>
        <time>2011-09-13T15:52:52Z</time>
      </trkpt>
      <trkpt lat="46.38055" lon="-0.25311">
        <ele>105</ele>
        <time>2011-09-13T15:52:57Z</time>
      </trkpt>
      <trkpt lat="46.3805" lon="-0.25316">
        <ele>104</ele>
        <time>2011-09-13T15:53:02Z</time>
      </trkpt>
      <trkpt lat="46.38045" lon="-0.2532">
        <ele>105</ele>
        <time>2011-09-13T15:53:07Z</time>
      </trkpt>
      <trkpt lat="46.38039" lon="-0.25325">
        <ele>108</ele>
        <time>2011-09-13T15:53:12Z</time>
      </trkpt>
      <trkpt lat="46.38036" lon="-0.25331">
        <ele>108</ele>
        <time>2011-09-13T15:53:17Z</time>
      </trkpt>
      <trkpt lat="46.38032" lon="-0.25336">
        <ele>108</ele>
        <time>2011-09-13T15:53:22Z</time>
      </trkpt>
      <trkpt lat="46.38027" lon="-0.25342">
        <ele>107</ele>
        <time>2011-09-13T15:53:27Z</time>
      </trkpt>
      <trkpt lat="46.38024" lon="-0.25348">
        <ele>107</ele>
        <time>2011-09-13T15:53:32Z</time>
      </trkpt>
      <trkpt lat="46.38021" lon="-0.25356">
        <ele>107</ele>
        <time>2011-09-13T15:53:37Z</time>
      </trkpt>
      <trkpt lat="46.38017" lon="-0.25364">
        <ele>106</ele>
        <time>2011-09-13T15:53:42Z</time>
      </trkpt>
      <trkpt lat="46.38015" lon="-0.2537">
        <ele>102</ele>
        <time>2011-09-13T15:53:47Z</time>
      </trkpt>
      <trkpt lat="46.3801" lon="-0.25374">
        <ele>103</ele>
        <time>2011-09-13T15:53:52Z</time>
      </trkpt>
      <trkpt lat="46.38005" lon="-0.25378">
        <ele>103</ele>
        <time>2011-09-13T15:53:57Z</time>
      </trkpt>
      <trkpt lat="46.38001" lon="-0.25384">
        <ele>102</ele>
        <time>2011-09-13T15:54:02Z</time>
      </trkpt>
      <trkpt lat="46.37994" lon="-0.2539">
        <ele>101</ele>
        <time>2011-09-13T15:54:07Z</time>
      </trkpt>
      <trkpt lat="46.37989" lon="-0.25397">
        <ele>99</ele>
        <time>2011-09-13T15:54:12Z</time>
      </trkpt>
      <trkpt lat="46.37985" lon="-0.25402">
        <ele>98</ele>
        <time>2011-09-13T15:54:17Z</time>
      </trkpt>
      <trkpt lat="46.37981" lon="-0.25406">
        <ele>98</ele>
        <time>2011-09-13T15:54:22Z</time>
      </trkpt>
      <trkpt lat="46.37978" lon="-0.25413">
        <ele>98</ele>
        <time>2011-09-13T15:54:27Z</time>
      </trkpt>
      <trkpt lat="46.37974" lon="-0.25421">
        <ele>98</ele>
        <time>2011-09-13T15:54:32Z</time>
      </trkpt>
      <trkpt lat="46.3797" lon="-0.25427">
        <ele>98</ele>
        <time>2011-09-13T15:54:37Z</time>
      </trkpt>
      <trkpt lat="46.37967" lon="-0.25434">
        <ele>99</ele>
        <time>2011-09-13T15:54:42Z</time>
      </trkpt>
      <trkpt lat="46.37965" lon="-0.2544">
        <ele>98</ele>
        <time>2011-09-13T15:54:47Z</time>
      </trkpt>
      <trkpt lat="46.37961" lon="-0.25446">
        <ele>99</ele>
        <time>2011-09-13T15:54:52Z</time>
      </trkpt>
      <trkpt lat="46.37956" lon="-0.25453">
        <ele>99</ele>
        <time>2011-09-13T15:54:57Z</time>
      </trkpt>
      <trkpt lat="46.37953" lon="-0.25458">
        <ele>99</ele>
        <time>2011-09-13T15:55:02Z</time>
      </trkpt>
      <trkpt lat="46.3795" lon="-0.25467">
        <ele>99</ele>
        <time>2011-09-13T15:55:07Z</time>
      </trkpt>
      <trkpt lat="46.37948" lon="-0.25472">
        <ele>101</ele>
        <time>2011-09-13T15:55:12Z</time>
      </trkpt>
      <trkpt lat="46.37943" lon="-0.25479">
        <ele>101</ele>
        <time>2011-09-13T15:55:17Z</time>
      </trkpt>
      <trkpt lat="46.3794" lon="-0.25483">
        <ele>101</ele>
        <time>2011-09-13T15:55:22Z</time>
      </trkpt>
      <trkpt lat="46.37933" lon="-0.25492">
        <ele>101</ele>
        <time>2011-09-13T15:55:27Z</time>
      </trkpt>
      <trkpt lat="46.37928" lon="-0.25499">
        <ele>101</ele>
        <time>2011-09-13T15:55:32Z</time>
      </trkpt>
      <trkpt lat="46.37924" lon="-0.25501">
        <ele>102</ele>
        <time>2011-09-13T15:55:37Z</time>
      </trkpt>
      <trkpt lat="46.3792" lon="-0.25506">
        <ele>102</ele>
        <time>2011-09-13T15:55:42Z</time>
      </trkpt>
      <trkpt lat="46.37917" lon="-0.25512">
        <ele>103</ele>
        <time>2011-09-13T15:55:47Z</time>
      </trkpt>
      <trkpt lat="46.37914" lon="-0.2552">
        <ele>103</ele>
        <time>2011-09-13T15:55:52Z</time>
      </trkpt>
      <trkpt lat="46.37912" lon="-0.25528">
        <ele>102</ele>
        <time>2011-09-13T15:55:57Z</time>
      </trkpt>
      <trkpt lat="46.37906" lon="-0.25533">
        <ele>101</ele>
        <time>2011-09-13T15:56:02Z</time>
      </trkpt>
      <trkpt lat="46.37903" lon="-0.25541">
        <ele>100</ele>
        <time>2011-09-13T15:56:07Z</time>
      </trkpt>
      <trkpt lat="46.379" lon="-0.25547">
        <ele>100</ele>
        <time>2011-09-13T15:56:12Z</time>
      </trkpt>
      <trkpt lat="46.37898" lon="-0.25553">
        <ele>101</ele>
        <time>2011-09-13T15:56:17Z</time>
      </trkpt>
      <trkpt lat="46.37895" lon="-0.25563">
        <ele>102</ele>
        <time>2011-09-13T15:56:22Z</time>
      </trkpt>
      <trkpt lat="46.37892" lon="-0.25571">
        <ele>102</ele>
        <time>2011-09-13T15:56:27Z</time>
      </trkpt>
      <trkpt lat="46.37889" lon="-0.25576">
        <ele>103</ele>
        <time>2011-09-13T15:56:32Z</time>
      </trkpt>
      <trkpt lat="46.37889" lon="-0.25584">
        <ele>102</ele>
        <time>2011-09-13T15:56:37Z</time>
      </trkpt>
      <trkpt lat="46.37889" lon="-0.25591">
        <ele>102</ele>
        <time>2011-09-13T15:56:42Z</time>
      </trkpt>
      <trkpt lat="46.37886" lon="-0.256">
        <ele>103</ele>
        <time>2011-09-13T15:56:47Z</time>
      </trkpt>
      <trkpt lat="46.37887" lon="-0.25609">
        <ele>103</ele>
        <time>2011-09-13T15:56:52Z</time>
      </trkpt>
      <trkpt lat="46.37882" lon="-0.25614">
        <ele>103</ele>
        <time>2011-09-13T15:56:57Z</time>
      </trkpt>
      <trkpt lat="46.3788" lon="-0.25619">
        <ele>102</ele>
        <time>2011-09-13T15:57:02Z</time>
      </trkpt>
      <trkpt lat="46.37877" lon="-0.25627">
        <ele>103</ele>
        <time>2011-09-13T15:57:07Z</time>
      </trkpt>
      <trkpt lat="46.37873" lon="-0.25633">
        <ele>104</ele>
        <time>2011-09-13T15:57:12Z</time>
      </trkpt>
      <trkpt lat="46.3787" lon="-0.25639">
        <ele>105</ele>
        <time>2011-09-13T15:57:17Z</time>
      </trkpt>
      <trkpt lat="46.37862" lon="-0.25644">
        <ele>105</ele>
        <time>2011-09-13T15:57:22Z</time>
      </trkpt>
      <trkpt lat="46.3786" lon="-0.25649">
        <ele>105</ele>
        <time>2011-09-13T15:57:27Z</time>
      </trkpt>
      <trkpt lat="46.37857" lon="-0.2566">
        <ele>105</ele>
        <time>2011-09-13T15:57:32Z</time>
      </trkpt>
      <trkpt lat="46.37858" lon="-0.2567">
        <ele>105</ele>
        <time>2011-09-13T15:57:37Z</time>
      </trkpt>
      <trkpt lat="46.37859" lon="-0.25677">
        <ele>104</ele>
        <time>2011-09-13T15:57:42Z</time>
      </trkpt>
      <trkpt lat="46.37856" lon="-0.25684">
        <ele>103</ele>
        <time>2011-09-13T15:57:47Z</time>
      </trkpt>
      <trkpt lat="46.37854" lon="-0.25693">
        <ele>101</ele>
        <time>2011-09-13T15:57:52Z</time>
      </trkpt>
      <trkpt lat="46.37853" lon="-0.25699">
        <ele>98</ele>
        <time>2011-09-13T15:57:57Z</time>
      </trkpt>
      <trkpt lat="46.37851" lon="-0.25706">
        <ele>98</ele>
        <time>2011-09-13T15:58:02Z</time>
      </trkpt>
      <trkpt lat="46.37847" lon="-0.25715">
        <ele>99</ele>
        <time>2011-09-13T15:58:07Z</time>
      </trkpt>
      <trkpt lat="46.37843" lon="-0.25723">
        <ele>97</ele>
        <time>2011-09-13T15:58:12Z</time>
      </trkpt>
      <trkpt lat="46.37839" lon="-0.25728">
        <ele>96</ele>
        <time>2011-09-13T15:58:17Z</time>
      </trkpt>
      <trkpt lat="46.37833" lon="-0.25734">
        <ele>98</ele>
        <time>2011-09-13T15:58:22Z</time>
      </trkpt>
      <trkpt lat="46.37832" lon="-0.2574">
        <ele>97</ele>
        <time>2011-09-13T15:58:27Z</time>
      </trkpt>
      <trkpt lat="46.37829" lon="-0.25745">
        <ele>98</ele>
        <time>2011-09-13T15:58:32Z</time>
      </trkpt>
      <trkpt lat="46.37829" lon="-0.25751">
        <ele>99</ele>
        <time>2011-09-13T15:58:37Z</time>
      </trkpt>
      <trkpt lat="46.37827" lon="-0.25759">
        <ele>98</ele>
        <time>2011-09-13T15:58:42Z</time>
      </trkpt>
      <trkpt lat="46.37824" lon="-0.25765">
        <ele>102</ele>
        <time>2011-09-13T15:58:47Z</time>
      </trkpt>
      <trkpt lat="46.3782" lon="-0.25771">
        <ele>104</ele>
        <time>2011-09-13T15:58:52Z</time>
      </trkpt>
      <trkpt lat="46.37815" lon="-0.25776">
        <ele>102</ele>
        <time>2011-09-13T15:58:57Z</time>
      </trkpt>
      <trkpt lat="46.37809" lon="-0.25775">
        <ele>99</ele>
        <time>2011-09-13T15:59:02Z</time>
      </trkpt>
      <trkpt lat="46.37806" lon="-0.25773">
        <ele>98</ele>
        <time>2011-09-13T15:59:07Z</time>
      </trkpt>
      <trkpt lat="46.37803" lon="-0.25769">
        <ele>96</ele>
        <time>2011-09-13T15:59:12Z</time>
      </trkpt>
      <trkpt lat="46.37798" lon="-0.25764">
        <ele>95</ele>
        <time>2011-09-13T15:59:17Z</time>
      </trkpt>
      <trkpt lat="46.37794" lon="-0.25759">
        <ele>94</ele>
        <time>2011-09-13T15:59:22Z</time>
      </trkpt>
      <trkpt lat="46.37791" lon="-0.25752">
        <ele>97</ele>
        <time>2011-09-13T15:59:27Z</time>
      </trkpt>
      <trkpt lat="46.37789" lon="-0.25746">
        <ele>97</ele>
        <time>2011-09-13T15:59:32Z</time>
      </trkpt>
      <trkpt lat="46.37787" lon="-0.25741">
        <ele>98</ele>
        <time>2011-09-13T15:59:37Z</time>
      </trkpt>
      <trkpt lat="46.37787" lon="-0.25736">
        <ele>98</ele>
        <time>2011-09-13T15:59:42Z</time>
      </trkpt>
      <trkpt lat="46.37787" lon="-0.25728">
        <ele>98</ele>
        <time>2011-09-13T15:59:47Z</time>
      </trkpt>
      <trkpt lat="46.37781" lon="-0.25719">
        <ele>96</ele>
        <time>2011-09-13T15:59:52Z</time>
      </trkpt>
      <trkpt lat="46.37775" lon="-0.2571">
        <ele>95</ele>
        <time>2011-09-13T15:59:57Z</time>
      </trkpt>
      <trkpt lat="46.3777" lon="-0.25704">
        <ele>95</ele>
        <time>2011-09-13T16:00:02Z</time>
      </trkpt>
      <trkpt lat="46.37765" lon="-0.25699">
        <ele>93</ele>
        <time>2011-09-13T16:00:07Z</time>
      </trkpt>
      <trkpt lat="46.37758" lon="-0.25694">
        <ele>92</ele>
        <time>2011-09-13T16:00:12Z</time>
      </trkpt>
      <trkpt lat="46.37752" lon="-0.25691">
        <ele>91</ele>
        <time>2011-09-13T16:00:17Z</time>
      </trkpt>
      <trkpt lat="46.37748" lon="-0.25685">
        <ele>92</ele>
        <time>2011-09-13T16:00:22Z</time>
      </trkpt>
      <trkpt lat="46.37748" lon="-0.25685">
        <ele>92</ele>
        <time>2011-09-13T16:00:27Z</time>
      </trkpt>
      <trkpt lat="46.37743" lon="-0.25682">
        <ele>93</ele>
        <time>2011-09-13T16:00:32Z</time>
      </trkpt>
      <trkpt lat="46.37741" lon="-0.25679">
        <ele>94</ele>
        <time>2011-09-13T16:00:37Z</time>
      </trkpt>
      <trkpt lat="46.37737" lon="-0.25675">
        <ele>96</ele>
        <time>2011-09-13T16:00:42Z</time>
      </trkpt>
      <trkpt lat="46.3773" lon="-0.25672">
        <ele>98</ele>
        <time>2011-09-13T16:00:47Z</time>
      </trkpt>
      <trkpt lat="46.37731" lon="-0.25672">
        <ele>99</ele>
        <time>2011-09-13T16:00:52Z</time>
      </trkpt>
      <trkpt lat="46.37732" lon="-0.25672">
        <ele>100</ele>
        <time>2011-09-13T16:00:57Z</time>
      </trkpt>
      <trkpt lat="46.37737" lon="-0.25675">
        <ele>101</ele>
        <time>2011-09-13T16:01:02Z</time>
      </trkpt>
      <trkpt lat="46.37742" lon="-0.25676">
        <ele>101</ele>
        <time>2011-09-13T16:01:07Z</time>
      </trkpt>
      <trkpt lat="46.37746" lon="-0.25675">
        <ele>102</ele>
        <time>2011-09-13T16:01:12Z</time>
      </trkpt>
      <trkpt lat="46.37749" lon="-0.25668">
        <ele>102</ele>
        <time>2011-09-13T16:01:17Z</time>
      </trkpt>
      <trkpt lat="46.37753" lon="-0.2566">
        <ele>102</ele>
        <time>2011-09-13T16:01:22Z</time>
      </trkpt>
      <trkpt lat="46.37757" lon="-0.25655">
        <ele>102</ele>
        <time>2011-09-13T16:01:27Z</time>
      </trkpt>
      <trkpt lat="46.37761" lon="-0.25649">
        <ele>100</ele>
        <time>2011-09-13T16:01:32Z</time>
      </trkpt>
      <trkpt lat="46.37765" lon="-0.25644">
        <ele>100</ele>
        <time>2011-09-13T16:01:37Z</time>
      </trkpt>
      <trkpt lat="46.3777" lon="-0.25638">
        <ele>102</ele>
        <time>2011-09-13T16:01:42Z</time>
      </trkpt>
      <trkpt lat="46.37775" lon="-0.25633">
        <ele>102</ele>
        <time>2011-09-13T16:01:47Z</time>
      </trkpt>
      <trkpt lat="46.37779" lon="-0.25627">
        <ele>103</ele>
        <time>2011-09-13T16:01:52Z</time>
      </trkpt>
      <trkpt lat="46.37783" lon="-0.25622">
        <ele>100</ele>
        <time>2011-09-13T16:01:57Z</time>
      </trkpt>
      <trkpt lat="46.37787" lon="-0.25616">
        <ele>100</ele>
        <time>2011-09-13T16:02:02Z</time>
      </trkpt>
      <trkpt lat="46.37791" lon="-0.25609">
        <ele>99</ele>
        <time>2011-09-13T16:02:07Z</time>
      </trkpt>
      <trkpt lat="46.37793" lon="-0.25604">
        <ele>98</ele>
        <time>2011-09-13T16:02:12Z</time>
      </trkpt>
      <trkpt lat="46.37797" lon="-0.25597">
        <ele>98</ele>
        <time>2011-09-13T16:02:17Z</time>
      </trkpt>
      <trkpt lat="46.378" lon="-0.2559">
        <ele>98</ele>
        <time>2011-09-13T16:02:22Z</time>
      </trkpt>
      <trkpt lat="46.37803" lon="-0.25585">
        <ele>98</ele>
        <time>2011-09-13T16:02:27Z</time>
      </trkpt>
      <trkpt lat="46.37806" lon="-0.25578">
        <ele>98</ele>
        <time>2011-09-13T16:02:32Z</time>
      </trkpt>
      <trkpt lat="46.37811" lon="-0.25571">
        <ele>97</ele>
        <time>2011-09-13T16:02:37Z</time>
      </trkpt>
      <trkpt lat="46.37814" lon="-0.25566">
        <ele>98</ele>
        <time>2011-09-13T16:02:42Z</time>
      </trkpt>
      <trkpt lat="46.37816" lon="-0.25565">
        <ele>98</ele>
        <time>2011-09-13T16:02:47Z</time>
      </trkpt>
      <trkpt lat="46.37819" lon="-0.25567">
        <ele>98</ele>
        <time>2011-09-13T16:02:52Z</time>
      </trkpt>
      <trkpt lat="46.37822" lon="-0.25566">
        <ele>96</ele>
        <time>2011-09-13T16:02:57Z</time>
      </trkpt>
      <trkpt lat="46.37825" lon="-0.25571">
        <ele>99</ele>
        <time>2011-09-13T16:03:02Z</time>
      </trkpt>
      <trkpt lat="46.3783" lon="-0.25573">
        <ele>98</ele>
        <time>2011-09-13T16:03:07Z</time>
      </trkpt>
      <trkpt lat="46.3783" lon="-0.25578">
        <ele>101</ele>
        <time>2011-09-13T16:03:12Z</time>
      </trkpt>
      <trkpt lat="46.3783" lon="-0.25579">
        <ele>101</ele>
        <time>2011-09-13T16:03:17Z</time>
      </trkpt>
      <trkpt lat="46.3783" lon="-0.2558">
        <ele>101</ele>
        <time>2011-09-13T16:03:22Z</time>
      </trkpt>
      <trkpt lat="46.37829" lon="-0.2558">
        <ele>101</ele>
        <time>2011-09-13T16:03:27Z</time>
      </trkpt>
      <trkpt lat="46.37828" lon="-0.25576">
        <ele>101</ele>
        <time>2011-09-13T16:03:32Z</time>
      </trkpt>
      <trkpt lat="46.37832" lon="-0.25568">
        <ele>100</ele>
        <time>2011-09-13T16:03:37Z</time>
      </trkpt>
      <trkpt lat="46.37834" lon="-0.25568">
        <ele>100</ele>
        <time>2011-09-13T16:03:42Z</time>
      </trkpt>
      <trkpt lat="46.37836" lon="-0.25569">
        <ele>100</ele>
        <time>2011-09-13T16:03:47Z</time>
      </trkpt>
      <trkpt lat="46.3784" lon="-0.25572">
        <ele>100</ele>
        <time>2011-09-13T16:03:52Z</time>
      </trkpt>
      <trkpt lat="46.37847" lon="-0.25579">
        <ele>101</ele>
        <time>2011-09-13T16:03:57Z</time>
      </trkpt>
      <trkpt lat="46.37853" lon="-0.25582">
        <ele>100</ele>
        <time>2011-09-13T16:04:02Z</time>
      </trkpt>
      <trkpt lat="46.37857" lon="-0.25582">
        <ele>99</ele>
        <time>2011-09-13T16:04:07Z</time>
      </trkpt>
      <trkpt lat="46.37862" lon="-0.25578">
        <ele>98</ele>
        <time>2011-09-13T16:04:12Z</time>
      </trkpt>
      <trkpt lat="46.37858" lon="-0.2558">
        <ele>97</ele>
        <time>2011-09-13T16:04:17Z</time>
      </trkpt>
      <trkpt lat="46.37857" lon="-0.2558">
        <ele>97</ele>
        <time>2011-09-13T16:04:22Z</time>
      </trkpt>
      <trkpt lat="46.37857" lon="-0.2558">
        <ele>96</ele>
        <time>2011-09-13T16:04:32Z</time>
      </trkpt>
      <trkpt lat="46.37857" lon="-0.25581">
        <ele>96</ele>
        <time>2011-09-13T16:04:42Z</time>
      </trkpt>
      <trkpt lat="46.37857" lon="-0.2558">
        <ele>96</ele>
        <time>2011-09-13T16:04:47Z</time>
      </trkpt>
      <trkpt lat="46.37857" lon="-0.25581">
        <ele>96</ele>
        <time>2011-09-13T16:05:02Z</time>
      </trkpt>
      <trkpt lat="46.37857" lon="-0.2558">
        <ele>96</ele>
        <time>2011-09-13T16:05:07Z</time>
      </trkpt>
      <trkpt lat="46.37857" lon="-0.25581">
        <ele>96</ele>
        <time>2011-09-13T16:05:12Z</time>
      </trkpt>
      <trkpt lat="46.37857" lon="-0.2558">
        <ele>96</ele>
        <time>2011-09-13T16:05:22Z</time>
      </trkpt>
      <trkpt lat="46.37846" lon="-0.25573">
        <ele>97</ele>
        <time>2011-09-13T16:05:27Z</time>
      </trkpt>
      <trkpt lat="46.37848" lon="-0.25568">
        <ele>93</ele>
        <time>2011-09-13T16:05:32Z</time>
      </trkpt>
      <trkpt lat="46.37851" lon="-0.25568">
        <ele>93</ele>
        <time>2011-09-13T16:05:42Z</time>
      </trkpt>
      <trkpt lat="46.37848" lon="-0.25569">
        <ele>94</ele>
        <time>2011-09-13T16:05:47Z</time>
      </trkpt>
      <trkpt lat="46.37847" lon="-0.2557">
        <ele>97</ele>
        <time>2011-09-13T16:05:52Z</time>
      </trkpt>
      <trkpt lat="46.37846" lon="-0.25569">
        <ele>96</ele>
        <time>2011-09-13T16:05:57Z</time>
      </trkpt>
      <trkpt lat="46.37846" lon="-0.25569">
        <ele>96</ele>
        <time>2011-09-13T16:06:02Z</time>
      </trkpt>
      <trkpt lat="46.37845" lon="-0.2557">
        <ele>95</ele>
        <time>2011-09-13T16:06:07Z</time>
      </trkpt>
      <trkpt lat="46.37845" lon="-0.25571">
        <ele>95</ele>
        <time>2011-09-13T16:06:22Z</time>
      </trkpt>
      <trkpt lat="46.37842" lon="-0.2557">
        <ele>94</ele>
        <time>2011-09-13T16:06:27Z</time>
      </trkpt>
      <trkpt lat="46.37841" lon="-0.2557">
        <ele>95</ele>
        <time>2011-09-13T16:06:32Z</time>
      </trkpt>
      <trkpt lat="46.37841" lon="-0.25569">
        <ele>95</ele>
        <time>2011-09-13T16:06:42Z</time>
      </trkpt>
      <trkpt lat="46.37841" lon="-0.25571">
        <ele>97</ele>
        <time>2011-09-13T16:06:47Z</time>
      </trkpt>
      <trkpt lat="46.37841" lon="-0.25571">
        <ele>96</ele>
        <time>2011-09-13T16:07:27Z</time>
      </trkpt>
      <trkpt lat="46.37839" lon="-0.25567">
        <ele>95</ele>
        <time>2011-09-13T16:07:32Z</time>
      </trkpt>
      <trkpt lat="46.3784" lon="-0.25564">
        <ele>97</ele>
        <time>2011-09-13T16:07:37Z</time>
      </trkpt>
      <trkpt lat="46.37841" lon="-0.25564">
        <ele>99</ele>
        <time>2011-09-13T16:07:42Z</time>
      </trkpt>
      <trkpt lat="46.3784" lon="-0.25564">
        <ele>99</ele>
        <time>2011-09-13T16:07:47Z</time>
      </trkpt>
      <trkpt lat="46.37841" lon="-0.25564">
        <ele>99</ele>
        <time>2011-09-13T16:08:17Z</time>
      </trkpt>
      <trkpt lat="46.37841" lon="-0.25566">
        <ele>99</ele>
        <time>2011-09-13T16:08:27Z</time>
      </trkpt>
      <trkpt lat="46.37841" lon="-0.25566">
        <ele>100</ele>
        <time>2011-09-13T16:08:32Z</time>
      </trkpt>
      <trkpt lat="46.37841" lon="-0.25567">
        <ele>99</ele>
        <time>2011-09-13T16:08:37Z</time>
      </trkpt>
      <trkpt lat="46.3784" lon="-0.25569">
        <ele>99</ele>
        <time>2011-09-13T16:08:57Z</time>
      </trkpt>
      <trkpt lat="46.37841" lon="-0.2557">
        <ele>100</ele>
        <time>2011-09-13T16:09:02Z</time>
      </trkpt>
      <trkpt lat="46.37841" lon="-0.25571">
        <ele>100</ele>
        <time>2011-09-13T16:09:07Z</time>
      </trkpt>
      <trkpt lat="46.37841" lon="-0.2557">
        <ele>100</ele>
        <time>2011-09-13T16:09:27Z</time>
      </trkpt>
      <trkpt lat="46.37841" lon="-0.25572">
        <ele>101</ele>
        <time>2011-09-13T16:09:42Z</time>
      </trkpt>
      <trkpt lat="46.37841" lon="-0.25571">
        <ele>102</ele>
        <time>2011-09-13T16:09:47Z</time>
      </trkpt>
      <trkpt lat="46.37841" lon="-0.25572">
        <ele>102</ele>
        <time>2011-09-13T16:09:52Z</time>
      </trkpt>
      <trkpt lat="46.37841" lon="-0.25572">
        <ele>102</ele>
        <time>2011-09-13T16:09:57Z</time>
      </trkpt>
      <trkpt lat="46.37839" lon="-0.25573">
        <ele>101</ele>
        <time>2011-09-13T16:10:37Z</time>
      </trkpt>
      <trkpt lat="46.3784" lon="-0.25574">
        <ele>101</ele>
        <time>2011-09-13T16:10:42Z</time>
      </trkpt>
      <trkpt lat="46.3784" lon="-0.25574">
        <ele>100</ele>
        <time>2011-09-13T16:10:47Z</time>
      </trkpt>
      <trkpt lat="46.3784" lon="-0.25575">
        <ele>100</ele>
        <time>2011-09-13T16:10:52Z</time>
      </trkpt>
      <trkpt lat="46.3784" lon="-0.25574">
        <ele>100</ele>
        <time>2011-09-13T16:11:02Z</time>
      </trkpt>
      <trkpt lat="46.3784" lon="-0.25575">
        <ele>100</ele>
        <time>2011-09-13T16:11:12Z</time>
      </trkpt>
      <trkpt lat="46.3784" lon="-0.25574">
        <ele>100</ele>
        <time>2011-09-13T16:12:57Z</time>
      </trkpt>
      <trkpt lat="46.3784" lon="-0.25575">
        <ele>101</ele>
        <time>2011-09-13T16:13:47Z</time>
      </trkpt>
      <trkpt lat="46.3784" lon="-0.25575">
        <ele>100</ele>
        <time>2011-09-13T16:16:52Z</time>
      </trkpt>
      <trkpt lat="46.37841" lon="-0.25575">
        <ele>100</ele>
        <time>2011-09-13T16:19:07Z</time>
      </trkpt>
      <trkpt lat="46.3784" lon="-0.25575">
        <ele>100</ele>
        <time>2011-09-13T16:19:27Z</time>
      </trkpt>
      <trkpt lat="46.37841" lon="-0.25575">
        <ele>100</ele>
        <time>2011-09-13T16:19:37Z</time>
      </trkpt>
      <trkpt lat="46.37839" lon="-0.25575">
        <ele>102</ele>
        <time>2011-09-13T16:22:42Z</time>
      </trkpt>
      <trkpt lat="46.37839" lon="-0.25576">
        <ele>102</ele>
        <time>2011-09-13T16:22:47Z</time>
      </trkpt>
      <trkpt lat="46.37839" lon="-0.25575">
        <ele>101</ele>
        <time>2011-09-13T16:22:52Z</time>
      </trkpt>
      <trkpt lat="46.37837" lon="-0.25576">
        <ele>102</ele>
        <time>2011-09-13T16:23:17Z</time>
      </trkpt>
      <trkpt lat="46.37836" lon="-0.25578">
        <ele>101</ele>
        <time>2011-09-13T16:23:22Z</time>
      </trkpt>
      <trkpt lat="46.37836" lon="-0.25578">
        <ele>101</ele>
        <time>2011-09-13T16:23:27Z</time>
      </trkpt>
      <trkpt lat="46.37836" lon="-0.25578">
        <ele>100</ele>
        <time>2011-09-13T16:23:32Z</time>
      </trkpt>
      <trkpt lat="46.37836" lon="-0.25576">
        <ele>102</ele>
        <time>2011-09-13T16:23:37Z</time>
      </trkpt>
      <trkpt lat="46.37836" lon="-0.25577">
        <ele>101</ele>
        <time>2011-09-13T16:23:42Z</time>
      </trkpt>
      <trkpt lat="46.37836" lon="-0.25578">
        <ele>102</ele>
        <time>2011-09-13T16:23:47Z</time>
      </trkpt>
      <trkpt lat="46.37837" lon="-0.25578">
        <ele>102</ele>
        <time>2011-09-13T16:27:12Z</time>
      </trkpt>
      <trkpt lat="46.37837" lon="-0.25577">
        <ele>102</ele>
        <time>2011-09-13T16:34:22Z</time>
      </trkpt>
      <trkpt lat="46.37837" lon="-0.25577">
        <ele>102</ele>
        <time>2011-09-13T16:35:22Z</time>
      </trkpt>
      <trkpt lat="46.37837" lon="-0.25578">
        <ele>103</ele>
        <time>2011-09-13T16:36:37Z</time>
      </trkpt>
      <trkpt lat="46.37839" lon="-0.25574">
        <ele>102</ele>
        <time>2011-09-13T16:36:42Z</time>
      </trkpt>
      <trkpt lat="46.37839" lon="-0.25574">
        <ele>102</ele>
        <time>2011-09-13T16:36:47Z</time>
      </trkpt>
      <trkpt lat="46.37839" lon="-0.25574">
        <ele>102</ele>
        <time>2011-09-13T16:36:52Z</time>
      </trkpt>
      <trkpt lat="46.37838" lon="-0.25575">
        <ele>102</ele>
        <time>2011-09-13T16:36:57Z</time>
      </trkpt>
      <trkpt lat="46.37837" lon="-0.25576">
        <ele>102</ele>
        <time>2011-09-13T16:37:02Z</time>
      </trkpt>
      <trkpt lat="46.37837" lon="-0.25576">
        <ele>103</ele>
        <time>2011-09-13T16:37:07Z</time>
      </trkpt>
      <trkpt lat="46.37838" lon="-0.2557">
        <ele>102</ele>
        <time>2011-09-13T16:37:12Z</time>
      </trkpt>
      <trkpt lat="46.37838" lon="-0.25571">
        <ele>102</ele>
        <time>2011-09-13T16:37:27Z</time>
      </trkpt>
      <trkpt lat="46.37839" lon="-0.25571">
        <ele>102</ele>
        <time>2011-09-13T16:38:07Z</time>
      </trkpt>
      <trkpt lat="46.37838" lon="-0.25571">
        <ele>102</ele>
        <time>2011-09-13T16:38:12Z</time>
      </trkpt>
      <trkpt lat="46.37839" lon="-0.25572">
        <ele>103</ele>
        <time>2011-09-13T16:38:17Z</time>
      </trkpt>
      <trkpt lat="46.37839" lon="-0.25571">
        <ele>103</ele>
        <time>2011-09-13T16:38:32Z</time>
      </trkpt>
      <trkpt lat="46.37839" lon="-0.25573">
        <ele>102</ele>
        <time>2011-09-13T16:38:47Z</time>
      </trkpt>
      <trkpt lat="46.37839" lon="-0.25569">
        <ele>100</ele>
        <time>2011-09-13T16:38:52Z</time>
      </trkpt>
      <trkpt lat="46.37838" lon="-0.25567">
        <ele>101</ele>
        <time>2011-09-13T16:38:57Z</time>
      </trkpt>
      <trkpt lat="46.37838" lon="-0.25566">
        <ele>101</ele>
        <time>2011-09-13T16:39:02Z</time>
      </trkpt>
      <trkpt lat="46.37837" lon="-0.25566">
        <ele>101</ele>
        <time>2011-09-13T16:39:07Z</time>
      </trkpt>
      <trkpt lat="46.37835" lon="-0.25564">
        <ele>100</ele>
        <time>2011-09-13T16:39:17Z</time>
      </trkpt>
      <trkpt lat="46.37831" lon="-0.25561">
        <ele>99</ele>
        <time>2011-09-13T16:39:22Z</time>
      </trkpt>
      <trkpt lat="46.37827" lon="-0.25562">
        <ele>97</ele>
        <time>2011-09-13T16:39:27Z</time>
      </trkpt>
      <trkpt lat="46.37825" lon="-0.25563">
        <ele>99</ele>
        <time>2011-09-13T16:39:32Z</time>
      </trkpt>
      <trkpt lat="46.37822" lon="-0.25563">
        <ele>99</ele>
        <time>2011-09-13T16:39:37Z</time>
      </trkpt>
      <trkpt lat="46.3782" lon="-0.25564">
        <ele>99</ele>
        <time>2011-09-13T16:39:42Z</time>
      </trkpt>
      <trkpt lat="46.3782" lon="-0.25563">
        <ele>99</ele>
        <time>2011-09-13T16:39:57Z</time>
      </trkpt>
      <trkpt lat="46.3782" lon="-0.25563">
        <ele>99</ele>
        <time>2011-09-13T16:40:02Z</time>
      </trkpt>
      <trkpt lat="46.3782" lon="-0.25563">
        <ele>100</ele>
        <time>2011-09-13T16:40:07Z</time>
      </trkpt>
      <trkpt lat="46.37819" lon="-0.25563">
        <ele>99</ele>
        <time>2011-09-13T16:40:12Z</time>
      </trkpt>
      <trkpt lat="46.37816" lon="-0.25566">
        <ele>99</ele>
        <time>2011-09-13T16:40:17Z</time>
      </trkpt>
      <trkpt lat="46.37814" lon="-0.25569">
        <ele>100</ele>
        <time>2011-09-13T16:40:22Z</time>
      </trkpt>
      <trkpt lat="46.37811" lon="-0.25573">
        <ele>100</ele>
        <time>2011-09-13T16:40:27Z</time>
      </trkpt>
      <trkpt lat="46.37809" lon="-0.25579">
        <ele>97</ele>
        <time>2011-09-13T16:40:32Z</time>
      </trkpt>
      <trkpt lat="46.37806" lon="-0.25584">
        <ele>98</ele>
        <time>2011-09-13T16:40:37Z</time>
      </trkpt>
      <trkpt lat="46.378" lon="-0.25589">
        <ele>102</ele>
        <time>2011-09-13T16:40:42Z</time>
      </trkpt>
      <trkpt lat="46.37797" lon="-0.25595">
        <ele>100</ele>
        <time>2011-09-13T16:40:47Z</time>
      </trkpt>
      <trkpt lat="46.37793" lon="-0.25601">
        <ele>99</ele>
        <time>2011-09-13T16:40:52Z</time>
      </trkpt>
      <trkpt lat="46.3779" lon="-0.25608">
        <ele>99</ele>
        <time>2011-09-13T16:40:57Z</time>
      </trkpt>
      <trkpt lat="46.37787" lon="-0.25611">
        <ele>100</ele>
        <time>2011-09-13T16:41:02Z</time>
      </trkpt>
      <trkpt lat="46.37783" lon="-0.25617">
        <ele>100</ele>
        <time>2011-09-13T16:41:07Z</time>
      </trkpt>
      <trkpt lat="46.37779" lon="-0.25622">
        <ele>100</ele>
        <time>2011-09-13T16:41:12Z</time>
      </trkpt>
      <trkpt lat="46.37776" lon="-0.25629">
        <ele>99</ele>
        <time>2011-09-13T16:41:17Z</time>
      </trkpt>
      <trkpt lat="46.37772" lon="-0.25634">
        <ele>98</ele>
        <time>2011-09-13T16:41:22Z</time>
      </trkpt>
      <trkpt lat="46.37768" lon="-0.25638">
        <ele>100</ele>
        <time>2011-09-13T16:41:27Z</time>
      </trkpt>
      <trkpt lat="46.37765" lon="-0.25644">
        <ele>98</ele>
        <time>2011-09-13T16:41:32Z</time>
      </trkpt>
      <trkpt lat="46.37761" lon="-0.25649">
        <ele>98</ele>
        <time>2011-09-13T16:41:37Z</time>
      </trkpt>
      <trkpt lat="46.37758" lon="-0.25657">
        <ele>97</ele>
        <time>2011-09-13T16:41:42Z</time>
      </trkpt>
      <trkpt lat="46.37755" lon="-0.25664">
        <ele>97</ele>
        <time>2011-09-13T16:41:47Z</time>
      </trkpt>
      <trkpt lat="46.37751" lon="-0.2567">
        <ele>96</ele>
        <time>2011-09-13T16:41:52Z</time>
      </trkpt>
      <trkpt lat="46.37746" lon="-0.25674">
        <ele>96</ele>
        <time>2011-09-13T16:41:57Z</time>
      </trkpt>
      <trkpt lat="46.37742" lon="-0.25678">
        <ele>97</ele>
        <time>2011-09-13T16:42:02Z</time>
      </trkpt>
      <trkpt lat="46.37731" lon="-0.25676">
        <ele>99</ele>
        <time>2011-09-13T16:42:07Z</time>
      </trkpt>
      <trkpt lat="46.37729" lon="-0.25677">
        <ele>98</ele>
        <time>2011-09-13T16:42:12Z</time>
      </trkpt>
      <trkpt lat="46.37722" lon="-0.25677">
        <ele>98</ele>
        <time>2011-09-13T16:42:17Z</time>
      </trkpt>
      <trkpt lat="46.37716" lon="-0.25671">
        <ele>99</ele>
        <time>2011-09-13T16:42:22Z</time>
      </trkpt>
      <trkpt lat="46.37714" lon="-0.25663">
        <ele>100</ele>
        <time>2011-09-13T16:42:27Z</time>
      </trkpt>
      <trkpt lat="46.37711" lon="-0.25658">
        <ele>101</ele>
        <time>2011-09-13T16:42:32Z</time>
      </trkpt>
      <trkpt lat="46.37707" lon="-0.25654">
        <ele>100</ele>
        <time>2011-09-13T16:42:37Z</time>
      </trkpt>
      <trkpt lat="46.37703" lon="-0.25648">
        <ele>102</ele>
        <time>2011-09-13T16:42:42Z</time>
      </trkpt>
      <trkpt lat="46.37699" lon="-0.25642">
        <ele>102</ele>
        <time>2011-09-13T16:42:47Z</time>
      </trkpt>
      <trkpt lat="46.37694" lon="-0.25639">
        <ele>102</ele>
        <time>2011-09-13T16:42:52Z</time>
      </trkpt>
      <trkpt lat="46.37694" lon="-0.25633">
        <ele>100</ele>
        <time>2011-09-13T16:42:57Z</time>
      </trkpt>
      <trkpt lat="46.37692" lon="-0.2563">
        <ele>100</ele>
        <time>2011-09-13T16:43:02Z</time>
      </trkpt>
      <trkpt lat="46.37687" lon="-0.25626">
        <ele>103</ele>
        <time>2011-09-13T16:43:07Z</time>
      </trkpt>
      <trkpt lat="46.37686" lon="-0.25624">
        <ele>102</ele>
        <time>2011-09-13T16:43:12Z</time>
      </trkpt>
      <trkpt lat="46.37685" lon="-0.25618">
        <ele>101</ele>
        <time>2011-09-13T16:43:17Z</time>
      </trkpt>
      <trkpt lat="46.37684" lon="-0.25613">
        <ele>102</ele>
        <time>2011-09-13T16:43:22Z</time>
      </trkpt>
      <trkpt lat="46.37682" lon="-0.25608">
        <ele>102</ele>
        <time>2011-09-13T16:43:27Z</time>
      </trkpt>
      <trkpt lat="46.37676" lon="-0.25598">
        <ele>101</ele>
        <time>2011-09-13T16:43:32Z</time>
      </trkpt>
      <trkpt lat="46.37671" lon="-0.25596">
        <ele>101</ele>
        <time>2011-09-13T16:43:37Z</time>
      </trkpt>
      <trkpt lat="46.37662" lon="-0.25592">
        <ele>103</ele>
        <time>2011-09-13T16:43:42Z</time>
      </trkpt>
      <trkpt lat="46.37661" lon="-0.25585">
        <ele>103</ele>
        <time>2011-09-13T16:43:47Z</time>
      </trkpt>
      <trkpt lat="46.37656" lon="-0.25582">
        <ele>103</ele>
        <time>2011-09-13T16:43:52Z</time>
      </trkpt>
      <trkpt lat="46.3765" lon="-0.25579">
        <ele>106</ele>
        <time>2011-09-13T16:43:57Z</time>
      </trkpt>
      <trkpt lat="46.3764" lon="-0.2558">
        <ele>106</ele>
        <time>2011-09-13T16:44:02Z</time>
      </trkpt>
      <trkpt lat="46.37633" lon="-0.2558">
        <ele>106</ele>
        <time>2011-09-13T16:44:07Z</time>
      </trkpt>
      <trkpt lat="46.37625" lon="-0.2558">
        <ele>109</ele>
        <time>2011-09-13T16:44:12Z</time>
      </trkpt>
      <trkpt lat="46.37618" lon="-0.2558">
        <ele>110</ele>
        <time>2011-09-13T16:44:17Z</time>
      </trkpt>
      <trkpt lat="46.37613" lon="-0.25579">
        <ele>110</ele>
        <time>2011-09-13T16:44:22Z</time>
      </trkpt>
      <trkpt lat="46.3761" lon="-0.25579">
        <ele>113</ele>
        <time>2011-09-13T16:44:27Z</time>
      </trkpt>
      <trkpt lat="46.37605" lon="-0.25579">
        <ele>115</ele>
        <time>2011-09-13T16:44:32Z</time>
      </trkpt>
      <trkpt lat="46.37605" lon="-0.25578">
        <ele>114</ele>
        <time>2011-09-13T16:44:37Z</time>
      </trkpt>
      <trkpt lat="46.37604" lon="-0.25581">
        <ele>114</ele>
        <time>2011-09-13T16:44:42Z</time>
      </trkpt>
      <trkpt lat="46.37598" lon="-0.25584">
        <ele>113</ele>
        <time>2011-09-13T16:44:47Z</time>
      </trkpt>
      <trkpt lat="46.37595" lon="-0.25588">
        <ele>113</ele>
        <time>2011-09-13T16:44:52Z</time>
      </trkpt>
      <trkpt lat="46.37585" lon="-0.25593">
        <ele>113</ele>
        <time>2011-09-13T16:44:57Z</time>
      </trkpt>
      <trkpt lat="46.37618" lon="-0.25596">
        <ele>105</ele>
        <time>2011-09-13T16:45:02Z</time>
      </trkpt>
      <trkpt lat="46.37619" lon="-0.25599">
        <ele>98</ele>
        <time>2011-09-13T16:45:07Z</time>
      </trkpt>
      <trkpt lat="46.37586" lon="-0.25606">
        <ele>101</ele>
        <time>2011-09-13T16:45:12Z</time>
      </trkpt>
      <trkpt lat="46.37576" lon="-0.2561">
        <ele>103</ele>
        <time>2011-09-13T16:45:17Z</time>
      </trkpt>
      <trkpt lat="46.37568" lon="-0.25615">
        <ele>103</ele>
        <time>2011-09-13T16:45:22Z</time>
      </trkpt>
      <trkpt lat="46.37564" lon="-0.25618">
        <ele>103</ele>
        <time>2011-09-13T16:45:27Z</time>
      </trkpt>
      <trkpt lat="46.37561" lon="-0.25619">
        <ele>104</ele>
        <time>2011-09-13T16:45:32Z</time>
      </trkpt>
      <trkpt lat="46.37555" lon="-0.25622">
        <ele>107</ele>
        <time>2011-09-13T16:45:37Z</time>
      </trkpt>
      <trkpt lat="46.37551" lon="-0.25627">
        <ele>106</ele>
        <time>2011-09-13T16:45:42Z</time>
      </trkpt>
      <trkpt lat="46.37542" lon="-0.25632">
        <ele>106</ele>
        <time>2011-09-13T16:45:47Z</time>
      </trkpt>
      <trkpt lat="46.37536" lon="-0.25635">
        <ele>108</ele>
        <time>2011-09-13T16:45:52Z</time>
      </trkpt>
      <trkpt lat="46.37531" lon="-0.2564">
        <ele>108</ele>
        <time>2011-09-13T16:45:57Z</time>
      </trkpt>
      <trkpt lat="46.37523" lon="-0.25645">
        <ele>110</ele>
        <time>2011-09-13T16:46:02Z</time>
      </trkpt>
      <trkpt lat="46.37518" lon="-0.25647">
        <ele>110</ele>
        <time>2011-09-13T16:46:07Z</time>
      </trkpt>
      <trkpt lat="46.37514" lon="-0.2565">
        <ele>111</ele>
        <time>2011-09-13T16:46:12Z</time>
      </trkpt>
      <trkpt lat="46.37511" lon="-0.2565">
        <ele>112</ele>
        <time>2011-09-13T16:46:17Z</time>
      </trkpt>
      <trkpt lat="46.37507" lon="-0.25653">
        <ele>113</ele>
        <time>2011-09-13T16:46:22Z</time>
      </trkpt>
      <trkpt lat="46.37506" lon="-0.25654">
        <ele>115</ele>
        <time>2011-09-13T16:46:27Z</time>
      </trkpt>
      <trkpt lat="46.37506" lon="-0.25655">
        <ele>116</ele>
        <time>2011-09-13T16:46:32Z</time>
      </trkpt>
      <trkpt lat="46.37505" lon="-0.25655">
        <ele>116</ele>
        <time>2011-09-13T16:46:37Z</time>
      </trkpt>
      <trkpt lat="46.37496" lon="-0.25668">
        <ele>116</ele>
        <time>2011-09-13T16:46:42Z</time>
      </trkpt>
      <trkpt lat="46.37491" lon="-0.25678">
        <ele>116</ele>
        <time>2011-09-13T16:46:47Z</time>
      </trkpt>
      <trkpt lat="46.37488" lon="-0.25683">
        <ele>119</ele>
        <time>2011-09-13T16:46:52Z</time>
      </trkpt>
      <trkpt lat="46.37483" lon="-0.25691">
        <ele>120</ele>
        <time>2011-09-13T16:46:57Z</time>
      </trkpt>
      <trkpt lat="46.37466" lon="-0.257">
        <ele>125</ele>
        <time>2011-09-13T16:47:02Z</time>
      </trkpt>
      <trkpt lat="46.37464" lon="-0.25705">
        <ele>127</ele>
        <time>2011-09-13T16:47:07Z</time>
      </trkpt>
      <trkpt lat="46.37461" lon="-0.2571">
        <ele>128</ele>
        <time>2011-09-13T16:47:12Z</time>
      </trkpt>
      <trkpt lat="46.37458" lon="-0.25717">
        <ele>127</ele>
        <time>2011-09-13T16:47:17Z</time>
      </trkpt>
      <trkpt lat="46.37455" lon="-0.25723">
        <ele>128</ele>
        <time>2011-09-13T16:47:22Z</time>
      </trkpt>
      <trkpt lat="46.37448" lon="-0.25732">
        <ele>127</ele>
        <time>2011-09-13T16:47:27Z</time>
      </trkpt>
      <trkpt lat="46.37446" lon="-0.25738">
        <ele>124</ele>
        <time>2011-09-13T16:47:32Z</time>
      </trkpt>
      <trkpt lat="46.37446" lon="-0.25745">
        <ele>124</ele>
        <time>2011-09-13T16:47:37Z</time>
      </trkpt>
      <trkpt lat="46.3744" lon="-0.2575">
        <ele>124</ele>
        <time>2011-09-13T16:47:42Z</time>
      </trkpt>
      <trkpt lat="46.37437" lon="-0.25757">
        <ele>124</ele>
        <time>2011-09-13T16:47:47Z</time>
      </trkpt>
      <trkpt lat="46.37434" lon="-0.25763">
        <ele>124</ele>
        <time>2011-09-13T16:47:52Z</time>
      </trkpt>
      <trkpt lat="46.37431" lon="-0.25769">
        <ele>124</ele>
        <time>2011-09-13T16:47:57Z</time>
      </trkpt>
      <trkpt lat="46.37427" lon="-0.25775">
        <ele>126</ele>
        <time>2011-09-13T16:48:02Z</time>
      </trkpt>
      <trkpt lat="46.37421" lon="-0.25781">
        <ele>126</ele>
        <time>2011-09-13T16:48:07Z</time>
      </trkpt>
      <trkpt lat="46.37415" lon="-0.25787">
        <ele>126</ele>
        <time>2011-09-13T16:48:12Z</time>
      </trkpt>
      <trkpt lat="46.37412" lon="-0.25793">
        <ele>125</ele>
        <time>2011-09-13T16:48:17Z</time>
      </trkpt>
      <trkpt lat="46.37408" lon="-0.25797">
        <ele>126</ele>
        <time>2011-09-13T16:48:22Z</time>
      </trkpt>
      <trkpt lat="46.37404" lon="-0.25803">
        <ele>127</ele>
        <time>2011-09-13T16:48:27Z</time>
      </trkpt>
      <trkpt lat="46.37399" lon="-0.25806">
        <ele>127</ele>
        <time>2011-09-13T16:48:32Z</time>
      </trkpt>
      <trkpt lat="46.37393" lon="-0.2581">
        <ele>129</ele>
        <time>2011-09-13T16:48:37Z</time>
      </trkpt>
      <trkpt lat="46.37388" lon="-0.25813">
        <ele>128</ele>
        <time>2011-09-13T16:48:42Z</time>
      </trkpt>
      <trkpt lat="46.37381" lon="-0.25815">
        <ele>129</ele>
        <time>2011-09-13T16:48:47Z</time>
      </trkpt>
      <trkpt lat="46.37373" lon="-0.25817">
        <ele>129</ele>
        <time>2011-09-13T16:48:52Z</time>
      </trkpt>
      <trkpt lat="46.37367" lon="-0.25818">
        <ele>132</ele>
        <time>2011-09-13T16:48:57Z</time>
      </trkpt>
      <trkpt lat="46.37364" lon="-0.25826">
        <ele>135</ele>
        <time>2011-09-13T16:49:02Z</time>
      </trkpt>
      <trkpt lat="46.37359" lon="-0.25831">
        <ele>137</ele>
        <time>2011-09-13T16:49:07Z</time>
      </trkpt>
      <trkpt lat="46.37353" lon="-0.25838">
        <ele>134</ele>
        <time>2011-09-13T16:49:12Z</time>
      </trkpt>
      <trkpt lat="46.37348" lon="-0.25844">
        <ele>134</ele>
        <time>2011-09-13T16:49:17Z</time>
      </trkpt>
      <trkpt lat="46.37346" lon="-0.25848">
        <ele>134</ele>
        <time>2011-09-13T16:49:22Z</time>
      </trkpt>
      <trkpt lat="46.37346" lon="-0.25859">
        <ele>132</ele>
        <time>2011-09-13T16:49:27Z</time>
      </trkpt>
      <trkpt lat="46.3734" lon="-0.25868">
        <ele>133</ele>
        <time>2011-09-13T16:49:32Z</time>
      </trkpt>
      <trkpt lat="46.3734" lon="-0.25877">
        <ele>134</ele>
        <time>2011-09-13T16:49:37Z</time>
      </trkpt>
      <trkpt lat="46.37362" lon="-0.2588">
        <ele>128</ele>
        <time>2011-09-13T16:49:42Z</time>
      </trkpt>
      <trkpt lat="46.37356" lon="-0.25885">
        <ele>129</ele>
        <time>2011-09-13T16:49:47Z</time>
      </trkpt>
      <trkpt lat="46.37348" lon="-0.25891">
        <ele>134</ele>
        <time>2011-09-13T16:49:52Z</time>
      </trkpt>
      <trkpt lat="46.37341" lon="-0.2589">
        <ele>136</ele>
        <time>2011-09-13T16:49:57Z</time>
      </trkpt>
      <trkpt lat="46.3733" lon="-0.25891">
        <ele>136</ele>
        <time>2011-09-13T16:50:02Z</time>
      </trkpt>
      <trkpt lat="46.37323" lon="-0.25892">
        <ele>136</ele>
        <time>2011-09-13T16:50:07Z</time>
      </trkpt>
      <trkpt lat="46.37318" lon="-0.25892">
        <ele>136</ele>
        <time>2011-09-13T16:50:12Z</time>
      </trkpt>
      <trkpt lat="46.37314" lon="-0.25887">
        <ele>136</ele>
        <time>2011-09-13T16:50:17Z</time>
      </trkpt>
      <trkpt lat="46.37311" lon="-0.25885">
        <ele>137</ele>
        <time>2011-09-13T16:50:22Z</time>
      </trkpt>
      <trkpt lat="46.37303" lon="-0.25898">
        <ele>139</ele>
        <time>2011-09-13T16:50:27Z</time>
      </trkpt>
      <trkpt lat="46.373" lon="-0.25904">
        <ele>137</ele>
        <time>2011-09-13T16:50:32Z</time>
      </trkpt>
      <trkpt lat="46.37297" lon="-0.25912">
        <ele>138</ele>
        <time>2011-09-13T16:50:37Z</time>
      </trkpt>
      <trkpt lat="46.37292" lon="-0.25919">
        <ele>138</ele>
        <time>2011-09-13T16:50:42Z</time>
      </trkpt>
      <trkpt lat="46.37286" lon="-0.25925">
        <ele>139</ele>
        <time>2011-09-13T16:50:47Z</time>
      </trkpt>
      <trkpt lat="46.37282" lon="-0.25931">
        <ele>139</ele>
        <time>2011-09-13T16:50:52Z</time>
      </trkpt>
      <trkpt lat="46.37279" lon="-0.25936">
        <ele>139</ele>
        <time>2011-09-13T16:50:57Z</time>
      </trkpt>
      <trkpt lat="46.37279" lon="-0.25937">
        <ele>139</ele>
        <time>2011-09-13T16:51:02Z</time>
      </trkpt>
      <trkpt lat="46.37275" lon="-0.25944">
        <ele>139</ele>
        <time>2011-09-13T16:51:07Z</time>
      </trkpt>
      <trkpt lat="46.3726" lon="-0.25958">
        <ele>141</ele>
        <time>2011-09-13T16:51:12Z</time>
      </trkpt>
      <trkpt lat="46.37266" lon="-0.25973">
        <ele>139</ele>
        <time>2011-09-13T16:51:17Z</time>
      </trkpt>
      <trkpt lat="46.37264" lon="-0.25984">
        <ele>138</ele>
        <time>2011-09-13T16:51:22Z</time>
      </trkpt>
      <trkpt lat="46.37265" lon="-0.25986">
        <ele>135</ele>
        <time>2011-09-13T16:51:27Z</time>
      </trkpt>
      <trkpt lat="46.37264" lon="-0.25991">
        <ele>135</ele>
        <time>2011-09-13T16:51:32Z</time>
      </trkpt>
      <trkpt lat="46.37259" lon="-0.25997">
        <ele>137</ele>
        <time>2011-09-13T16:51:37Z</time>
      </trkpt>
      <trkpt lat="46.37256" lon="-0.2601">
        <ele>138</ele>
        <time>2011-09-13T16:51:42Z</time>
      </trkpt>
      <trkpt lat="46.37256" lon="-0.26016">
        <ele>137</ele>
        <time>2011-09-13T16:51:47Z</time>
      </trkpt>
      <trkpt lat="46.37252" lon="-0.26025">
        <ele>138</ele>
        <time>2011-09-13T16:51:52Z</time>
      </trkpt>
      <trkpt lat="46.37251" lon="-0.26034">
        <ele>139</ele>
        <time>2011-09-13T16:51:57Z</time>
      </trkpt>
      <trkpt lat="46.3725" lon="-0.26044">
        <ele>139</ele>
        <time>2011-09-13T16:52:02Z</time>
      </trkpt>
      <trkpt lat="46.37252" lon="-0.26051">
        <ele>138</ele>
        <time>2011-09-13T16:52:07Z</time>
      </trkpt>
      <trkpt lat="46.37252" lon="-0.2606">
        <ele>138</ele>
        <time>2011-09-13T16:52:12Z</time>
      </trkpt>
      <trkpt lat="46.37252" lon="-0.26068">
        <ele>137</ele>
        <time>2011-09-13T16:52:17Z</time>
      </trkpt>
      <trkpt lat="46.37251" lon="-0.26076">
        <ele>139</ele>
        <time>2011-09-13T16:52:22Z</time>
      </trkpt>
      <trkpt lat="46.37247" lon="-0.26081">
        <ele>141</ele>
        <time>2011-09-13T16:52:27Z</time>
      </trkpt>
      <trkpt lat="46.37244" lon="-0.26086">
        <ele>140</ele>
        <time>2011-09-13T16:52:32Z</time>
      </trkpt>
      <trkpt lat="46.37239" lon="-0.26089">
        <ele>139</ele>
        <time>2011-09-13T16:52:37Z</time>
      </trkpt>
      <trkpt lat="46.37233" lon="-0.26092">
        <ele>139</ele>
        <time>2011-09-13T16:52:42Z</time>
      </trkpt>
      <trkpt lat="46.37229" lon="-0.26094">
        <ele>140</ele>
        <time>2011-09-13T16:52:47Z</time>
      </trkpt>
      <trkpt lat="46.37224" lon="-0.26102">
        <ele>140</ele>
        <time>2011-09-13T16:52:52Z</time>
      </trkpt>
      <trkpt lat="46.37219" lon="-0.2611">
        <ele>140</ele>
        <time>2011-09-13T16:52:57Z</time>
      </trkpt>
      <trkpt lat="46.37215" lon="-0.26119">
        <ele>138</ele>
        <time>2011-09-13T16:53:02Z</time>
      </trkpt>
      <trkpt lat="46.37214" lon="-0.2613">
        <ele>138</ele>
        <time>2011-09-13T16:53:07Z</time>
      </trkpt>
      <trkpt lat="46.37214" lon="-0.26138">
        <ele>136</ele>
        <time>2011-09-13T16:53:12Z</time>
      </trkpt>
      <trkpt lat="46.37213" lon="-0.26146">
        <ele>136</ele>
        <time>2011-09-13T16:53:17Z</time>
      </trkpt>
      <trkpt lat="46.37212" lon="-0.26154">
        <ele>134</ele>
        <time>2011-09-13T16:53:22Z</time>
      </trkpt>
      <trkpt lat="46.37212" lon="-0.26161">
        <ele>134</ele>
        <time>2011-09-13T16:53:27Z</time>
      </trkpt>
      <trkpt lat="46.37212" lon="-0.26168">
        <ele>134</ele>
        <time>2011-09-13T16:53:32Z</time>
      </trkpt>
      <trkpt lat="46.37211" lon="-0.26175">
        <ele>134</ele>
        <time>2011-09-13T16:53:37Z</time>
      </trkpt>
      <trkpt lat="46.37213" lon="-0.26181">
        <ele>132</ele>
        <time>2011-09-13T16:53:42Z</time>
      </trkpt>
      <trkpt lat="46.37214" lon="-0.26182">
        <ele>132</ele>
        <time>2011-09-13T16:53:47Z</time>
      </trkpt>
      <trkpt lat="46.37214" lon="-0.26182">
        <ele>132</ele>
        <time>2011-09-13T16:53:52Z</time>
      </trkpt>
      <trkpt lat="46.37214" lon="-0.26182">
        <ele>133</ele>
        <time>2011-09-13T16:54:02Z</time>
      </trkpt>
      <trkpt lat="46.37214" lon="-0.26182">
        <ele>133</ele>
        <time>2011-09-13T16:54:07Z</time>
      </trkpt>
      <trkpt lat="46.37214" lon="-0.26182">
        <ele>133</ele>
        <time>2011-09-13T16:54:12Z</time>
      </trkpt>
      <trkpt lat="46.37214" lon="-0.26182">
        <ele>133</ele>
        <time>2011-09-13T16:54:17Z</time>
      </trkpt>
      <trkpt lat="46.37214" lon="-0.26182">
        <ele>133</ele>
        <time>2011-09-13T16:54:22Z</time>
      </trkpt>
      <trkpt lat="46.37214" lon="-0.26182">
        <ele>134</ele>
        <time>2011-09-13T16:54:32Z</time>
      </trkpt>
    </trkseg>
  </trk>
</gpx>